<?xml version="1.0" encoding="UTF-8" standalone="no" ?>
<gpx xmlns="http://www.topografix.com/GPX/1/1" xmlns:xsi="http://www.w3.org/2001/XMLSchema-instance" xsi:schemaLocation="http://www.topografix.com/GPX/1/1 http://www.topografix.com/GPX/1/1/gpx.xsd" version="1.1" creator="VisuGPX - https://www.visugpx.com">
  <metadata>
    <name>H-P : LAC DES PLAGNES-COL DE LENLEVAY </name>
    <desc><![CDATA[Boucle dans le sens horaire, au départ du parking du lac des Plagnes à Abondance, en passant par St Guérin, les chalets du Bailly et les chalets du Jouly pour rejoindre le col de Lenlevay, puis redescente par les chalets de Lens et les Chenaux derrière.
]]></desc>
  </metadata>
  <trk>
    <name><![CDATA[ABONDANCE 16:31:21]]></name>
    <trkseg>
      <trkpt lat="46.24807" lon="6.75479">
        <ele>1154.2</ele>
        <time>2020-02-07T09:11:15Z</time>
      </trkpt>
      <trkpt lat="46.24798" lon="6.75481">
        <ele>1157.08</ele>
        <time>2020-02-07T09:11:22Z</time>
      </trkpt>
      <trkpt lat="46.248" lon="6.75481">
        <ele>1159.97</ele>
        <time>2020-02-07T09:11:25Z</time>
      </trkpt>
      <trkpt lat="46.248" lon="6.75481">
        <ele>1159.97</ele>
        <time>2020-02-07T09:11:26Z</time>
      </trkpt>
      <trkpt lat="46.248" lon="6.75482">
        <ele>1163.81</ele>
        <time>2020-02-07T09:11:29Z</time>
      </trkpt>
      <trkpt lat="46.24801" lon="6.75482">
        <ele>1163.81</ele>
        <time>2020-02-07T09:11:30Z</time>
      </trkpt>
      <trkpt lat="46.24802" lon="6.75482">
        <ele>1166.7</ele>
        <time>2020-02-07T09:11:34Z</time>
      </trkpt>
      <trkpt lat="46.24801" lon="6.75482">
        <ele>1170.06</ele>
        <time>2020-02-07T09:11:38Z</time>
      </trkpt>
      <trkpt lat="46.24801" lon="6.75482">
        <ele>1170.54</ele>
        <time>2020-02-07T09:11:39Z</time>
      </trkpt>
      <trkpt lat="46.24801" lon="6.75482">
        <ele>1172.95</ele>
        <time>2020-02-07T09:11:44Z</time>
      </trkpt>
      <trkpt lat="46.24806" lon="6.75481">
        <ele>1174.87</ele>
        <time>2020-02-07T09:11:48Z</time>
      </trkpt>
      <trkpt lat="46.24812" lon="6.7548">
        <ele>1178.23</ele>
        <time>2020-02-07T09:11:55Z</time>
      </trkpt>
      <trkpt lat="46.24816" lon="6.75479">
        <ele>1181.6</ele>
        <time>2020-02-07T09:12:06Z</time>
      </trkpt>
      <trkpt lat="46.24826" lon="6.75477">
        <ele>1182.08</ele>
        <time>2020-02-07T09:12:32Z</time>
      </trkpt>
      <trkpt lat="46.24842" lon="6.75469">
        <ele>1180.64</ele>
        <time>2020-02-07T09:12:45Z</time>
      </trkpt>
      <trkpt lat="46.24851" lon="6.75463">
        <ele>1179.67</ele>
        <time>2020-02-07T09:12:54Z</time>
      </trkpt>
      <trkpt lat="46.24863" lon="6.75454">
        <ele>1179.19</ele>
        <time>2020-02-07T09:13:05Z</time>
      </trkpt>
      <trkpt lat="46.24871" lon="6.75447">
        <ele>1180.16</ele>
        <time>2020-02-07T09:13:13Z</time>
      </trkpt>
      <trkpt lat="46.24881" lon="6.75437">
        <ele>1183.04</ele>
        <time>2020-02-07T09:13:24Z</time>
      </trkpt>
      <trkpt lat="46.24887" lon="6.75428">
        <ele>1184</ele>
        <time>2020-02-07T09:13:33Z</time>
      </trkpt>
      <trkpt lat="46.24895" lon="6.75418">
        <ele>1186.4</ele>
        <time>2020-02-07T09:13:44Z</time>
      </trkpt>
      <trkpt lat="46.24902" lon="6.75409">
        <ele>1186.88</ele>
        <time>2020-02-07T09:13:53Z</time>
      </trkpt>
      <trkpt lat="46.24909" lon="6.75398">
        <ele>1186.88</ele>
        <time>2020-02-07T09:14:05Z</time>
      </trkpt>
      <trkpt lat="46.24912" lon="6.75393">
        <ele>1185.92</ele>
        <time>2020-02-07T09:14:10Z</time>
      </trkpt>
      <trkpt lat="46.24919" lon="6.75391">
        <ele>1186.4</ele>
        <time>2020-02-07T09:14:15Z</time>
      </trkpt>
      <trkpt lat="46.24931" lon="6.75378">
        <ele>1185.44</ele>
        <time>2020-02-07T09:14:27Z</time>
      </trkpt>
      <trkpt lat="46.24944" lon="6.75369">
        <ele>1185.44</ele>
        <time>2020-02-07T09:14:39Z</time>
      </trkpt>
      <trkpt lat="46.24954" lon="6.75358">
        <ele>1184.96</ele>
        <time>2020-02-07T09:14:52Z</time>
      </trkpt>
      <trkpt lat="46.24964" lon="6.75352">
        <ele>1184.96</ele>
        <time>2020-02-07T09:15:03Z</time>
      </trkpt>
      <trkpt lat="46.24975" lon="6.75345">
        <ele>1184.48</ele>
        <time>2020-02-07T09:15:13Z</time>
      </trkpt>
      <trkpt lat="46.24977" lon="6.75343">
        <ele>1184</ele>
        <time>2020-02-07T09:15:16Z</time>
      </trkpt>
      <trkpt lat="46.24984" lon="6.75336">
        <ele>1184</ele>
        <time>2020-02-07T09:15:24Z</time>
      </trkpt>
      <trkpt lat="46.24992" lon="6.75326">
        <ele>1184</ele>
        <time>2020-02-07T09:15:34Z</time>
      </trkpt>
      <trkpt lat="46.24995" lon="6.75321">
        <ele>1183.52</ele>
        <time>2020-02-07T09:15:38Z</time>
      </trkpt>
      <trkpt lat="46.24996" lon="6.75317">
        <ele>1183.52</ele>
        <time>2020-02-07T09:15:40Z</time>
      </trkpt>
      <trkpt lat="46.25003" lon="6.75311">
        <ele>1183.52</ele>
        <time>2020-02-07T09:15:47Z</time>
      </trkpt>
      <trkpt lat="46.25011" lon="6.75305">
        <ele>1183.52</ele>
        <time>2020-02-07T09:15:54Z</time>
      </trkpt>
      <trkpt lat="46.25014" lon="6.75302">
        <ele>1183.52</ele>
        <time>2020-02-07T09:15:57Z</time>
      </trkpt>
      <trkpt lat="46.2502" lon="6.75297">
        <ele>1182.56</ele>
        <time>2020-02-07T09:16:03Z</time>
      </trkpt>
      <trkpt lat="46.2503" lon="6.7529">
        <ele>1182.08</ele>
        <time>2020-02-07T09:16:12Z</time>
      </trkpt>
      <trkpt lat="46.25036" lon="6.75286">
        <ele>1182.08</ele>
        <time>2020-02-07T09:16:18Z</time>
      </trkpt>
      <trkpt lat="46.25046" lon="6.75277">
        <ele>1182.08</ele>
        <time>2020-02-07T09:16:30Z</time>
      </trkpt>
      <trkpt lat="46.25052" lon="6.75274">
        <ele>1182.08</ele>
        <time>2020-02-07T09:16:34Z</time>
      </trkpt>
      <trkpt lat="46.25054" lon="6.75272">
        <ele>1181.6</ele>
        <time>2020-02-07T09:16:37Z</time>
      </trkpt>
      <trkpt lat="46.25066" lon="6.75265">
        <ele>1182.08</ele>
        <time>2020-02-07T09:16:51Z</time>
      </trkpt>
      <trkpt lat="46.25074" lon="6.75262">
        <ele>1181.6</ele>
        <time>2020-02-07T09:16:59Z</time>
      </trkpt>
      <trkpt lat="46.25088" lon="6.75255">
        <ele>1181.12</ele>
        <time>2020-02-07T09:17:13Z</time>
      </trkpt>
      <trkpt lat="46.25099" lon="6.75251">
        <ele>1180.64</ele>
        <time>2020-02-07T09:17:25Z</time>
      </trkpt>
      <trkpt lat="46.25111" lon="6.75247">
        <ele>1180.64</ele>
        <time>2020-02-07T09:17:37Z</time>
      </trkpt>
      <trkpt lat="46.25122" lon="6.75242">
        <ele>1179.67</ele>
        <time>2020-02-07T09:17:47Z</time>
      </trkpt>
      <trkpt lat="46.25136" lon="6.75242">
        <ele>1179.67</ele>
        <time>2020-02-07T09:17:58Z</time>
      </trkpt>
      <trkpt lat="46.25145" lon="6.75243">
        <ele>1179.19</ele>
        <time>2020-02-07T09:18:10Z</time>
      </trkpt>
      <trkpt lat="46.25153" lon="6.75252">
        <ele>1179.67</ele>
        <time>2020-02-07T09:18:21Z</time>
      </trkpt>
      <trkpt lat="46.25154" lon="6.75254">
        <ele>1180.16</ele>
        <time>2020-02-07T09:18:24Z</time>
      </trkpt>
      <trkpt lat="46.25159" lon="6.75257">
        <ele>1180.16</ele>
        <time>2020-02-07T09:18:30Z</time>
      </trkpt>
      <trkpt lat="46.25169" lon="6.75265">
        <ele>1181.12</ele>
        <time>2020-02-07T09:18:41Z</time>
      </trkpt>
      <trkpt lat="46.25176" lon="6.75272">
        <ele>1181.12</ele>
        <time>2020-02-07T09:18:51Z</time>
      </trkpt>
      <trkpt lat="46.2518" lon="6.75274">
        <ele>1182.08</ele>
        <time>2020-02-07T09:19:04Z</time>
      </trkpt>
      <trkpt lat="46.25184" lon="6.75276">
        <ele>1182.56</ele>
        <time>2020-02-07T09:19:14Z</time>
      </trkpt>
      <trkpt lat="46.25185" lon="6.75276">
        <ele>1182.56</ele>
        <time>2020-02-07T09:19:15Z</time>
      </trkpt>
      <trkpt lat="46.25193" lon="6.75275">
        <ele>1184</ele>
        <time>2020-02-07T09:19:27Z</time>
      </trkpt>
      <trkpt lat="46.25197" lon="6.75274">
        <ele>1184</ele>
        <time>2020-02-07T09:19:30Z</time>
      </trkpt>
      <trkpt lat="46.25208" lon="6.75271">
        <ele>1184.96</ele>
        <time>2020-02-07T09:19:42Z</time>
      </trkpt>
      <trkpt lat="46.25216" lon="6.75266">
        <ele>1186.4</ele>
        <time>2020-02-07T09:19:52Z</time>
      </trkpt>
      <trkpt lat="46.25226" lon="6.75259">
        <ele>1185.92</ele>
        <time>2020-02-07T09:20:03Z</time>
      </trkpt>
      <trkpt lat="46.25231" lon="6.75256">
        <ele>1185.92</ele>
        <time>2020-02-07T09:20:16Z</time>
      </trkpt>
      <trkpt lat="46.25235" lon="6.75251">
        <ele>1186.88</ele>
        <time>2020-02-07T09:20:28Z</time>
      </trkpt>
      <trkpt lat="46.25244" lon="6.75241">
        <ele>1187.37</ele>
        <time>2020-02-07T09:20:42Z</time>
      </trkpt>
      <trkpt lat="46.25253" lon="6.7524">
        <ele>1186.88</ele>
        <time>2020-02-07T09:20:54Z</time>
      </trkpt>
      <trkpt lat="46.2526" lon="6.75236">
        <ele>1185.44</ele>
        <time>2020-02-07T09:21:05Z</time>
      </trkpt>
      <trkpt lat="46.25271" lon="6.75228">
        <ele>1184.96</ele>
        <time>2020-02-07T09:21:17Z</time>
      </trkpt>
      <trkpt lat="46.25276" lon="6.75216">
        <ele>1184.48</ele>
        <time>2020-02-07T09:21:30Z</time>
      </trkpt>
      <trkpt lat="46.2528" lon="6.75205">
        <ele>1184.48</ele>
        <time>2020-02-07T09:21:41Z</time>
      </trkpt>
      <trkpt lat="46.25283" lon="6.75202">
        <ele>1184.48</ele>
        <time>2020-02-07T09:21:45Z</time>
      </trkpt>
      <trkpt lat="46.25291" lon="6.75188">
        <ele>1184.96</ele>
        <time>2020-02-07T09:22:00Z</time>
      </trkpt>
      <trkpt lat="46.253" lon="6.75181">
        <ele>1185.44</ele>
        <time>2020-02-07T09:22:12Z</time>
      </trkpt>
      <trkpt lat="46.25307" lon="6.75174">
        <ele>1187.37</ele>
        <time>2020-02-07T09:22:23Z</time>
      </trkpt>
      <trkpt lat="46.25312" lon="6.75166">
        <ele>1187.85</ele>
        <time>2020-02-07T09:22:35Z</time>
      </trkpt>
      <trkpt lat="46.25316" lon="6.75162">
        <ele>1187.85</ele>
        <time>2020-02-07T09:22:48Z</time>
      </trkpt>
      <trkpt lat="46.25323" lon="6.75156">
        <ele>1189.29</ele>
        <time>2020-02-07T09:23:00Z</time>
      </trkpt>
      <trkpt lat="46.25328" lon="6.7515">
        <ele>1189.77</ele>
        <time>2020-02-07T09:23:13Z</time>
      </trkpt>
      <trkpt lat="46.25336" lon="6.75146">
        <ele>1191.21</ele>
        <time>2020-02-07T09:23:26Z</time>
      </trkpt>
      <trkpt lat="46.25341" lon="6.75145">
        <ele>1191.21</ele>
        <time>2020-02-07T09:23:34Z</time>
      </trkpt>
      <trkpt lat="46.25348" lon="6.75144">
        <ele>1192.65</ele>
        <time>2020-02-07T09:23:45Z</time>
      </trkpt>
      <trkpt lat="46.25352" lon="6.75143">
        <ele>1194.09</ele>
        <time>2020-02-07T09:23:56Z</time>
      </trkpt>
      <trkpt lat="46.25356" lon="6.75142">
        <ele>1194.09</ele>
        <time>2020-02-07T09:24:06Z</time>
      </trkpt>
      <trkpt lat="46.25363" lon="6.75142">
        <ele>1195.54</ele>
        <time>2020-02-07T09:24:18Z</time>
      </trkpt>
      <trkpt lat="46.25363" lon="6.75142">
        <ele>1195.54</ele>
        <time>2020-02-07T09:24:19Z</time>
      </trkpt>
      <trkpt lat="46.25368" lon="6.75142">
        <ele>1195.54</ele>
        <time>2020-02-07T09:24:27Z</time>
      </trkpt>
      <trkpt lat="46.25374" lon="6.75143">
        <ele>1196.98</ele>
        <time>2020-02-07T09:24:39Z</time>
      </trkpt>
      <trkpt lat="46.25381" lon="6.75145">
        <ele>1197.46</ele>
        <time>2020-02-07T09:24:50Z</time>
      </trkpt>
      <trkpt lat="46.25382" lon="6.75144">
        <ele>1197.46</ele>
        <time>2020-02-07T09:24:52Z</time>
      </trkpt>
      <trkpt lat="46.25389" lon="6.75146">
        <ele>1199.38</ele>
        <time>2020-02-07T09:25:04Z</time>
      </trkpt>
      <trkpt lat="46.25394" lon="6.75146">
        <ele>1200.34</ele>
        <time>2020-02-07T09:25:14Z</time>
      </trkpt>
      <trkpt lat="46.25405" lon="6.75145">
        <ele>1200.82</ele>
        <time>2020-02-07T09:25:25Z</time>
      </trkpt>
      <trkpt lat="46.25408" lon="6.75143">
        <ele>1202.27</ele>
        <time>2020-02-07T09:25:38Z</time>
      </trkpt>
      <trkpt lat="46.25413" lon="6.75143">
        <ele>1203.23</ele>
        <time>2020-02-07T09:25:49Z</time>
      </trkpt>
      <trkpt lat="46.2542" lon="6.75142">
        <ele>1204.19</ele>
        <time>2020-02-07T09:25:57Z</time>
      </trkpt>
      <trkpt lat="46.25436" lon="6.75133">
        <ele>1205.15</ele>
        <time>2020-02-07T09:26:09Z</time>
      </trkpt>
      <trkpt lat="46.2544" lon="6.7513">
        <ele>1206.11</ele>
        <time>2020-02-07T09:26:13Z</time>
      </trkpt>
      <trkpt lat="46.2545" lon="6.75127">
        <ele>1206.59</ele>
        <time>2020-02-07T09:26:24Z</time>
      </trkpt>
      <trkpt lat="46.25452" lon="6.75127">
        <ele>1209</ele>
        <time>2020-02-07T09:26:35Z</time>
      </trkpt>
      <trkpt lat="46.25455" lon="6.75127">
        <ele>1209.48</ele>
        <time>2020-02-07T09:26:46Z</time>
      </trkpt>
      <trkpt lat="46.25462" lon="6.75124">
        <ele>1210.44</ele>
        <time>2020-02-07T09:26:58Z</time>
      </trkpt>
      <trkpt lat="46.2547" lon="6.75123">
        <ele>1211.4</ele>
        <time>2020-02-07T09:27:07Z</time>
      </trkpt>
      <trkpt lat="46.25478" lon="6.75122">
        <ele>1212.84</ele>
        <time>2020-02-07T09:27:17Z</time>
      </trkpt>
      <trkpt lat="46.25485" lon="6.7512">
        <ele>1213.32</ele>
        <time>2020-02-07T09:27:27Z</time>
      </trkpt>
      <trkpt lat="46.25492" lon="6.75119">
        <ele>1214.28</ele>
        <time>2020-02-07T09:27:37Z</time>
      </trkpt>
      <trkpt lat="46.25499" lon="6.75118">
        <ele>1215.24</ele>
        <time>2020-02-07T09:27:47Z</time>
      </trkpt>
      <trkpt lat="46.25504" lon="6.75121">
        <ele>1216.69</ele>
        <time>2020-02-07T09:28:01Z</time>
      </trkpt>
      <trkpt lat="46.25506" lon="6.75124">
        <ele>1218.13</ele>
        <time>2020-02-07T09:28:13Z</time>
      </trkpt>
      <trkpt lat="46.25512" lon="6.75125">
        <ele>1219.09</ele>
        <time>2020-02-07T09:28:25Z</time>
      </trkpt>
      <trkpt lat="46.25513" lon="6.75127">
        <ele>1221.01</ele>
        <time>2020-02-07T09:28:35Z</time>
      </trkpt>
      <trkpt lat="46.25524" lon="6.75126">
        <ele>1221.97</ele>
        <time>2020-02-07T09:28:47Z</time>
      </trkpt>
      <trkpt lat="46.25531" lon="6.75125">
        <ele>1223.42</ele>
        <time>2020-02-07T09:29:00Z</time>
      </trkpt>
      <trkpt lat="46.25538" lon="6.75124">
        <ele>1223.9</ele>
        <time>2020-02-07T09:29:15Z</time>
      </trkpt>
      <trkpt lat="46.25543" lon="6.75128">
        <ele>1225.34</ele>
        <time>2020-02-07T09:29:25Z</time>
      </trkpt>
      <trkpt lat="46.25547" lon="6.75132">
        <ele>1226.78</ele>
        <time>2020-02-07T09:29:37Z</time>
      </trkpt>
      <trkpt lat="46.25555" lon="6.75134">
        <ele>1227.74</ele>
        <time>2020-02-07T09:29:47Z</time>
      </trkpt>
      <trkpt lat="46.25562" lon="6.75135">
        <ele>1228.7</ele>
        <time>2020-02-07T09:29:59Z</time>
      </trkpt>
      <trkpt lat="46.2557" lon="6.75137">
        <ele>1230.62</ele>
        <time>2020-02-07T09:30:10Z</time>
      </trkpt>
      <trkpt lat="46.25572" lon="6.75145">
        <ele>1231.59</ele>
        <time>2020-02-07T09:30:20Z</time>
      </trkpt>
      <trkpt lat="46.25576" lon="6.75151">
        <ele>1232.55</ele>
        <time>2020-02-07T09:30:30Z</time>
      </trkpt>
      <trkpt lat="46.25583" lon="6.75153">
        <ele>1233.99</ele>
        <time>2020-02-07T09:30:41Z</time>
      </trkpt>
      <trkpt lat="46.25588" lon="6.75157">
        <ele>1234.95</ele>
        <time>2020-02-07T09:30:50Z</time>
      </trkpt>
      <trkpt lat="46.25592" lon="6.75162">
        <ele>1236.87</ele>
        <time>2020-02-07T09:31:03Z</time>
      </trkpt>
      <trkpt lat="46.25595" lon="6.7517">
        <ele>1237.83</ele>
        <time>2020-02-07T09:31:14Z</time>
      </trkpt>
      <trkpt lat="46.25599" lon="6.75177">
        <ele>1238.8</ele>
        <time>2020-02-07T09:31:24Z</time>
      </trkpt>
      <trkpt lat="46.25604" lon="6.75183">
        <ele>1240.24</ele>
        <time>2020-02-07T09:31:36Z</time>
      </trkpt>
      <trkpt lat="46.25609" lon="6.75185">
        <ele>1241.68</ele>
        <time>2020-02-07T09:31:48Z</time>
      </trkpt>
      <trkpt lat="46.2561" lon="6.75185">
        <ele>1242.16</ele>
        <time>2020-02-07T09:32:04Z</time>
      </trkpt>
      <trkpt lat="46.2561" lon="6.75184">
        <ele>1241.68</ele>
        <time>2020-02-07T09:33:37Z</time>
      </trkpt>
      <trkpt lat="46.25611" lon="6.75184">
        <ele>1241.68</ele>
        <time>2020-02-07T09:34:03Z</time>
      </trkpt>
      <trkpt lat="46.2561" lon="6.75185">
        <ele>1241.68</ele>
        <time>2020-02-07T09:34:33Z</time>
      </trkpt>
      <trkpt lat="46.2561" lon="6.75185">
        <ele>1241.68</ele>
        <time>2020-02-07T09:35:38Z</time>
      </trkpt>
      <trkpt lat="46.2561" lon="6.75185">
        <ele>1241.2</ele>
        <time>2020-02-07T09:36:00Z</time>
      </trkpt>
      <trkpt lat="46.2561" lon="6.75185">
        <ele>1241.2</ele>
        <time>2020-02-07T09:36:33Z</time>
      </trkpt>
      <trkpt lat="46.25616" lon="6.75181">
        <ele>1241.2</ele>
        <time>2020-02-07T09:36:59Z</time>
      </trkpt>
      <trkpt lat="46.25619" lon="6.7518">
        <ele>1241.68</ele>
        <time>2020-02-07T09:37:10Z</time>
      </trkpt>
      <trkpt lat="46.25624" lon="6.75171">
        <ele>1241.68</ele>
        <time>2020-02-07T09:37:23Z</time>
      </trkpt>
      <trkpt lat="46.25633" lon="6.75163">
        <ele>1242.64</ele>
        <time>2020-02-07T09:37:35Z</time>
      </trkpt>
      <trkpt lat="46.2564" lon="6.75162">
        <ele>1243.12</ele>
        <time>2020-02-07T09:37:47Z</time>
      </trkpt>
      <trkpt lat="46.25656" lon="6.7516">
        <ele>1244.56</ele>
        <time>2020-02-07T09:38:02Z</time>
      </trkpt>
      <trkpt lat="46.25664" lon="6.7516">
        <ele>1246.49</ele>
        <time>2020-02-07T09:38:14Z</time>
      </trkpt>
      <trkpt lat="46.25669" lon="6.75164">
        <ele>1245.53</ele>
        <time>2020-02-07T09:38:27Z</time>
      </trkpt>
      <trkpt lat="46.25669" lon="6.75166">
        <ele>1245.53</ele>
        <time>2020-02-07T09:38:40Z</time>
      </trkpt>
      <trkpt lat="46.25668" lon="6.75173">
        <ele>1246.01</ele>
        <time>2020-02-07T09:38:55Z</time>
      </trkpt>
      <trkpt lat="46.2567" lon="6.75178">
        <ele>1246.01</ele>
        <time>2020-02-07T09:39:12Z</time>
      </trkpt>
      <trkpt lat="46.2567" lon="6.7518">
        <ele>1246.97</ele>
        <time>2020-02-07T09:39:28Z</time>
      </trkpt>
      <trkpt lat="46.25671" lon="6.75181">
        <ele>1246.97</ele>
        <time>2020-02-07T09:39:43Z</time>
      </trkpt>
      <trkpt lat="46.25674" lon="6.75179">
        <ele>1246.49</ele>
        <time>2020-02-07T09:40:08Z</time>
      </trkpt>
      <trkpt lat="46.25674" lon="6.75177">
        <ele>1246.97</ele>
        <time>2020-02-07T09:40:24Z</time>
      </trkpt>
      <trkpt lat="46.25675" lon="6.75177">
        <ele>1246.49</ele>
        <time>2020-02-07T09:40:43Z</time>
      </trkpt>
      <trkpt lat="46.25675" lon="6.75172">
        <ele>1245.53</ele>
        <time>2020-02-07T09:41:06Z</time>
      </trkpt>
      <trkpt lat="46.2568" lon="6.75164">
        <ele>1246.01</ele>
        <time>2020-02-07T09:41:19Z</time>
      </trkpt>
      <trkpt lat="46.25689" lon="6.75164">
        <ele>1247.93</ele>
        <time>2020-02-07T09:41:33Z</time>
      </trkpt>
      <trkpt lat="46.25691" lon="6.75165">
        <ele>1248.41</ele>
        <time>2020-02-07T09:41:37Z</time>
      </trkpt>
      <trkpt lat="46.25698" lon="6.7517">
        <ele>1248.41</ele>
        <time>2020-02-07T09:41:48Z</time>
      </trkpt>
      <trkpt lat="46.25706" lon="6.75176">
        <ele>1248.89</ele>
        <time>2020-02-07T09:42:00Z</time>
      </trkpt>
      <trkpt lat="46.2571" lon="6.75172">
        <ele>1249.37</ele>
        <time>2020-02-07T09:42:06Z</time>
      </trkpt>
      <trkpt lat="46.25712" lon="6.75167">
        <ele>1248.41</ele>
        <time>2020-02-07T09:42:09Z</time>
      </trkpt>
      <trkpt lat="46.25714" lon="6.75164">
        <ele>1247.93</ele>
        <time>2020-02-07T09:42:12Z</time>
      </trkpt>
      <trkpt lat="46.2572" lon="6.75154">
        <ele>1248.41</ele>
        <time>2020-02-07T09:42:21Z</time>
      </trkpt>
      <trkpt lat="46.25731" lon="6.75148">
        <ele>1248.89</ele>
        <time>2020-02-07T09:42:34Z</time>
      </trkpt>
      <trkpt lat="46.25738" lon="6.75142">
        <ele>1249.37</ele>
        <time>2020-02-07T09:42:47Z</time>
      </trkpt>
      <trkpt lat="46.25746" lon="6.75151">
        <ele>1250.33</ele>
        <time>2020-02-07T09:42:56Z</time>
      </trkpt>
      <trkpt lat="46.25751" lon="6.75162">
        <ele>1250.81</ele>
        <time>2020-02-07T09:43:09Z</time>
      </trkpt>
      <trkpt lat="46.25752" lon="6.75163">
        <ele>1251.77</ele>
        <time>2020-02-07T09:43:10Z</time>
      </trkpt>
      <trkpt lat="46.25753" lon="6.75174">
        <ele>1252.74</ele>
        <time>2020-02-07T09:43:22Z</time>
      </trkpt>
      <trkpt lat="46.25758" lon="6.75185">
        <ele>1253.7</ele>
        <time>2020-02-07T09:43:36Z</time>
      </trkpt>
      <trkpt lat="46.25761" lon="6.75192">
        <ele>1255.14</ele>
        <time>2020-02-07T09:43:49Z</time>
      </trkpt>
      <trkpt lat="46.25764" lon="6.75199">
        <ele>1256.1</ele>
        <time>2020-02-07T09:44:00Z</time>
      </trkpt>
      <trkpt lat="46.25765" lon="6.75205">
        <ele>1258.02</ele>
        <time>2020-02-07T09:44:14Z</time>
      </trkpt>
      <trkpt lat="46.25766" lon="6.75211">
        <ele>1258.02</ele>
        <time>2020-02-07T09:44:21Z</time>
      </trkpt>
      <trkpt lat="46.25767" lon="6.7522">
        <ele>1259.46</ele>
        <time>2020-02-07T09:44:35Z</time>
      </trkpt>
      <trkpt lat="46.25768" lon="6.75223">
        <ele>1261.87</ele>
        <time>2020-02-07T09:44:51Z</time>
      </trkpt>
      <trkpt lat="46.25768" lon="6.75232">
        <ele>1263.79</ele>
        <time>2020-02-07T09:45:09Z</time>
      </trkpt>
      <trkpt lat="46.25769" lon="6.75236">
        <ele>1265.71</ele>
        <time>2020-02-07T09:45:25Z</time>
      </trkpt>
      <trkpt lat="46.25764" lon="6.75254">
        <ele>1266.67</ele>
        <time>2020-02-07T09:45:39Z</time>
      </trkpt>
      <trkpt lat="46.25764" lon="6.75266">
        <ele>1269.08</ele>
        <time>2020-02-07T09:45:54Z</time>
      </trkpt>
      <trkpt lat="46.25763" lon="6.7527">
        <ele>1270.04</ele>
        <time>2020-02-07T09:46:07Z</time>
      </trkpt>
      <trkpt lat="46.25764" lon="6.75283">
        <ele>1272.44</ele>
        <time>2020-02-07T09:46:24Z</time>
      </trkpt>
      <trkpt lat="46.25766" lon="6.75292">
        <ele>1273.88</ele>
        <time>2020-02-07T09:46:35Z</time>
      </trkpt>
      <trkpt lat="46.25767" lon="6.75297">
        <ele>1275.33</ele>
        <time>2020-02-07T09:46:50Z</time>
      </trkpt>
      <trkpt lat="46.25771" lon="6.75302">
        <ele>1277.25</ele>
        <time>2020-02-07T09:47:01Z</time>
      </trkpt>
      <trkpt lat="46.25774" lon="6.75306">
        <ele>1278.21</ele>
        <time>2020-02-07T09:47:10Z</time>
      </trkpt>
      <trkpt lat="46.25776" lon="6.75311">
        <ele>1279.65</ele>
        <time>2020-02-07T09:47:23Z</time>
      </trkpt>
      <trkpt lat="46.25778" lon="6.75314">
        <ele>1280.61</ele>
        <time>2020-02-07T09:47:38Z</time>
      </trkpt>
      <trkpt lat="46.25782" lon="6.7533">
        <ele>1282.54</ele>
        <time>2020-02-07T09:47:52Z</time>
      </trkpt>
      <trkpt lat="46.25783" lon="6.75341">
        <ele>1283.98</ele>
        <time>2020-02-07T09:48:05Z</time>
      </trkpt>
      <trkpt lat="46.25782" lon="6.75347">
        <ele>1285.42</ele>
        <time>2020-02-07T09:48:21Z</time>
      </trkpt>
      <trkpt lat="46.2578" lon="6.75366">
        <ele>1287.34</ele>
        <time>2020-02-07T09:48:35Z</time>
      </trkpt>
      <trkpt lat="46.25778" lon="6.75375">
        <ele>1288.78</ele>
        <time>2020-02-07T09:48:47Z</time>
      </trkpt>
      <trkpt lat="46.25777" lon="6.75385">
        <ele>1289.75</ele>
        <time>2020-02-07T09:49:01Z</time>
      </trkpt>
      <trkpt lat="46.25773" lon="6.75395">
        <ele>1291.67</ele>
        <time>2020-02-07T09:49:14Z</time>
      </trkpt>
      <trkpt lat="46.25767" lon="6.75402">
        <ele>1293.11</ele>
        <time>2020-02-07T09:49:27Z</time>
      </trkpt>
      <trkpt lat="46.25765" lon="6.75405">
        <ele>1293.59</ele>
        <time>2020-02-07T09:49:45Z</time>
      </trkpt>
      <trkpt lat="46.25765" lon="6.75405">
        <ele>1293.11</ele>
        <time>2020-02-07T09:50:20Z</time>
      </trkpt>
      <trkpt lat="46.25764" lon="6.75405">
        <ele>1293.11</ele>
        <time>2020-02-07T09:51:12Z</time>
      </trkpt>
      <trkpt lat="46.25764" lon="6.75406">
        <ele>1293.59</ele>
        <time>2020-02-07T09:52:17Z</time>
      </trkpt>
      <trkpt lat="46.25764" lon="6.75406">
        <ele>1293.11</ele>
        <time>2020-02-07T09:52:37Z</time>
      </trkpt>
      <trkpt lat="46.25763" lon="6.75406">
        <ele>1293.59</ele>
        <time>2020-02-07T09:53:06Z</time>
      </trkpt>
      <trkpt lat="46.25763" lon="6.75406">
        <ele>1294.07</ele>
        <time>2020-02-07T09:53:44Z</time>
      </trkpt>
      <trkpt lat="46.25762" lon="6.75404">
        <ele>1295.03</ele>
        <time>2020-02-07T09:54:33Z</time>
      </trkpt>
      <trkpt lat="46.25762" lon="6.75405">
        <ele>1295.03</ele>
        <time>2020-02-07T09:55:04Z</time>
      </trkpt>
      <trkpt lat="46.25762" lon="6.75406">
        <ele>1295.51</ele>
        <time>2020-02-07T09:55:24Z</time>
      </trkpt>
      <trkpt lat="46.25763" lon="6.75407">
        <ele>1295.51</ele>
        <time>2020-02-07T09:55:56Z</time>
      </trkpt>
      <trkpt lat="46.2576" lon="6.75411">
        <ele>1295.99</ele>
        <time>2020-02-07T09:57:10Z</time>
      </trkpt>
      <trkpt lat="46.2576" lon="6.75417">
        <ele>1298.4</ele>
        <time>2020-02-07T09:57:24Z</time>
      </trkpt>
      <trkpt lat="46.25756" lon="6.75427">
        <ele>1298.4</ele>
        <time>2020-02-07T09:57:40Z</time>
      </trkpt>
      <trkpt lat="46.25744" lon="6.75434">
        <ele>1299.84</ele>
        <time>2020-02-07T09:57:53Z</time>
      </trkpt>
      <trkpt lat="46.25741" lon="6.75442">
        <ele>1301.76</ele>
        <time>2020-02-07T09:58:08Z</time>
      </trkpt>
      <trkpt lat="46.25738" lon="6.75452">
        <ele>1303.69</ele>
        <time>2020-02-07T09:58:23Z</time>
      </trkpt>
      <trkpt lat="46.25735" lon="6.75459">
        <ele>1305.61</ele>
        <time>2020-02-07T09:58:35Z</time>
      </trkpt>
      <trkpt lat="46.25733" lon="6.75473">
        <ele>1306.57</ele>
        <time>2020-02-07T09:58:50Z</time>
      </trkpt>
      <trkpt lat="46.2573" lon="6.75479">
        <ele>1308.01</ele>
        <time>2020-02-07T09:59:00Z</time>
      </trkpt>
      <trkpt lat="46.25729" lon="6.75486">
        <ele>1308.97</ele>
        <time>2020-02-07T09:59:12Z</time>
      </trkpt>
      <trkpt lat="46.25726" lon="6.75493">
        <ele>1309.93</ele>
        <time>2020-02-07T09:59:24Z</time>
      </trkpt>
      <trkpt lat="46.25725" lon="6.75498">
        <ele>1311.86</ele>
        <time>2020-02-07T09:59:38Z</time>
      </trkpt>
      <trkpt lat="46.25725" lon="6.755">
        <ele>1311.86</ele>
        <time>2020-02-07T09:59:59Z</time>
      </trkpt>
      <trkpt lat="46.25723" lon="6.75506">
        <ele>1313.78</ele>
        <time>2020-02-07T10:00:10Z</time>
      </trkpt>
      <trkpt lat="46.25721" lon="6.7551">
        <ele>1314.74</ele>
        <time>2020-02-07T10:00:22Z</time>
      </trkpt>
      <trkpt lat="46.2572" lon="6.75517">
        <ele>1316.66</ele>
        <time>2020-02-07T10:00:36Z</time>
      </trkpt>
      <trkpt lat="46.2572" lon="6.75526">
        <ele>1318.1</ele>
        <time>2020-02-07T10:00:47Z</time>
      </trkpt>
      <trkpt lat="46.25717" lon="6.75537">
        <ele>1319.55</ele>
        <time>2020-02-07T10:01:00Z</time>
      </trkpt>
      <trkpt lat="46.25715" lon="6.75544">
        <ele>1320.51</ele>
        <time>2020-02-07T10:01:11Z</time>
      </trkpt>
      <trkpt lat="46.25715" lon="6.7555">
        <ele>1322.43</ele>
        <time>2020-02-07T10:01:23Z</time>
      </trkpt>
      <trkpt lat="46.25714" lon="6.7556">
        <ele>1323.87</ele>
        <time>2020-02-07T10:01:36Z</time>
      </trkpt>
      <trkpt lat="46.25711" lon="6.75567">
        <ele>1325.31</ele>
        <time>2020-02-07T10:01:46Z</time>
      </trkpt>
      <trkpt lat="46.25708" lon="6.75576">
        <ele>1327.24</ele>
        <time>2020-02-07T10:02:00Z</time>
      </trkpt>
      <trkpt lat="46.25707" lon="6.75579">
        <ele>1328.2</ele>
        <time>2020-02-07T10:02:12Z</time>
      </trkpt>
      <trkpt lat="46.25703" lon="6.75587">
        <ele>1330.12</ele>
        <time>2020-02-07T10:02:26Z</time>
      </trkpt>
      <trkpt lat="46.257" lon="6.75594">
        <ele>1331.56</ele>
        <time>2020-02-07T10:02:38Z</time>
      </trkpt>
      <trkpt lat="46.25703" lon="6.75604">
        <ele>1333.49</ele>
        <time>2020-02-07T10:02:53Z</time>
      </trkpt>
      <trkpt lat="46.25707" lon="6.75613">
        <ele>1334.93</ele>
        <time>2020-02-07T10:03:04Z</time>
      </trkpt>
      <trkpt lat="46.25711" lon="6.75617">
        <ele>1335.89</ele>
        <time>2020-02-07T10:03:13Z</time>
      </trkpt>
      <trkpt lat="46.25714" lon="6.75618">
        <ele>1336.37</ele>
        <time>2020-02-07T10:03:19Z</time>
      </trkpt>
      <trkpt lat="46.2572" lon="6.75614">
        <ele>1337.81</ele>
        <time>2020-02-07T10:03:31Z</time>
      </trkpt>
      <trkpt lat="46.25722" lon="6.75608">
        <ele>1339.25</ele>
        <time>2020-02-07T10:03:43Z</time>
      </trkpt>
      <trkpt lat="46.25726" lon="6.75599">
        <ele>1340.7</ele>
        <time>2020-02-07T10:03:56Z</time>
      </trkpt>
      <trkpt lat="46.25732" lon="6.75596">
        <ele>1342.14</ele>
        <time>2020-02-07T10:04:05Z</time>
      </trkpt>
      <trkpt lat="46.25737" lon="6.75588">
        <ele>1343.1</ele>
        <time>2020-02-07T10:04:16Z</time>
      </trkpt>
      <trkpt lat="46.25744" lon="6.75582">
        <ele>1344.54</ele>
        <time>2020-02-07T10:04:27Z</time>
      </trkpt>
      <trkpt lat="46.25749" lon="6.75572">
        <ele>1345.5</ele>
        <time>2020-02-07T10:04:39Z</time>
      </trkpt>
      <trkpt lat="46.25756" lon="6.75564">
        <ele>1347.43</ele>
        <time>2020-02-07T10:04:51Z</time>
      </trkpt>
      <trkpt lat="46.25761" lon="6.75572">
        <ele>1348.39</ele>
        <time>2020-02-07T10:05:01Z</time>
      </trkpt>
      <trkpt lat="46.25762" lon="6.75579">
        <ele>1349.35</ele>
        <time>2020-02-07T10:05:12Z</time>
      </trkpt>
      <trkpt lat="46.25764" lon="6.75582">
        <ele>1350.79</ele>
        <time>2020-02-07T10:05:17Z</time>
      </trkpt>
      <trkpt lat="46.25768" lon="6.75586">
        <ele>1351.27</ele>
        <time>2020-02-07T10:05:28Z</time>
      </trkpt>
      <trkpt lat="46.25767" lon="6.75586">
        <ele>1351.27</ele>
        <time>2020-02-07T10:06:06Z</time>
      </trkpt>
      <trkpt lat="46.25767" lon="6.75586">
        <ele>1351.27</ele>
        <time>2020-02-07T10:07:31Z</time>
      </trkpt>
      <trkpt lat="46.25767" lon="6.75588">
        <ele>1351.27</ele>
        <time>2020-02-07T10:07:44Z</time>
      </trkpt>
      <trkpt lat="46.25767" lon="6.75587">
        <ele>1350.31</ele>
        <time>2020-02-07T10:08:02Z</time>
      </trkpt>
      <trkpt lat="46.25768" lon="6.75588">
        <ele>1351.75</ele>
        <time>2020-02-07T10:09:18Z</time>
      </trkpt>
      <trkpt lat="46.25768" lon="6.75588">
        <ele>1351.75</ele>
        <time>2020-02-07T10:09:49Z</time>
      </trkpt>
      <trkpt lat="46.25768" lon="6.75588">
        <ele>1351.27</ele>
        <time>2020-02-07T10:10:36Z</time>
      </trkpt>
      <trkpt lat="46.25766" lon="6.7559">
        <ele>1351.27</ele>
        <time>2020-02-07T10:11:30Z</time>
      </trkpt>
      <trkpt lat="46.25762" lon="6.75598">
        <ele>1351.75</ele>
        <time>2020-02-07T10:11:42Z</time>
      </trkpt>
      <trkpt lat="46.25757" lon="6.7561">
        <ele>1352.23</ele>
        <time>2020-02-07T10:11:54Z</time>
      </trkpt>
      <trkpt lat="46.25757" lon="6.75612">
        <ele>1351.75</ele>
        <time>2020-02-07T10:11:56Z</time>
      </trkpt>
      <trkpt lat="46.25756" lon="6.75626">
        <ele>1351.75</ele>
        <time>2020-02-07T10:12:07Z</time>
      </trkpt>
      <trkpt lat="46.25756" lon="6.7563">
        <ele>1352.23</ele>
        <time>2020-02-07T10:12:10Z</time>
      </trkpt>
      <trkpt lat="46.25757" lon="6.75644">
        <ele>1352.23</ele>
        <time>2020-02-07T10:12:22Z</time>
      </trkpt>
      <trkpt lat="46.25757" lon="6.75648">
        <ele>1351.75</ele>
        <time>2020-02-07T10:12:24Z</time>
      </trkpt>
      <trkpt lat="46.25758" lon="6.75653">
        <ele>1352.23</ele>
        <time>2020-02-07T10:12:27Z</time>
      </trkpt>
      <trkpt lat="46.25758" lon="6.7567">
        <ele>1352.71</ele>
        <time>2020-02-07T10:12:37Z</time>
      </trkpt>
      <trkpt lat="46.25758" lon="6.75688">
        <ele>1353.19</ele>
        <time>2020-02-07T10:12:49Z</time>
      </trkpt>
      <trkpt lat="46.25756" lon="6.75695">
        <ele>1353.19</ele>
        <time>2020-02-07T10:12:54Z</time>
      </trkpt>
      <trkpt lat="46.2575" lon="6.75712">
        <ele>1354.15</ele>
        <time>2020-02-07T10:13:06Z</time>
      </trkpt>
      <trkpt lat="46.25747" lon="6.75718">
        <ele>1354.63</ele>
        <time>2020-02-07T10:13:19Z</time>
      </trkpt>
      <trkpt lat="46.25745" lon="6.75722">
        <ele>1354.63</ele>
        <time>2020-02-07T10:13:35Z</time>
      </trkpt>
      <trkpt lat="46.2574" lon="6.75731">
        <ele>1355.6</ele>
        <time>2020-02-07T10:13:46Z</time>
      </trkpt>
      <trkpt lat="46.25733" lon="6.75734">
        <ele>1357.04</ele>
        <time>2020-02-07T10:13:57Z</time>
      </trkpt>
      <trkpt lat="46.25728" lon="6.75736">
        <ele>1357.52</ele>
        <time>2020-02-07T10:14:01Z</time>
      </trkpt>
      <trkpt lat="46.25719" lon="6.75739">
        <ele>1358.96</ele>
        <time>2020-02-07T10:14:12Z</time>
      </trkpt>
      <trkpt lat="46.25717" lon="6.75741">
        <ele>1359.92</ele>
        <time>2020-02-07T10:14:26Z</time>
      </trkpt>
      <trkpt lat="46.25716" lon="6.75742">
        <ele>1359.44</ele>
        <time>2020-02-07T10:14:43Z</time>
      </trkpt>
      <trkpt lat="46.25715" lon="6.75744">
        <ele>1359.44</ele>
        <time>2020-02-07T10:14:45Z</time>
      </trkpt>
      <trkpt lat="46.25719" lon="6.75752">
        <ele>1361.36</ele>
        <time>2020-02-07T10:14:58Z</time>
      </trkpt>
      <trkpt lat="46.25724" lon="6.7576">
        <ele>1363.29</ele>
        <time>2020-02-07T10:15:09Z</time>
      </trkpt>
      <trkpt lat="46.25728" lon="6.75768">
        <ele>1364.73</ele>
        <time>2020-02-07T10:15:20Z</time>
      </trkpt>
      <trkpt lat="46.2573" lon="6.75777">
        <ele>1366.17</ele>
        <time>2020-02-07T10:15:30Z</time>
      </trkpt>
      <trkpt lat="46.25726" lon="6.75784">
        <ele>1368.09</ele>
        <time>2020-02-07T10:15:40Z</time>
      </trkpt>
      <trkpt lat="46.25719" lon="6.75783">
        <ele>1368.57</ele>
        <time>2020-02-07T10:15:51Z</time>
      </trkpt>
      <trkpt lat="46.25711" lon="6.75778">
        <ele>1370.02</ele>
        <time>2020-02-07T10:16:02Z</time>
      </trkpt>
      <trkpt lat="46.25707" lon="6.75779">
        <ele>1371.46</ele>
        <time>2020-02-07T10:16:15Z</time>
      </trkpt>
      <trkpt lat="46.25703" lon="6.75785">
        <ele>1372.9</ele>
        <time>2020-02-07T10:16:26Z</time>
      </trkpt>
      <trkpt lat="46.257" lon="6.75793">
        <ele>1374.82</ele>
        <time>2020-02-07T10:16:37Z</time>
      </trkpt>
      <trkpt lat="46.25698" lon="6.758">
        <ele>1375.78</ele>
        <time>2020-02-07T10:16:45Z</time>
      </trkpt>
      <trkpt lat="46.25693" lon="6.7581">
        <ele>1376.26</ele>
        <time>2020-02-07T10:16:58Z</time>
      </trkpt>
      <trkpt lat="46.2569" lon="6.75813">
        <ele>1377.71</ele>
        <time>2020-02-07T10:17:09Z</time>
      </trkpt>
      <trkpt lat="46.25688" lon="6.7582">
        <ele>1378.67</ele>
        <time>2020-02-07T10:17:23Z</time>
      </trkpt>
      <trkpt lat="46.25687" lon="6.75826">
        <ele>1380.59</ele>
        <time>2020-02-07T10:17:36Z</time>
      </trkpt>
      <trkpt lat="46.25686" lon="6.75832">
        <ele>1382.99</ele>
        <time>2020-02-07T10:17:49Z</time>
      </trkpt>
      <trkpt lat="46.25686" lon="6.75844">
        <ele>1384.44</ele>
        <time>2020-02-07T10:18:02Z</time>
      </trkpt>
      <trkpt lat="46.25683" lon="6.75853">
        <ele>1386.36</ele>
        <time>2020-02-07T10:18:17Z</time>
      </trkpt>
      <trkpt lat="46.25683" lon="6.75861">
        <ele>1387.32</ele>
        <time>2020-02-07T10:18:27Z</time>
      </trkpt>
      <trkpt lat="46.25681" lon="6.75865">
        <ele>1389.24</ele>
        <time>2020-02-07T10:18:39Z</time>
      </trkpt>
      <trkpt lat="46.25678" lon="6.75875">
        <ele>1391.17</ele>
        <time>2020-02-07T10:18:54Z</time>
      </trkpt>
      <trkpt lat="46.25674" lon="6.75883">
        <ele>1393.09</ele>
        <time>2020-02-07T10:19:06Z</time>
      </trkpt>
      <trkpt lat="46.25672" lon="6.75889">
        <ele>1394.53</ele>
        <time>2020-02-07T10:19:19Z</time>
      </trkpt>
      <trkpt lat="46.25666" lon="6.75894">
        <ele>1395.97</ele>
        <time>2020-02-07T10:19:32Z</time>
      </trkpt>
      <trkpt lat="46.2566" lon="6.759">
        <ele>1398.37</ele>
        <time>2020-02-07T10:19:47Z</time>
      </trkpt>
      <trkpt lat="46.2566" lon="6.75904">
        <ele>1398.37</ele>
        <time>2020-02-07T10:20:07Z</time>
      </trkpt>
      <trkpt lat="46.2566" lon="6.75904">
        <ele>1399.34</ele>
        <time>2020-02-07T10:21:36Z</time>
      </trkpt>
      <trkpt lat="46.25663" lon="6.75906">
        <ele>1398.86</ele>
        <time>2020-02-07T10:23:52Z</time>
      </trkpt>
      <trkpt lat="46.25666" lon="6.75912">
        <ele>1399.82</ele>
        <time>2020-02-07T10:24:04Z</time>
      </trkpt>
      <trkpt lat="46.25667" lon="6.75917">
        <ele>1401.26</ele>
        <time>2020-02-07T10:24:19Z</time>
      </trkpt>
      <trkpt lat="46.25669" lon="6.75924">
        <ele>1402.7</ele>
        <time>2020-02-07T10:24:31Z</time>
      </trkpt>
      <trkpt lat="46.25669" lon="6.75928">
        <ele>1404.62</ele>
        <time>2020-02-07T10:24:42Z</time>
      </trkpt>
      <trkpt lat="46.25672" lon="6.75934">
        <ele>1405.58</ele>
        <time>2020-02-07T10:24:55Z</time>
      </trkpt>
      <trkpt lat="46.25674" lon="6.75941">
        <ele>1407.03</ele>
        <time>2020-02-07T10:25:08Z</time>
      </trkpt>
      <trkpt lat="46.25676" lon="6.75948">
        <ele>1407.99</ele>
        <time>2020-02-07T10:25:20Z</time>
      </trkpt>
      <trkpt lat="46.25677" lon="6.75949">
        <ele>1409.91</ele>
        <time>2020-02-07T10:25:36Z</time>
      </trkpt>
      <trkpt lat="46.25675" lon="6.7596">
        <ele>1411.35</ele>
        <time>2020-02-07T10:25:51Z</time>
      </trkpt>
      <trkpt lat="46.25676" lon="6.75967">
        <ele>1413.28</ele>
        <time>2020-02-07T10:26:04Z</time>
      </trkpt>
      <trkpt lat="46.25674" lon="6.75976">
        <ele>1414.72</ele>
        <time>2020-02-07T10:26:15Z</time>
      </trkpt>
      <trkpt lat="46.25669" lon="6.75979">
        <ele>1416.16</ele>
        <time>2020-02-07T10:26:27Z</time>
      </trkpt>
      <trkpt lat="46.25661" lon="6.75982">
        <ele>1417.6</ele>
        <time>2020-02-07T10:26:38Z</time>
      </trkpt>
      <trkpt lat="46.25654" lon="6.75989">
        <ele>1418.56</ele>
        <time>2020-02-07T10:26:49Z</time>
      </trkpt>
      <trkpt lat="46.2565" lon="6.75999">
        <ele>1419.04</ele>
        <time>2020-02-07T10:27:01Z</time>
      </trkpt>
      <trkpt lat="46.25649" lon="6.76007">
        <ele>1419.52</ele>
        <time>2020-02-07T10:27:10Z</time>
      </trkpt>
      <trkpt lat="46.2565" lon="6.76007">
        <ele>1420</ele>
        <time>2020-02-07T10:27:11Z</time>
      </trkpt>
      <trkpt lat="46.25651" lon="6.76016">
        <ele>1420.49</ele>
        <time>2020-02-07T10:27:22Z</time>
      </trkpt>
      <trkpt lat="46.25649" lon="6.76017">
        <ele>1420</ele>
        <time>2020-02-07T10:27:25Z</time>
      </trkpt>
      <trkpt lat="46.25643" lon="6.76015">
        <ele>1420.97</ele>
        <time>2020-02-07T10:27:33Z</time>
      </trkpt>
      <trkpt lat="46.25638" lon="6.76015">
        <ele>1421.45</ele>
        <time>2020-02-07T10:27:38Z</time>
      </trkpt>
      <trkpt lat="46.25628" lon="6.7601">
        <ele>1420.97</ele>
        <time>2020-02-07T10:27:49Z</time>
      </trkpt>
      <trkpt lat="46.25623" lon="6.76007">
        <ele>1421.93</ele>
        <time>2020-02-07T10:27:54Z</time>
      </trkpt>
      <trkpt lat="46.25616" lon="6.75998">
        <ele>1422.89</ele>
        <time>2020-02-07T10:28:08Z</time>
      </trkpt>
      <trkpt lat="46.25612" lon="6.75991">
        <ele>1423.85</ele>
        <time>2020-02-07T10:28:19Z</time>
      </trkpt>
      <trkpt lat="46.25611" lon="6.75983">
        <ele>1426.25</ele>
        <time>2020-02-07T10:28:30Z</time>
      </trkpt>
      <trkpt lat="46.2561" lon="6.7597">
        <ele>1426.73</ele>
        <time>2020-02-07T10:28:41Z</time>
      </trkpt>
      <trkpt lat="46.25603" lon="6.7596">
        <ele>1427.21</ele>
        <time>2020-02-07T10:28:51Z</time>
      </trkpt>
      <trkpt lat="46.25595" lon="6.75949">
        <ele>1428.18</ele>
        <time>2020-02-07T10:29:04Z</time>
      </trkpt>
      <trkpt lat="46.25588" lon="6.75934">
        <ele>1427.7</ele>
        <time>2020-02-07T10:29:18Z</time>
      </trkpt>
      <trkpt lat="46.25584" lon="6.75919">
        <ele>1427.7</ele>
        <time>2020-02-07T10:29:31Z</time>
      </trkpt>
      <trkpt lat="46.25575" lon="6.75907">
        <ele>1429.62</ele>
        <time>2020-02-07T10:29:43Z</time>
      </trkpt>
      <trkpt lat="46.2557" lon="6.759">
        <ele>1429.62</ele>
        <time>2020-02-07T10:29:52Z</time>
      </trkpt>
      <trkpt lat="46.25566" lon="6.7589">
        <ele>1430.58</ele>
        <time>2020-02-07T10:30:03Z</time>
      </trkpt>
      <trkpt lat="46.2556" lon="6.75879">
        <ele>1431.06</ele>
        <time>2020-02-07T10:30:14Z</time>
      </trkpt>
      <trkpt lat="46.25559" lon="6.75878">
        <ele>1431.54</ele>
        <time>2020-02-07T10:30:38Z</time>
      </trkpt>
      <trkpt lat="46.25561" lon="6.75876">
        <ele>1431.54</ele>
        <time>2020-02-07T10:31:13Z</time>
      </trkpt>
      <trkpt lat="46.25559" lon="6.75875">
        <ele>1431.54</ele>
        <time>2020-02-07T10:32:39Z</time>
      </trkpt>
      <trkpt lat="46.25556" lon="6.75876">
        <ele>1431.54</ele>
        <time>2020-02-07T10:33:27Z</time>
      </trkpt>
      <trkpt lat="46.25554" lon="6.7588">
        <ele>1432.02</ele>
        <time>2020-02-07T10:33:33Z</time>
      </trkpt>
      <trkpt lat="46.25548" lon="6.75887">
        <ele>1433.94</ele>
        <time>2020-02-07T10:33:45Z</time>
      </trkpt>
      <trkpt lat="46.25554" lon="6.75889">
        <ele>1434.91</ele>
        <time>2020-02-07T10:33:56Z</time>
      </trkpt>
      <trkpt lat="46.25557" lon="6.75896">
        <ele>1436.35</ele>
        <time>2020-02-07T10:34:07Z</time>
      </trkpt>
      <trkpt lat="46.25552" lon="6.75903">
        <ele>1437.79</ele>
        <time>2020-02-07T10:34:20Z</time>
      </trkpt>
      <trkpt lat="46.25551" lon="6.75909">
        <ele>1439.23</ele>
        <time>2020-02-07T10:34:31Z</time>
      </trkpt>
      <trkpt lat="46.25545" lon="6.75913">
        <ele>1440.19</ele>
        <time>2020-02-07T10:34:41Z</time>
      </trkpt>
      <trkpt lat="46.25548" lon="6.75922">
        <ele>1441.63</ele>
        <time>2020-02-07T10:34:54Z</time>
      </trkpt>
      <trkpt lat="46.25541" lon="6.75922">
        <ele>1443.08</ele>
        <time>2020-02-07T10:35:05Z</time>
      </trkpt>
      <trkpt lat="46.25542" lon="6.75928">
        <ele>1444.52</ele>
        <time>2020-02-07T10:35:16Z</time>
      </trkpt>
      <trkpt lat="46.25534" lon="6.75933">
        <ele>1445</ele>
        <time>2020-02-07T10:35:27Z</time>
      </trkpt>
      <trkpt lat="46.25532" lon="6.75939">
        <ele>1446.92</ele>
        <time>2020-02-07T10:35:39Z</time>
      </trkpt>
      <trkpt lat="46.25537" lon="6.7594">
        <ele>1447.88</ele>
        <time>2020-02-07T10:35:50Z</time>
      </trkpt>
      <trkpt lat="46.2554" lon="6.75942">
        <ele>1449.32</ele>
        <time>2020-02-07T10:36:01Z</time>
      </trkpt>
      <trkpt lat="46.25546" lon="6.75947">
        <ele>1450.29</ele>
        <time>2020-02-07T10:36:12Z</time>
      </trkpt>
      <trkpt lat="46.25547" lon="6.75952">
        <ele>1452.21</ele>
        <time>2020-02-07T10:36:24Z</time>
      </trkpt>
      <trkpt lat="46.25546" lon="6.75958">
        <ele>1453.65</ele>
        <time>2020-02-07T10:36:35Z</time>
      </trkpt>
      <trkpt lat="46.25548" lon="6.75963">
        <ele>1454.61</ele>
        <time>2020-02-07T10:36:44Z</time>
      </trkpt>
      <trkpt lat="46.25546" lon="6.75967">
        <ele>1456.05</ele>
        <time>2020-02-07T10:36:54Z</time>
      </trkpt>
      <trkpt lat="46.25542" lon="6.75972">
        <ele>1457.5</ele>
        <time>2020-02-07T10:37:08Z</time>
      </trkpt>
      <trkpt lat="46.25543" lon="6.75977">
        <ele>1458.94</ele>
        <time>2020-02-07T10:37:22Z</time>
      </trkpt>
      <trkpt lat="46.25538" lon="6.75982">
        <ele>1459.42</ele>
        <time>2020-02-07T10:37:32Z</time>
      </trkpt>
      <trkpt lat="46.25536" lon="6.75988">
        <ele>1461.34</ele>
        <time>2020-02-07T10:37:43Z</time>
      </trkpt>
      <trkpt lat="46.25534" lon="6.75991">
        <ele>1461.82</ele>
        <time>2020-02-07T10:37:52Z</time>
      </trkpt>
      <trkpt lat="46.25528" lon="6.75996">
        <ele>1463.26</ele>
        <time>2020-02-07T10:38:03Z</time>
      </trkpt>
      <trkpt lat="46.25525" lon="6.76005">
        <ele>1464.71</ele>
        <time>2020-02-07T10:38:16Z</time>
      </trkpt>
      <trkpt lat="46.25519" lon="6.76012">
        <ele>1466.15</ele>
        <time>2020-02-07T10:38:30Z</time>
      </trkpt>
      <trkpt lat="46.25518" lon="6.76018">
        <ele>1468.07</ele>
        <time>2020-02-07T10:38:41Z</time>
      </trkpt>
      <trkpt lat="46.25518" lon="6.76019">
        <ele>1467.59</ele>
        <time>2020-02-07T10:38:55Z</time>
      </trkpt>
      <trkpt lat="46.25521" lon="6.76016">
        <ele>1467.59</ele>
        <time>2020-02-07T10:39:18Z</time>
      </trkpt>
      <trkpt lat="46.25522" lon="6.76015">
        <ele>1467.59</ele>
        <time>2020-02-07T10:39:48Z</time>
      </trkpt>
      <trkpt lat="46.25523" lon="6.76014">
        <ele>1467.59</ele>
        <time>2020-02-07T10:39:49Z</time>
      </trkpt>
      <trkpt lat="46.25534" lon="6.76009">
        <ele>1466.63</ele>
        <time>2020-02-07T10:40:02Z</time>
      </trkpt>
      <trkpt lat="46.25538" lon="6.76011">
        <ele>1467.11</ele>
        <time>2020-02-07T10:40:12Z</time>
      </trkpt>
      <trkpt lat="46.25538" lon="6.76011">
        <ele>1467.11</ele>
        <time>2020-02-07T10:40:55Z</time>
      </trkpt>
      <trkpt lat="46.25536" lon="6.76011">
        <ele>1467.11</ele>
        <time>2020-02-07T10:41:02Z</time>
      </trkpt>
      <trkpt lat="46.25529" lon="6.76009">
        <ele>1466.63</ele>
        <time>2020-02-07T10:41:11Z</time>
      </trkpt>
      <trkpt lat="46.25523" lon="6.76013">
        <ele>1467.59</ele>
        <time>2020-02-07T10:41:22Z</time>
      </trkpt>
      <trkpt lat="46.25518" lon="6.76017">
        <ele>1467.59</ele>
        <time>2020-02-07T10:41:39Z</time>
      </trkpt>
      <trkpt lat="46.25518" lon="6.76021">
        <ele>1468.07</ele>
        <time>2020-02-07T10:41:54Z</time>
      </trkpt>
      <trkpt lat="46.25517" lon="6.76022">
        <ele>1467.59</ele>
        <time>2020-02-07T10:42:39Z</time>
      </trkpt>
      <trkpt lat="46.2551" lon="6.76026">
        <ele>1468.07</ele>
        <time>2020-02-07T10:44:00Z</time>
      </trkpt>
      <trkpt lat="46.25504" lon="6.76028">
        <ele>1469.51</ele>
        <time>2020-02-07T10:44:11Z</time>
      </trkpt>
      <trkpt lat="46.25496" lon="6.76031">
        <ele>1470.47</ele>
        <time>2020-02-07T10:44:22Z</time>
      </trkpt>
      <trkpt lat="46.25487" lon="6.76038">
        <ele>1471.92</ele>
        <time>2020-02-07T10:44:35Z</time>
      </trkpt>
      <trkpt lat="46.25479" lon="6.76045">
        <ele>1473.36</ele>
        <time>2020-02-07T10:44:49Z</time>
      </trkpt>
      <trkpt lat="46.25472" lon="6.76053">
        <ele>1474.32</ele>
        <time>2020-02-07T10:44:59Z</time>
      </trkpt>
      <trkpt lat="46.25465" lon="6.76058">
        <ele>1475.28</ele>
        <time>2020-02-07T10:45:10Z</time>
      </trkpt>
      <trkpt lat="46.25459" lon="6.76061">
        <ele>1476.24</ele>
        <time>2020-02-07T10:45:20Z</time>
      </trkpt>
      <trkpt lat="46.25454" lon="6.76067">
        <ele>1478.16</ele>
        <time>2020-02-07T10:45:31Z</time>
      </trkpt>
      <trkpt lat="46.25452" lon="6.76068">
        <ele>1479.13</ele>
        <time>2020-02-07T10:45:36Z</time>
      </trkpt>
      <trkpt lat="46.25445" lon="6.76075">
        <ele>1480.57</ele>
        <time>2020-02-07T10:45:47Z</time>
      </trkpt>
      <trkpt lat="46.25438" lon="6.7608">
        <ele>1480.57</ele>
        <time>2020-02-07T10:45:57Z</time>
      </trkpt>
      <trkpt lat="46.25432" lon="6.76087">
        <ele>1482.49</ele>
        <time>2020-02-07T10:46:09Z</time>
      </trkpt>
      <trkpt lat="46.25426" lon="6.76095">
        <ele>1483.93</ele>
        <time>2020-02-07T10:46:22Z</time>
      </trkpt>
      <trkpt lat="46.2542" lon="6.76099">
        <ele>1485.85</ele>
        <time>2020-02-07T10:46:34Z</time>
      </trkpt>
      <trkpt lat="46.25414" lon="6.76103">
        <ele>1487.78</ele>
        <time>2020-02-07T10:46:47Z</time>
      </trkpt>
      <trkpt lat="46.2541" lon="6.76104">
        <ele>1489.7</ele>
        <time>2020-02-07T10:46:59Z</time>
      </trkpt>
      <trkpt lat="46.25405" lon="6.76106">
        <ele>1490.66</ele>
        <time>2020-02-07T10:47:12Z</time>
      </trkpt>
      <trkpt lat="46.25396" lon="6.76111">
        <ele>1492.58</ele>
        <time>2020-02-07T10:47:25Z</time>
      </trkpt>
      <trkpt lat="46.2539" lon="6.76116">
        <ele>1494.03</ele>
        <time>2020-02-07T10:47:35Z</time>
      </trkpt>
      <trkpt lat="46.25384" lon="6.76124">
        <ele>1494.51</ele>
        <time>2020-02-07T10:47:47Z</time>
      </trkpt>
      <trkpt lat="46.25382" lon="6.76127">
        <ele>1496.43</ele>
        <time>2020-02-07T10:47:52Z</time>
      </trkpt>
      <trkpt lat="46.2538" lon="6.7613">
        <ele>1497.39</ele>
        <time>2020-02-07T10:48:00Z</time>
      </trkpt>
      <trkpt lat="46.25375" lon="6.76133">
        <ele>1497.87</ele>
        <time>2020-02-07T10:48:10Z</time>
      </trkpt>
      <trkpt lat="46.25371" lon="6.7614">
        <ele>1498.83</ele>
        <time>2020-02-07T10:48:22Z</time>
      </trkpt>
      <trkpt lat="46.25368" lon="6.76146">
        <ele>1500.27</ele>
        <time>2020-02-07T10:48:32Z</time>
      </trkpt>
      <trkpt lat="46.25363" lon="6.76153">
        <ele>1502.2</ele>
        <time>2020-02-07T10:48:46Z</time>
      </trkpt>
      <trkpt lat="46.25362" lon="6.76155">
        <ele>1503.16</ele>
        <time>2020-02-07T10:48:49Z</time>
      </trkpt>
      <trkpt lat="46.25356" lon="6.76162">
        <ele>1504.12</ele>
        <time>2020-02-07T10:49:00Z</time>
      </trkpt>
      <trkpt lat="46.25354" lon="6.7617">
        <ele>1505.56</ele>
        <time>2020-02-07T10:49:12Z</time>
      </trkpt>
      <trkpt lat="46.25348" lon="6.76178">
        <ele>1506.52</ele>
        <time>2020-02-07T10:49:26Z</time>
      </trkpt>
      <trkpt lat="46.25345" lon="6.76187">
        <ele>1508.45</ele>
        <time>2020-02-07T10:49:39Z</time>
      </trkpt>
      <trkpt lat="46.25342" lon="6.76192">
        <ele>1509.89</ele>
        <time>2020-02-07T10:49:51Z</time>
      </trkpt>
      <trkpt lat="46.25339" lon="6.76199">
        <ele>1510.85</ele>
        <time>2020-02-07T10:50:03Z</time>
      </trkpt>
      <trkpt lat="46.25335" lon="6.76208">
        <ele>1512.29</ele>
        <time>2020-02-07T10:50:14Z</time>
      </trkpt>
      <trkpt lat="46.25331" lon="6.76213">
        <ele>1513.73</ele>
        <time>2020-02-07T10:50:25Z</time>
      </trkpt>
      <trkpt lat="46.25324" lon="6.76221">
        <ele>1514.69</ele>
        <time>2020-02-07T10:50:38Z</time>
      </trkpt>
      <trkpt lat="46.25322" lon="6.76231">
        <ele>1516.14</ele>
        <time>2020-02-07T10:50:48Z</time>
      </trkpt>
      <trkpt lat="46.25318" lon="6.76234">
        <ele>1516.14</ele>
        <time>2020-02-07T10:50:58Z</time>
      </trkpt>
      <trkpt lat="46.25314" lon="6.76238">
        <ele>1517.58</ele>
        <time>2020-02-07T10:51:09Z</time>
      </trkpt>
      <trkpt lat="46.25309" lon="6.76245">
        <ele>1519.02</ele>
        <time>2020-02-07T10:51:20Z</time>
      </trkpt>
      <trkpt lat="46.25305" lon="6.76251">
        <ele>1520.46</ele>
        <time>2020-02-07T10:51:30Z</time>
      </trkpt>
      <trkpt lat="46.253" lon="6.76258">
        <ele>1521.9</ele>
        <time>2020-02-07T10:51:42Z</time>
      </trkpt>
      <trkpt lat="46.25295" lon="6.76263">
        <ele>1522.39</ele>
        <time>2020-02-07T10:51:52Z</time>
      </trkpt>
      <trkpt lat="46.25292" lon="6.76268">
        <ele>1522.87</ele>
        <time>2020-02-07T10:52:02Z</time>
      </trkpt>
      <trkpt lat="46.25285" lon="6.76279">
        <ele>1523.83</ele>
        <time>2020-02-07T10:52:15Z</time>
      </trkpt>
      <trkpt lat="46.25278" lon="6.76287">
        <ele>1525.27</ele>
        <time>2020-02-07T10:52:28Z</time>
      </trkpt>
      <trkpt lat="46.25275" lon="6.76292">
        <ele>1525.75</ele>
        <time>2020-02-07T10:52:37Z</time>
      </trkpt>
      <trkpt lat="46.25269" lon="6.76296">
        <ele>1526.71</ele>
        <time>2020-02-07T10:52:47Z</time>
      </trkpt>
      <trkpt lat="46.25263" lon="6.76305">
        <ele>1528.15</ele>
        <time>2020-02-07T10:52:59Z</time>
      </trkpt>
      <trkpt lat="46.25259" lon="6.7631">
        <ele>1528.63</ele>
        <time>2020-02-07T10:53:11Z</time>
      </trkpt>
      <trkpt lat="46.25255" lon="6.76312">
        <ele>1529.59</ele>
        <time>2020-02-07T10:53:21Z</time>
      </trkpt>
      <trkpt lat="46.2525" lon="6.76319">
        <ele>1531.52</ele>
        <time>2020-02-07T10:53:34Z</time>
      </trkpt>
      <trkpt lat="46.25237" lon="6.76322">
        <ele>1531.52</ele>
        <time>2020-02-07T10:53:47Z</time>
      </trkpt>
      <trkpt lat="46.25233" lon="6.76323">
        <ele>1532.48</ele>
        <time>2020-02-07T10:53:51Z</time>
      </trkpt>
      <trkpt lat="46.25225" lon="6.7633">
        <ele>1532.48</ele>
        <time>2020-02-07T10:54:03Z</time>
      </trkpt>
      <trkpt lat="46.25217" lon="6.76337">
        <ele>1533.92</ele>
        <time>2020-02-07T10:54:15Z</time>
      </trkpt>
      <trkpt lat="46.25209" lon="6.76341">
        <ele>1534.88</ele>
        <time>2020-02-07T10:54:28Z</time>
      </trkpt>
      <trkpt lat="46.25206" lon="6.76343">
        <ele>1535.84</ele>
        <time>2020-02-07T10:54:33Z</time>
      </trkpt>
      <trkpt lat="46.25199" lon="6.76346">
        <ele>1537.77</ele>
        <time>2020-02-07T10:54:44Z</time>
      </trkpt>
      <trkpt lat="46.25193" lon="6.76349">
        <ele>1538.25</ele>
        <time>2020-02-07T10:54:56Z</time>
      </trkpt>
      <trkpt lat="46.25186" lon="6.76352">
        <ele>1539.69</ele>
        <time>2020-02-07T10:55:08Z</time>
      </trkpt>
      <trkpt lat="46.2518" lon="6.76354">
        <ele>1541.13</ele>
        <time>2020-02-07T10:55:20Z</time>
      </trkpt>
      <trkpt lat="46.2518" lon="6.76354">
        <ele>1541.13</ele>
        <time>2020-02-07T10:55:36Z</time>
      </trkpt>
      <trkpt lat="46.25179" lon="6.76351">
        <ele>1540.65</ele>
        <time>2020-02-07T10:55:51Z</time>
      </trkpt>
      <trkpt lat="46.2518" lon="6.76351">
        <ele>1539.69</ele>
        <time>2020-02-07T10:56:10Z</time>
      </trkpt>
      <trkpt lat="46.25179" lon="6.76351">
        <ele>1539.69</ele>
        <time>2020-02-07T10:59:20Z</time>
      </trkpt>
      <trkpt lat="46.25179" lon="6.7635">
        <ele>1540.17</ele>
        <time>2020-02-07T10:59:35Z</time>
      </trkpt>
      <trkpt lat="46.25179" lon="6.76351">
        <ele>1540.65</ele>
        <time>2020-02-07T11:00:20Z</time>
      </trkpt>
      <trkpt lat="46.25179" lon="6.76351">
        <ele>1540.65</ele>
        <time>2020-02-07T11:01:09Z</time>
      </trkpt>
      <trkpt lat="46.25179" lon="6.7635">
        <ele>1540.17</ele>
        <time>2020-02-07T11:02:11Z</time>
      </trkpt>
      <trkpt lat="46.25181" lon="6.76352">
        <ele>1540.17</ele>
        <time>2020-02-07T11:04:22Z</time>
      </trkpt>
      <trkpt lat="46.25181" lon="6.76352">
        <ele>1540.65</ele>
        <time>2020-02-07T11:04:56Z</time>
      </trkpt>
      <trkpt lat="46.25181" lon="6.76352">
        <ele>1540.65</ele>
        <time>2020-02-07T11:05:38Z</time>
      </trkpt>
      <trkpt lat="46.25183" lon="6.76353">
        <ele>1541.13</ele>
        <time>2020-02-07T11:05:57Z</time>
      </trkpt>
      <trkpt lat="46.25183" lon="6.76353">
        <ele>1541.13</ele>
        <time>2020-02-07T11:07:20Z</time>
      </trkpt>
      <trkpt lat="46.25185" lon="6.7635">
        <ele>1540.17</ele>
        <time>2020-02-07T11:07:40Z</time>
      </trkpt>
      <trkpt lat="46.25191" lon="6.76348">
        <ele>1539.21</ele>
        <time>2020-02-07T11:07:53Z</time>
      </trkpt>
      <trkpt lat="46.25198" lon="6.76353">
        <ele>1538.73</ele>
        <time>2020-02-07T11:08:07Z</time>
      </trkpt>
      <trkpt lat="46.25205" lon="6.76354">
        <ele>1540.65</ele>
        <time>2020-02-07T11:08:20Z</time>
      </trkpt>
      <trkpt lat="46.2521" lon="6.76356">
        <ele>1542.09</ele>
        <time>2020-02-07T11:08:32Z</time>
      </trkpt>
      <trkpt lat="46.25216" lon="6.76359">
        <ele>1544.01</ele>
        <time>2020-02-07T11:08:43Z</time>
      </trkpt>
      <trkpt lat="46.2522" lon="6.7636">
        <ele>1544.98</ele>
        <time>2020-02-07T11:08:55Z</time>
      </trkpt>
      <trkpt lat="46.25223" lon="6.76362">
        <ele>1545.94</ele>
        <time>2020-02-07T11:08:59Z</time>
      </trkpt>
      <trkpt lat="46.25229" lon="6.76363">
        <ele>1546.42</ele>
        <time>2020-02-07T11:09:10Z</time>
      </trkpt>
      <trkpt lat="46.25234" lon="6.76366">
        <ele>1548.82</ele>
        <time>2020-02-07T11:09:21Z</time>
      </trkpt>
      <trkpt lat="46.2524" lon="6.76365">
        <ele>1549.3</ele>
        <time>2020-02-07T11:09:31Z</time>
      </trkpt>
      <trkpt lat="46.25246" lon="6.7636">
        <ele>1550.26</ele>
        <time>2020-02-07T11:09:42Z</time>
      </trkpt>
      <trkpt lat="46.25251" lon="6.76353">
        <ele>1551.22</ele>
        <time>2020-02-07T11:09:55Z</time>
      </trkpt>
      <trkpt lat="46.25253" lon="6.76348">
        <ele>1553.15</ele>
        <time>2020-02-07T11:10:02Z</time>
      </trkpt>
      <trkpt lat="46.25257" lon="6.76343">
        <ele>1553.63</ele>
        <time>2020-02-07T11:10:12Z</time>
      </trkpt>
      <trkpt lat="46.25261" lon="6.76337">
        <ele>1555.07</ele>
        <time>2020-02-07T11:10:22Z</time>
      </trkpt>
      <trkpt lat="46.25267" lon="6.76332">
        <ele>1555.55</ele>
        <time>2020-02-07T11:10:34Z</time>
      </trkpt>
      <trkpt lat="46.25276" lon="6.76331">
        <ele>1556.99</ele>
        <time>2020-02-07T11:10:47Z</time>
      </trkpt>
      <trkpt lat="46.25281" lon="6.7633">
        <ele>1558.43</ele>
        <time>2020-02-07T11:10:59Z</time>
      </trkpt>
      <trkpt lat="46.2529" lon="6.76326">
        <ele>1559.88</ele>
        <time>2020-02-07T11:11:13Z</time>
      </trkpt>
      <trkpt lat="46.25295" lon="6.76324">
        <ele>1560.84</ele>
        <time>2020-02-07T11:11:24Z</time>
      </trkpt>
      <trkpt lat="46.25297" lon="6.76323">
        <ele>1562.28</ele>
        <time>2020-02-07T11:11:42Z</time>
      </trkpt>
      <trkpt lat="46.25305" lon="6.76319">
        <ele>1563.24</ele>
        <time>2020-02-07T11:12:01Z</time>
      </trkpt>
      <trkpt lat="46.25313" lon="6.76319">
        <ele>1565.16</ele>
        <time>2020-02-07T11:12:13Z</time>
      </trkpt>
      <trkpt lat="46.25322" lon="6.76316">
        <ele>1566.61</ele>
        <time>2020-02-07T11:12:27Z</time>
      </trkpt>
      <trkpt lat="46.25329" lon="6.76315">
        <ele>1568.53</ele>
        <time>2020-02-07T11:12:38Z</time>
      </trkpt>
      <trkpt lat="46.25335" lon="6.76311">
        <ele>1569.49</ele>
        <time>2020-02-07T11:12:49Z</time>
      </trkpt>
      <trkpt lat="46.25343" lon="6.7631">
        <ele>1569.49</ele>
        <time>2020-02-07T11:13:01Z</time>
      </trkpt>
      <trkpt lat="46.25352" lon="6.76312">
        <ele>1570.93</ele>
        <time>2020-02-07T11:13:08Z</time>
      </trkpt>
      <trkpt lat="46.25361" lon="6.76311">
        <ele>1570.93</ele>
        <time>2020-02-07T11:13:18Z</time>
      </trkpt>
      <trkpt lat="46.25374" lon="6.76315">
        <ele>1571.41</ele>
        <time>2020-02-07T11:13:31Z</time>
      </trkpt>
      <trkpt lat="46.25379" lon="6.76317">
        <ele>1572.85</ele>
        <time>2020-02-07T11:13:44Z</time>
      </trkpt>
      <trkpt lat="46.25388" lon="6.76316">
        <ele>1573.33</ele>
        <time>2020-02-07T11:13:51Z</time>
      </trkpt>
      <trkpt lat="46.25399" lon="6.76317">
        <ele>1574.3</ele>
        <time>2020-02-07T11:14:03Z</time>
      </trkpt>
      <trkpt lat="46.25401" lon="6.76323">
        <ele>1574.78</ele>
        <time>2020-02-07T11:14:14Z</time>
      </trkpt>
      <trkpt lat="46.25401" lon="6.76323">
        <ele>1575.74</ele>
        <time>2020-02-07T11:14:16Z</time>
      </trkpt>
      <trkpt lat="46.25393" lon="6.76326">
        <ele>1576.7</ele>
        <time>2020-02-07T11:14:27Z</time>
      </trkpt>
      <trkpt lat="46.25385" lon="6.76329">
        <ele>1577.66</ele>
        <time>2020-02-07T11:14:38Z</time>
      </trkpt>
      <trkpt lat="46.25379" lon="6.76335">
        <ele>1578.62</ele>
        <time>2020-02-07T11:14:51Z</time>
      </trkpt>
      <trkpt lat="46.25379" lon="6.76335">
        <ele>1579.1</ele>
        <time>2020-02-07T11:14:57Z</time>
      </trkpt>
      <trkpt lat="46.25373" lon="6.76338">
        <ele>1580.06</ele>
        <time>2020-02-07T11:15:08Z</time>
      </trkpt>
      <trkpt lat="46.25368" lon="6.7634">
        <ele>1581.51</ele>
        <time>2020-02-07T11:15:19Z</time>
      </trkpt>
      <trkpt lat="46.25365" lon="6.76342">
        <ele>1581.99</ele>
        <time>2020-02-07T11:15:30Z</time>
      </trkpt>
      <trkpt lat="46.2536" lon="6.7635">
        <ele>1583.91</ele>
        <time>2020-02-07T11:15:45Z</time>
      </trkpt>
      <trkpt lat="46.2536" lon="6.7635">
        <ele>1585.83</ele>
        <time>2020-02-07T11:15:59Z</time>
      </trkpt>
      <trkpt lat="46.2536" lon="6.7635">
        <ele>1587.27</ele>
        <time>2020-02-07T11:16:13Z</time>
      </trkpt>
      <trkpt lat="46.25352" lon="6.7636">
        <ele>1588.72</ele>
        <time>2020-02-07T11:16:25Z</time>
      </trkpt>
      <trkpt lat="46.25344" lon="6.76368">
        <ele>1589.68</ele>
        <time>2020-02-07T11:16:36Z</time>
      </trkpt>
      <trkpt lat="46.25334" lon="6.76379">
        <ele>1590.64</ele>
        <time>2020-02-07T11:16:45Z</time>
      </trkpt>
      <trkpt lat="46.2533" lon="6.76386">
        <ele>1592.08</ele>
        <time>2020-02-07T11:16:59Z</time>
      </trkpt>
      <trkpt lat="46.2533" lon="6.76386">
        <ele>1594</ele>
        <time>2020-02-07T11:17:13Z</time>
      </trkpt>
      <trkpt lat="46.25327" lon="6.76391">
        <ele>1594.48</ele>
        <time>2020-02-07T11:17:19Z</time>
      </trkpt>
      <trkpt lat="46.25323" lon="6.76403">
        <ele>1595.45</ele>
        <time>2020-02-07T11:17:32Z</time>
      </trkpt>
      <trkpt lat="46.25323" lon="6.76407">
        <ele>1596.41</ele>
        <time>2020-02-07T11:17:45Z</time>
      </trkpt>
      <trkpt lat="46.25312" lon="6.76426">
        <ele>1598.33</ele>
        <time>2020-02-07T11:17:58Z</time>
      </trkpt>
      <trkpt lat="46.25311" lon="6.76439">
        <ele>1599.29</ele>
        <time>2020-02-07T11:18:12Z</time>
      </trkpt>
      <trkpt lat="46.25307" lon="6.7645">
        <ele>1600.25</ele>
        <time>2020-02-07T11:18:25Z</time>
      </trkpt>
      <trkpt lat="46.25305" lon="6.76459">
        <ele>1602.17</ele>
        <time>2020-02-07T11:18:39Z</time>
      </trkpt>
      <trkpt lat="46.253" lon="6.7647">
        <ele>1603.14</ele>
        <time>2020-02-07T11:18:53Z</time>
      </trkpt>
      <trkpt lat="46.25298" lon="6.76483">
        <ele>1604.58</ele>
        <time>2020-02-07T11:19:05Z</time>
      </trkpt>
      <trkpt lat="46.25295" lon="6.76488">
        <ele>1606.98</ele>
        <time>2020-02-07T11:19:14Z</time>
      </trkpt>
      <trkpt lat="46.25295" lon="6.76497">
        <ele>1606.98</ele>
        <time>2020-02-07T11:19:27Z</time>
      </trkpt>
      <trkpt lat="46.25295" lon="6.76508">
        <ele>1609.38</ele>
        <time>2020-02-07T11:19:41Z</time>
      </trkpt>
      <trkpt lat="46.25294" lon="6.76518">
        <ele>1609.86</ele>
        <time>2020-02-07T11:19:53Z</time>
      </trkpt>
      <trkpt lat="46.25292" lon="6.76524">
        <ele>1609.86</ele>
        <time>2020-02-07T11:20:08Z</time>
      </trkpt>
      <trkpt lat="46.25291" lon="6.76525">
        <ele>1611.31</ele>
        <time>2020-02-07T11:20:18Z</time>
      </trkpt>
      <trkpt lat="46.25289" lon="6.76527">
        <ele>1610.83</ele>
        <time>2020-02-07T11:20:36Z</time>
      </trkpt>
      <trkpt lat="46.25286" lon="6.76534">
        <ele>1611.31</ele>
        <time>2020-02-07T11:20:55Z</time>
      </trkpt>
      <trkpt lat="46.25284" lon="6.76545">
        <ele>1613.71</ele>
        <time>2020-02-07T11:21:10Z</time>
      </trkpt>
      <trkpt lat="46.25284" lon="6.76555">
        <ele>1615.63</ele>
        <time>2020-02-07T11:21:22Z</time>
      </trkpt>
      <trkpt lat="46.25283" lon="6.76564">
        <ele>1616.59</ele>
        <time>2020-02-07T11:21:35Z</time>
      </trkpt>
      <trkpt lat="46.25283" lon="6.76574">
        <ele>1618.52</ele>
        <time>2020-02-07T11:21:47Z</time>
      </trkpt>
      <trkpt lat="46.25284" lon="6.76583">
        <ele>1619.96</ele>
        <time>2020-02-07T11:22:01Z</time>
      </trkpt>
      <trkpt lat="46.25283" lon="6.7659">
        <ele>1622.36</ele>
        <time>2020-02-07T11:22:14Z</time>
      </trkpt>
      <trkpt lat="46.25286" lon="6.76592">
        <ele>1623.8</ele>
        <time>2020-02-07T11:22:25Z</time>
      </trkpt>
      <trkpt lat="46.25288" lon="6.76591">
        <ele>1624.77</ele>
        <time>2020-02-07T11:22:36Z</time>
      </trkpt>
      <trkpt lat="46.25291" lon="6.76592">
        <ele>1626.21</ele>
        <time>2020-02-07T11:22:47Z</time>
      </trkpt>
      <trkpt lat="46.25291" lon="6.76592">
        <ele>1627.17</ele>
        <time>2020-02-07T11:22:56Z</time>
      </trkpt>
      <trkpt lat="46.25292" lon="6.76593">
        <ele>1628.13</ele>
        <time>2020-02-07T11:23:09Z</time>
      </trkpt>
      <trkpt lat="46.25295" lon="6.76591">
        <ele>1628.13</ele>
        <time>2020-02-07T11:26:39Z</time>
      </trkpt>
      <trkpt lat="46.25297" lon="6.76594">
        <ele>1629.09</ele>
        <time>2020-02-07T11:28:54Z</time>
      </trkpt>
      <trkpt lat="46.25299" lon="6.76606">
        <ele>1630.53</ele>
        <time>2020-02-07T11:29:06Z</time>
      </trkpt>
      <trkpt lat="46.25301" lon="6.76618">
        <ele>1631.49</ele>
        <time>2020-02-07T11:29:18Z</time>
      </trkpt>
      <trkpt lat="46.25301" lon="6.76627">
        <ele>1632.46</ele>
        <time>2020-02-07T11:29:29Z</time>
      </trkpt>
      <trkpt lat="46.25301" lon="6.76637">
        <ele>1633.42</ele>
        <time>2020-02-07T11:29:40Z</time>
      </trkpt>
      <trkpt lat="46.253" lon="6.76645">
        <ele>1634.86</ele>
        <time>2020-02-07T11:29:52Z</time>
      </trkpt>
      <trkpt lat="46.25295" lon="6.76656">
        <ele>1635.82</ele>
        <time>2020-02-07T11:30:04Z</time>
      </trkpt>
      <trkpt lat="46.25291" lon="6.76662">
        <ele>1636.78</ele>
        <time>2020-02-07T11:30:16Z</time>
      </trkpt>
      <trkpt lat="46.25285" lon="6.76664">
        <ele>1636.78</ele>
        <time>2020-02-07T11:30:23Z</time>
      </trkpt>
      <trkpt lat="46.25279" lon="6.76671">
        <ele>1637.74</ele>
        <time>2020-02-07T11:30:36Z</time>
      </trkpt>
      <trkpt lat="46.25276" lon="6.76674">
        <ele>1637.74</ele>
        <time>2020-02-07T11:30:48Z</time>
      </trkpt>
      <trkpt lat="46.25269" lon="6.76677">
        <ele>1639.19</ele>
        <time>2020-02-07T11:30:59Z</time>
      </trkpt>
      <trkpt lat="46.25261" lon="6.76678">
        <ele>1639.67</ele>
        <time>2020-02-07T11:31:12Z</time>
      </trkpt>
      <trkpt lat="46.25257" lon="6.76682">
        <ele>1641.11</ele>
        <time>2020-02-07T11:31:21Z</time>
      </trkpt>
      <trkpt lat="46.2525" lon="6.76685">
        <ele>1640.63</ele>
        <time>2020-02-07T11:31:32Z</time>
      </trkpt>
      <trkpt lat="46.25238" lon="6.76691">
        <ele>1642.07</ele>
        <time>2020-02-07T11:31:44Z</time>
      </trkpt>
      <trkpt lat="46.2523" lon="6.76697">
        <ele>1643.51</ele>
        <time>2020-02-07T11:31:56Z</time>
      </trkpt>
      <trkpt lat="46.25223" lon="6.76703">
        <ele>1644.47</ele>
        <time>2020-02-07T11:32:10Z</time>
      </trkpt>
      <trkpt lat="46.25218" lon="6.76709">
        <ele>1645.43</ele>
        <time>2020-02-07T11:32:23Z</time>
      </trkpt>
      <trkpt lat="46.25218" lon="6.7671">
        <ele>1645.43</ele>
        <time>2020-02-07T11:32:42Z</time>
      </trkpt>
      <trkpt lat="46.25218" lon="6.76711">
        <ele>1646.4</ele>
        <time>2020-02-07T11:34:22Z</time>
      </trkpt>
      <trkpt lat="46.25224" lon="6.76709">
        <ele>1647.84</ele>
        <time>2020-02-07T11:34:34Z</time>
      </trkpt>
      <trkpt lat="46.25225" lon="6.76708">
        <ele>1647.36</ele>
        <time>2020-02-07T11:34:35Z</time>
      </trkpt>
      <trkpt lat="46.25234" lon="6.76708">
        <ele>1648.8</ele>
        <time>2020-02-07T11:34:48Z</time>
      </trkpt>
      <trkpt lat="46.2524" lon="6.76709">
        <ele>1650.24</ele>
        <time>2020-02-07T11:35:00Z</time>
      </trkpt>
      <trkpt lat="46.25246" lon="6.76708">
        <ele>1651.68</ele>
        <time>2020-02-07T11:35:12Z</time>
      </trkpt>
      <trkpt lat="46.25254" lon="6.76707">
        <ele>1653.12</ele>
        <time>2020-02-07T11:35:24Z</time>
      </trkpt>
      <trkpt lat="46.2526" lon="6.76705">
        <ele>1654.09</ele>
        <time>2020-02-07T11:35:36Z</time>
      </trkpt>
      <trkpt lat="46.25264" lon="6.76704">
        <ele>1655.53</ele>
        <time>2020-02-07T11:35:46Z</time>
      </trkpt>
      <trkpt lat="46.2527" lon="6.76702">
        <ele>1656.97</ele>
        <time>2020-02-07T11:35:59Z</time>
      </trkpt>
      <trkpt lat="46.25278" lon="6.76699">
        <ele>1658.41</ele>
        <time>2020-02-07T11:36:11Z</time>
      </trkpt>
      <trkpt lat="46.25283" lon="6.76698">
        <ele>1658.89</ele>
        <time>2020-02-07T11:36:20Z</time>
      </trkpt>
      <trkpt lat="46.25287" lon="6.76698">
        <ele>1660.81</ele>
        <time>2020-02-07T11:36:34Z</time>
      </trkpt>
      <trkpt lat="46.25295" lon="6.76698">
        <ele>1662.26</ele>
        <time>2020-02-07T11:36:46Z</time>
      </trkpt>
      <trkpt lat="46.25301" lon="6.76703">
        <ele>1662.74</ele>
        <time>2020-02-07T11:36:56Z</time>
      </trkpt>
      <trkpt lat="46.25299" lon="6.76712">
        <ele>1664.18</ele>
        <time>2020-02-07T11:37:08Z</time>
      </trkpt>
      <trkpt lat="46.25293" lon="6.76719">
        <ele>1665.62</ele>
        <time>2020-02-07T11:37:21Z</time>
      </trkpt>
      <trkpt lat="46.25287" lon="6.76728">
        <ele>1666.58</ele>
        <time>2020-02-07T11:37:34Z</time>
      </trkpt>
      <trkpt lat="46.25283" lon="6.76736">
        <ele>1668.51</ele>
        <time>2020-02-07T11:37:46Z</time>
      </trkpt>
      <trkpt lat="46.2528" lon="6.76745">
        <ele>1669.95</ele>
        <time>2020-02-07T11:37:57Z</time>
      </trkpt>
      <trkpt lat="46.25279" lon="6.76755">
        <ele>1670.91</ele>
        <time>2020-02-07T11:38:08Z</time>
      </trkpt>
      <trkpt lat="46.25274" lon="6.76762">
        <ele>1672.35</ele>
        <time>2020-02-07T11:38:19Z</time>
      </trkpt>
      <trkpt lat="46.25267" lon="6.76772">
        <ele>1673.79</ele>
        <time>2020-02-07T11:38:32Z</time>
      </trkpt>
      <trkpt lat="46.25261" lon="6.76781">
        <ele>1675.23</ele>
        <time>2020-02-07T11:38:45Z</time>
      </trkpt>
      <trkpt lat="46.25257" lon="6.76784">
        <ele>1676.2</ele>
        <time>2020-02-07T11:38:50Z</time>
      </trkpt>
      <trkpt lat="46.25251" lon="6.76793">
        <ele>1677.16</ele>
        <time>2020-02-07T11:39:04Z</time>
      </trkpt>
      <trkpt lat="46.25247" lon="6.76805">
        <ele>1678.12</ele>
        <time>2020-02-07T11:39:15Z</time>
      </trkpt>
      <trkpt lat="46.25243" lon="6.76815">
        <ele>1678.6</ele>
        <time>2020-02-07T11:39:26Z</time>
      </trkpt>
      <trkpt lat="46.25237" lon="6.76828">
        <ele>1680.04</ele>
        <time>2020-02-07T11:39:41Z</time>
      </trkpt>
      <trkpt lat="46.25234" lon="6.76835">
        <ele>1680.04</ele>
        <time>2020-02-07T11:39:50Z</time>
      </trkpt>
      <trkpt lat="46.25227" lon="6.76846">
        <ele>1681.48</ele>
        <time>2020-02-07T11:40:02Z</time>
      </trkpt>
      <trkpt lat="46.25221" lon="6.76855">
        <ele>1681.96</ele>
        <time>2020-02-07T11:40:15Z</time>
      </trkpt>
      <trkpt lat="46.25218" lon="6.76862">
        <ele>1682.44</ele>
        <time>2020-02-07T11:40:48Z</time>
      </trkpt>
      <trkpt lat="46.2521" lon="6.76873">
        <ele>1683.41</ele>
        <time>2020-02-07T11:41:00Z</time>
      </trkpt>
      <trkpt lat="46.25205" lon="6.76881">
        <ele>1684.37</ele>
        <time>2020-02-07T11:41:10Z</time>
      </trkpt>
      <trkpt lat="46.25199" lon="6.76891">
        <ele>1685.33</ele>
        <time>2020-02-07T11:41:22Z</time>
      </trkpt>
      <trkpt lat="46.25197" lon="6.769">
        <ele>1686.29</ele>
        <time>2020-02-07T11:41:31Z</time>
      </trkpt>
      <trkpt lat="46.25191" lon="6.76909">
        <ele>1687.25</ele>
        <time>2020-02-07T11:41:42Z</time>
      </trkpt>
      <trkpt lat="46.25187" lon="6.7692">
        <ele>1688.21</ele>
        <time>2020-02-07T11:41:55Z</time>
      </trkpt>
      <trkpt lat="46.25183" lon="6.76926">
        <ele>1689.17</ele>
        <time>2020-02-07T11:42:03Z</time>
      </trkpt>
      <trkpt lat="46.25178" lon="6.7694">
        <ele>1689.65</ele>
        <time>2020-02-07T11:42:18Z</time>
      </trkpt>
      <trkpt lat="46.25176" lon="6.7695">
        <ele>1691.1</ele>
        <time>2020-02-07T11:42:29Z</time>
      </trkpt>
      <trkpt lat="46.25175" lon="6.76961">
        <ele>1693.02</ele>
        <time>2020-02-07T11:42:43Z</time>
      </trkpt>
      <trkpt lat="46.25175" lon="6.76962">
        <ele>1693.02</ele>
        <time>2020-02-07T11:42:44Z</time>
      </trkpt>
      <trkpt lat="46.25175" lon="6.76973">
        <ele>1693.02</ele>
        <time>2020-02-07T11:42:55Z</time>
      </trkpt>
      <trkpt lat="46.25169" lon="6.76985">
        <ele>1693.98</ele>
        <time>2020-02-07T11:43:08Z</time>
      </trkpt>
      <trkpt lat="46.25167" lon="6.76991">
        <ele>1694.46</ele>
        <time>2020-02-07T11:43:16Z</time>
      </trkpt>
      <trkpt lat="46.25161" lon="6.77003">
        <ele>1694.46</ele>
        <time>2020-02-07T11:43:29Z</time>
      </trkpt>
      <trkpt lat="46.25155" lon="6.77013">
        <ele>1694.94</ele>
        <time>2020-02-07T11:43:44Z</time>
      </trkpt>
      <trkpt lat="46.2515" lon="6.77022">
        <ele>1695.9</ele>
        <time>2020-02-07T11:43:57Z</time>
      </trkpt>
      <trkpt lat="46.25148" lon="6.77026">
        <ele>1695.9</ele>
        <time>2020-02-07T11:44:13Z</time>
      </trkpt>
      <trkpt lat="46.25146" lon="6.77031">
        <ele>1695.9</ele>
        <time>2020-02-07T11:44:28Z</time>
      </trkpt>
      <trkpt lat="46.25146" lon="6.7703">
        <ele>1696.38</ele>
        <time>2020-02-07T11:44:49Z</time>
      </trkpt>
      <trkpt lat="46.25143" lon="6.77035">
        <ele>1695.42</ele>
        <time>2020-02-07T11:45:11Z</time>
      </trkpt>
      <trkpt lat="46.25142" lon="6.7704">
        <ele>1695.42</ele>
        <time>2020-02-07T11:45:42Z</time>
      </trkpt>
      <trkpt lat="46.25143" lon="6.77049">
        <ele>1696.38</ele>
        <time>2020-02-07T11:45:53Z</time>
      </trkpt>
      <trkpt lat="46.25144" lon="6.7705">
        <ele>1696.86</ele>
        <time>2020-02-07T11:45:54Z</time>
      </trkpt>
      <trkpt lat="46.25148" lon="6.77061">
        <ele>1697.83</ele>
        <time>2020-02-07T11:46:06Z</time>
      </trkpt>
      <trkpt lat="46.25148" lon="6.7707">
        <ele>1699.27</ele>
        <time>2020-02-07T11:46:18Z</time>
      </trkpt>
      <trkpt lat="46.25148" lon="6.77077">
        <ele>1700.23</ele>
        <time>2020-02-07T11:46:31Z</time>
      </trkpt>
      <trkpt lat="46.25147" lon="6.77082">
        <ele>1701.19</ele>
        <time>2020-02-07T11:46:43Z</time>
      </trkpt>
      <trkpt lat="46.25147" lon="6.77087">
        <ele>1703.11</ele>
        <time>2020-02-07T11:46:55Z</time>
      </trkpt>
      <trkpt lat="46.25152" lon="6.77091">
        <ele>1703.59</ele>
        <time>2020-02-07T11:47:05Z</time>
      </trkpt>
      <trkpt lat="46.25156" lon="6.77095">
        <ele>1705.52</ele>
        <time>2020-02-07T11:47:18Z</time>
      </trkpt>
      <trkpt lat="46.2516" lon="6.77102">
        <ele>1706.96</ele>
        <time>2020-02-07T11:47:31Z</time>
      </trkpt>
      <trkpt lat="46.25163" lon="6.77107">
        <ele>1706.96</ele>
        <time>2020-02-07T11:47:42Z</time>
      </trkpt>
      <trkpt lat="46.25163" lon="6.77108">
        <ele>1708.4</ele>
        <time>2020-02-07T11:47:53Z</time>
      </trkpt>
      <trkpt lat="46.25165" lon="6.77113">
        <ele>1708.88</ele>
        <time>2020-02-07T11:48:04Z</time>
      </trkpt>
      <trkpt lat="46.25164" lon="6.77115">
        <ele>1708.88</ele>
        <time>2020-02-07T11:48:30Z</time>
      </trkpt>
      <trkpt lat="46.25165" lon="6.77116">
        <ele>1708.88</ele>
        <time>2020-02-07T11:48:47Z</time>
      </trkpt>
      <trkpt lat="46.25165" lon="6.77118">
        <ele>1707.92</ele>
        <time>2020-02-07T11:49:04Z</time>
      </trkpt>
      <trkpt lat="46.25164" lon="6.77117">
        <ele>1707.92</ele>
        <time>2020-02-07T11:50:39Z</time>
      </trkpt>
      <trkpt lat="46.25164" lon="6.77116">
        <ele>1708.4</ele>
        <time>2020-02-07T11:53:16Z</time>
      </trkpt>
      <trkpt lat="46.25164" lon="6.77113">
        <ele>1707.44</ele>
        <time>2020-02-07T12:24:44Z</time>
      </trkpt>
      <trkpt lat="46.25163" lon="6.77113">
        <ele>1707.44</ele>
        <time>2020-02-07T12:25:57Z</time>
      </trkpt>
      <trkpt lat="46.25164" lon="6.77113">
        <ele>1707.44</ele>
        <time>2020-02-07T12:27:21Z</time>
      </trkpt>
      <trkpt lat="46.25165" lon="6.77113">
        <ele>1708.88</ele>
        <time>2020-02-07T12:33:56Z</time>
      </trkpt>
      <trkpt lat="46.25165" lon="6.77115">
        <ele>1708.88</ele>
        <time>2020-02-07T12:34:36Z</time>
      </trkpt>
      <trkpt lat="46.25165" lon="6.77111">
        <ele>1707.92</ele>
        <time>2020-02-07T12:34:59Z</time>
      </trkpt>
      <trkpt lat="46.25164" lon="6.77111">
        <ele>1708.4</ele>
        <time>2020-02-07T12:35:46Z</time>
      </trkpt>
      <trkpt lat="46.25164" lon="6.77111">
        <ele>1708.4</ele>
        <time>2020-02-07T12:36:11Z</time>
      </trkpt>
      <trkpt lat="46.25166" lon="6.77111">
        <ele>1708.4</ele>
        <time>2020-02-07T12:36:37Z</time>
      </trkpt>
      <trkpt lat="46.25166" lon="6.77113">
        <ele>1708.4</ele>
        <time>2020-02-07T12:37:39Z</time>
      </trkpt>
      <trkpt lat="46.25163" lon="6.77109">
        <ele>1707.92</ele>
        <time>2020-02-07T12:37:55Z</time>
      </trkpt>
      <trkpt lat="46.25159" lon="6.77102">
        <ele>1706.96</ele>
        <time>2020-02-07T12:38:09Z</time>
      </trkpt>
      <trkpt lat="46.25161" lon="6.77103">
        <ele>1707.44</ele>
        <time>2020-02-07T12:38:28Z</time>
      </trkpt>
      <trkpt lat="46.25163" lon="6.77107">
        <ele>1708.4</ele>
        <time>2020-02-07T12:38:39Z</time>
      </trkpt>
      <trkpt lat="46.25164" lon="6.77111">
        <ele>1708.4</ele>
        <time>2020-02-07T12:38:49Z</time>
      </trkpt>
      <trkpt lat="46.25165" lon="6.7711">
        <ele>1709.36</ele>
        <time>2020-02-07T12:39:07Z</time>
      </trkpt>
      <trkpt lat="46.25165" lon="6.77111">
        <ele>1709.36</ele>
        <time>2020-02-07T12:41:01Z</time>
      </trkpt>
      <trkpt lat="46.25166" lon="6.77112">
        <ele>1708.88</ele>
        <time>2020-02-07T12:42:16Z</time>
      </trkpt>
      <trkpt lat="46.25166" lon="6.77112">
        <ele>1707.92</ele>
        <time>2020-02-07T12:42:54Z</time>
      </trkpt>
      <trkpt lat="46.25162" lon="6.77118">
        <ele>1708.88</ele>
        <time>2020-02-07T12:43:19Z</time>
      </trkpt>
      <trkpt lat="46.25154" lon="6.77117">
        <ele>1708.4</ele>
        <time>2020-02-07T12:43:32Z</time>
      </trkpt>
      <trkpt lat="46.25153" lon="6.77118">
        <ele>1708.4</ele>
        <time>2020-02-07T12:43:35Z</time>
      </trkpt>
      <trkpt lat="46.25143" lon="6.77118">
        <ele>1708.88</ele>
        <time>2020-02-07T12:43:47Z</time>
      </trkpt>
      <trkpt lat="46.25135" lon="6.77122">
        <ele>1709.84</ele>
        <time>2020-02-07T12:44:00Z</time>
      </trkpt>
      <trkpt lat="46.25129" lon="6.77124">
        <ele>1710.8</ele>
        <time>2020-02-07T12:44:09Z</time>
      </trkpt>
      <trkpt lat="46.25125" lon="6.77131">
        <ele>1711.76</ele>
        <time>2020-02-07T12:44:20Z</time>
      </trkpt>
      <trkpt lat="46.25123" lon="6.77134">
        <ele>1712.25</ele>
        <time>2020-02-07T12:44:24Z</time>
      </trkpt>
      <trkpt lat="46.2512" lon="6.77142">
        <ele>1713.21</ele>
        <time>2020-02-07T12:44:36Z</time>
      </trkpt>
      <trkpt lat="46.25117" lon="6.77151">
        <ele>1713.69</ele>
        <time>2020-02-07T12:44:48Z</time>
      </trkpt>
      <trkpt lat="46.25114" lon="6.77159">
        <ele>1714.17</ele>
        <time>2020-02-07T12:45:01Z</time>
      </trkpt>
      <trkpt lat="46.25114" lon="6.77159">
        <ele>1714.17</ele>
        <time>2020-02-07T12:45:28Z</time>
      </trkpt>
      <trkpt lat="46.25114" lon="6.77159">
        <ele>1715.13</ele>
        <time>2020-02-07T12:46:51Z</time>
      </trkpt>
      <trkpt lat="46.25113" lon="6.77161">
        <ele>1714.65</ele>
        <time>2020-02-07T12:47:40Z</time>
      </trkpt>
      <trkpt lat="46.25113" lon="6.77162">
        <ele>1714.65</ele>
        <time>2020-02-07T12:48:23Z</time>
      </trkpt>
      <trkpt lat="46.25113" lon="6.77162">
        <ele>1715.13</ele>
        <time>2020-02-07T12:49:17Z</time>
      </trkpt>
      <trkpt lat="46.25113" lon="6.77163">
        <ele>1714.65</ele>
        <time>2020-02-07T12:49:32Z</time>
      </trkpt>
      <trkpt lat="46.25112" lon="6.77165">
        <ele>1714.65</ele>
        <time>2020-02-07T12:50:00Z</time>
      </trkpt>
      <trkpt lat="46.25111" lon="6.77167">
        <ele>1715.13</ele>
        <time>2020-02-07T12:50:29Z</time>
      </trkpt>
      <trkpt lat="46.25111" lon="6.77167">
        <ele>1714.65</ele>
        <time>2020-02-07T12:51:42Z</time>
      </trkpt>
      <trkpt lat="46.2511" lon="6.77165">
        <ele>1715.13</ele>
        <time>2020-02-07T12:53:06Z</time>
      </trkpt>
      <trkpt lat="46.25108" lon="6.77175">
        <ele>1714.65</ele>
        <time>2020-02-07T12:53:39Z</time>
      </trkpt>
      <trkpt lat="46.25107" lon="6.77177">
        <ele>1714.65</ele>
        <time>2020-02-07T12:53:41Z</time>
      </trkpt>
      <trkpt lat="46.25103" lon="6.77192">
        <ele>1712.25</ele>
        <time>2020-02-07T12:53:55Z</time>
      </trkpt>
      <trkpt lat="46.25103" lon="6.77193">
        <ele>1712.25</ele>
        <time>2020-02-07T12:53:56Z</time>
      </trkpt>
      <trkpt lat="46.25102" lon="6.77198">
        <ele>1712.25</ele>
        <time>2020-02-07T12:54:00Z</time>
      </trkpt>
      <trkpt lat="46.251" lon="6.77211">
        <ele>1712.73</ele>
        <time>2020-02-07T12:54:12Z</time>
      </trkpt>
      <trkpt lat="46.25098" lon="6.77223">
        <ele>1714.17</ele>
        <time>2020-02-07T12:54:25Z</time>
      </trkpt>
      <trkpt lat="46.25097" lon="6.77229">
        <ele>1713.69</ele>
        <time>2020-02-07T12:54:30Z</time>
      </trkpt>
      <trkpt lat="46.25093" lon="6.7724">
        <ele>1714.17</ele>
        <time>2020-02-07T12:54:43Z</time>
      </trkpt>
      <trkpt lat="46.25089" lon="6.77247">
        <ele>1715.13</ele>
        <time>2020-02-07T12:54:55Z</time>
      </trkpt>
      <trkpt lat="46.25088" lon="6.77248">
        <ele>1716.09</ele>
        <time>2020-02-07T12:54:56Z</time>
      </trkpt>
      <trkpt lat="46.25078" lon="6.77255">
        <ele>1716.57</ele>
        <time>2020-02-07T12:55:12Z</time>
      </trkpt>
      <trkpt lat="46.25071" lon="6.7726">
        <ele>1717.53</ele>
        <time>2020-02-07T12:55:24Z</time>
      </trkpt>
      <trkpt lat="46.25068" lon="6.77262">
        <ele>1718.01</ele>
        <time>2020-02-07T12:55:29Z</time>
      </trkpt>
      <trkpt lat="46.25059" lon="6.77267">
        <ele>1718.49</ele>
        <time>2020-02-07T12:55:41Z</time>
      </trkpt>
      <trkpt lat="46.25056" lon="6.77273">
        <ele>1718.97</ele>
        <time>2020-02-07T12:55:49Z</time>
      </trkpt>
      <trkpt lat="46.2505" lon="6.77283">
        <ele>1719.46</ele>
        <time>2020-02-07T12:56:01Z</time>
      </trkpt>
      <trkpt lat="46.25043" lon="6.77293">
        <ele>1718.97</ele>
        <time>2020-02-07T12:56:13Z</time>
      </trkpt>
      <trkpt lat="46.25037" lon="6.77307">
        <ele>1718.49</ele>
        <time>2020-02-07T12:56:27Z</time>
      </trkpt>
      <trkpt lat="46.25034" lon="6.77319">
        <ele>1718.01</ele>
        <time>2020-02-07T12:56:38Z</time>
      </trkpt>
      <trkpt lat="46.25033" lon="6.77322">
        <ele>1717.53</ele>
        <time>2020-02-07T12:56:41Z</time>
      </trkpt>
      <trkpt lat="46.25029" lon="6.77335">
        <ele>1717.53</ele>
        <time>2020-02-07T12:56:52Z</time>
      </trkpt>
      <trkpt lat="46.25025" lon="6.77347">
        <ele>1717.05</ele>
        <time>2020-02-07T12:57:05Z</time>
      </trkpt>
      <trkpt lat="46.25025" lon="6.77348">
        <ele>1717.53</ele>
        <time>2020-02-07T12:57:06Z</time>
      </trkpt>
      <trkpt lat="46.25017" lon="6.77353">
        <ele>1716.09</ele>
        <time>2020-02-07T12:57:20Z</time>
      </trkpt>
      <trkpt lat="46.25015" lon="6.77352">
        <ele>1715.61</ele>
        <time>2020-02-07T12:57:23Z</time>
      </trkpt>
      <trkpt lat="46.25012" lon="6.77352">
        <ele>1715.61</ele>
        <time>2020-02-07T12:57:36Z</time>
      </trkpt>
      <trkpt lat="46.25012" lon="6.77352">
        <ele>1716.09</ele>
        <time>2020-02-07T13:04:24Z</time>
      </trkpt>
      <trkpt lat="46.25012" lon="6.77351">
        <ele>1716.09</ele>
        <time>2020-02-07T13:05:13Z</time>
      </trkpt>
      <trkpt lat="46.25012" lon="6.77352">
        <ele>1716.57</ele>
        <time>2020-02-07T13:06:10Z</time>
      </trkpt>
      <trkpt lat="46.25011" lon="6.77357">
        <ele>1716.09</ele>
        <time>2020-02-07T13:07:22Z</time>
      </trkpt>
      <trkpt lat="46.25011" lon="6.77357">
        <ele>1716.57</ele>
        <time>2020-02-07T13:07:45Z</time>
      </trkpt>
      <trkpt lat="46.25007" lon="6.77365">
        <ele>1716.09</ele>
        <time>2020-02-07T13:08:11Z</time>
      </trkpt>
      <trkpt lat="46.25004" lon="6.77377">
        <ele>1716.09</ele>
        <time>2020-02-07T13:08:21Z</time>
      </trkpt>
      <trkpt lat="46.25" lon="6.77385">
        <ele>1715.13</ele>
        <time>2020-02-07T13:08:29Z</time>
      </trkpt>
      <trkpt lat="46.24994" lon="6.77399">
        <ele>1715.13</ele>
        <time>2020-02-07T13:08:42Z</time>
      </trkpt>
      <trkpt lat="46.24989" lon="6.77416">
        <ele>1712.73</ele>
        <time>2020-02-07T13:08:57Z</time>
      </trkpt>
      <trkpt lat="46.24987" lon="6.77435">
        <ele>1711.76</ele>
        <time>2020-02-07T13:09:12Z</time>
      </trkpt>
      <trkpt lat="46.24987" lon="6.77441">
        <ele>1710.8</ele>
        <time>2020-02-07T13:09:16Z</time>
      </trkpt>
      <trkpt lat="46.24982" lon="6.77457">
        <ele>1709.36</ele>
        <time>2020-02-07T13:09:29Z</time>
      </trkpt>
      <trkpt lat="46.24979" lon="6.77472">
        <ele>1709.36</ele>
        <time>2020-02-07T13:09:42Z</time>
      </trkpt>
      <trkpt lat="46.24973" lon="6.77488">
        <ele>1708.88</ele>
        <time>2020-02-07T13:09:54Z</time>
      </trkpt>
      <trkpt lat="46.24972" lon="6.7749">
        <ele>1708.88</ele>
        <time>2020-02-07T13:09:56Z</time>
      </trkpt>
      <trkpt lat="46.2497" lon="6.77493">
        <ele>1708.4</ele>
        <time>2020-02-07T13:10:00Z</time>
      </trkpt>
      <trkpt lat="46.24967" lon="6.775">
        <ele>1707.92</ele>
        <time>2020-02-07T13:10:05Z</time>
      </trkpt>
      <trkpt lat="46.24962" lon="6.77514">
        <ele>1707.44</ele>
        <time>2020-02-07T13:10:16Z</time>
      </trkpt>
      <trkpt lat="46.24958" lon="6.77518">
        <ele>1707.92</ele>
        <time>2020-02-07T13:10:22Z</time>
      </trkpt>
      <trkpt lat="46.24945" lon="6.77518">
        <ele>1708.88</ele>
        <time>2020-02-07T13:10:35Z</time>
      </trkpt>
      <trkpt lat="46.24934" lon="6.77518">
        <ele>1710.8</ele>
        <time>2020-02-07T13:10:46Z</time>
      </trkpt>
      <trkpt lat="46.24929" lon="6.77518">
        <ele>1711.28</ele>
        <time>2020-02-07T13:10:55Z</time>
      </trkpt>
      <trkpt lat="46.24921" lon="6.77519">
        <ele>1711.76</ele>
        <time>2020-02-07T13:11:06Z</time>
      </trkpt>
      <trkpt lat="46.24915" lon="6.77519">
        <ele>1713.21</ele>
        <time>2020-02-07T13:11:18Z</time>
      </trkpt>
      <trkpt lat="46.24911" lon="6.77517">
        <ele>1714.17</ele>
        <time>2020-02-07T13:11:42Z</time>
      </trkpt>
      <trkpt lat="46.2491" lon="6.77513">
        <ele>1714.17</ele>
        <time>2020-02-07T13:11:46Z</time>
      </trkpt>
      <trkpt lat="46.24904" lon="6.77499">
        <ele>1715.13</ele>
        <time>2020-02-07T13:11:59Z</time>
      </trkpt>
      <trkpt lat="46.24899" lon="6.77496">
        <ele>1716.09</ele>
        <time>2020-02-07T13:12:08Z</time>
      </trkpt>
      <trkpt lat="46.24892" lon="6.775">
        <ele>1716.57</ele>
        <time>2020-02-07T13:12:17Z</time>
      </trkpt>
      <trkpt lat="46.24887" lon="6.77505">
        <ele>1717.53</ele>
        <time>2020-02-07T13:12:25Z</time>
      </trkpt>
      <trkpt lat="46.24881" lon="6.7751">
        <ele>1719.46</ele>
        <time>2020-02-07T13:12:37Z</time>
      </trkpt>
      <trkpt lat="46.24876" lon="6.77516">
        <ele>1719.94</ele>
        <time>2020-02-07T13:12:47Z</time>
      </trkpt>
      <trkpt lat="46.24871" lon="6.77526">
        <ele>1720.9</ele>
        <time>2020-02-07T13:13:00Z</time>
      </trkpt>
      <trkpt lat="46.24867" lon="6.77535">
        <ele>1722.34</ele>
        <time>2020-02-07T13:13:11Z</time>
      </trkpt>
      <trkpt lat="46.24863" lon="6.77543">
        <ele>1722.82</ele>
        <time>2020-02-07T13:13:23Z</time>
      </trkpt>
      <trkpt lat="46.24861" lon="6.77553">
        <ele>1723.3</ele>
        <time>2020-02-07T13:13:33Z</time>
      </trkpt>
      <trkpt lat="46.2486" lon="6.77564">
        <ele>1723.3</ele>
        <time>2020-02-07T13:13:45Z</time>
      </trkpt>
      <trkpt lat="46.24855" lon="6.77582">
        <ele>1723.3</ele>
        <time>2020-02-07T13:13:57Z</time>
      </trkpt>
      <trkpt lat="46.24852" lon="6.77594">
        <ele>1724.74</ele>
        <time>2020-02-07T13:14:09Z</time>
      </trkpt>
      <trkpt lat="46.24849" lon="6.77602">
        <ele>1725.7</ele>
        <time>2020-02-07T13:14:21Z</time>
      </trkpt>
      <trkpt lat="46.24845" lon="6.77612">
        <ele>1726.67</ele>
        <time>2020-02-07T13:14:33Z</time>
      </trkpt>
      <trkpt lat="46.24841" lon="6.77619">
        <ele>1728.11</ele>
        <time>2020-02-07T13:14:45Z</time>
      </trkpt>
      <trkpt lat="46.24838" lon="6.77626">
        <ele>1729.07</ele>
        <time>2020-02-07T13:14:56Z</time>
      </trkpt>
      <trkpt lat="46.24834" lon="6.77634">
        <ele>1729.55</ele>
        <time>2020-02-07T13:15:07Z</time>
      </trkpt>
      <trkpt lat="46.24829" lon="6.77644">
        <ele>1730.99</ele>
        <time>2020-02-07T13:15:20Z</time>
      </trkpt>
      <trkpt lat="46.24827" lon="6.7765">
        <ele>1730.99</ele>
        <time>2020-02-07T13:15:26Z</time>
      </trkpt>
      <trkpt lat="46.24821" lon="6.77662">
        <ele>1731.95</ele>
        <time>2020-02-07T13:15:38Z</time>
      </trkpt>
      <trkpt lat="46.2482" lon="6.77666">
        <ele>1731.95</ele>
        <time>2020-02-07T13:15:42Z</time>
      </trkpt>
      <trkpt lat="46.24815" lon="6.7768">
        <ele>1731.47</ele>
        <time>2020-02-07T13:15:55Z</time>
      </trkpt>
      <trkpt lat="46.24814" lon="6.77683">
        <ele>1731.95</ele>
        <time>2020-02-07T13:15:57Z</time>
      </trkpt>
      <trkpt lat="46.24811" lon="6.77692">
        <ele>1731.95</ele>
        <time>2020-02-07T13:16:04Z</time>
      </trkpt>
      <trkpt lat="46.24811" lon="6.77695">
        <ele>1731.95</ele>
        <time>2020-02-07T13:16:06Z</time>
      </trkpt>
      <trkpt lat="46.24809" lon="6.77699">
        <ele>1731.95</ele>
        <time>2020-02-07T13:16:09Z</time>
      </trkpt>
      <trkpt lat="46.24805" lon="6.77714">
        <ele>1732.43</ele>
        <time>2020-02-07T13:16:22Z</time>
      </trkpt>
      <trkpt lat="46.24801" lon="6.77722">
        <ele>1733.88</ele>
        <time>2020-02-07T13:16:32Z</time>
      </trkpt>
      <trkpt lat="46.24796" lon="6.77729">
        <ele>1734.36</ele>
        <time>2020-02-07T13:16:42Z</time>
      </trkpt>
      <trkpt lat="46.2479" lon="6.77734">
        <ele>1734.84</ele>
        <time>2020-02-07T13:16:50Z</time>
      </trkpt>
      <trkpt lat="46.24785" lon="6.77738">
        <ele>1734.84</ele>
        <time>2020-02-07T13:16:56Z</time>
      </trkpt>
      <trkpt lat="46.24777" lon="6.77743">
        <ele>1735.8</ele>
        <time>2020-02-07T13:17:07Z</time>
      </trkpt>
      <trkpt lat="46.24776" lon="6.77744">
        <ele>1735.8</ele>
        <time>2020-02-07T13:17:09Z</time>
      </trkpt>
      <trkpt lat="46.24771" lon="6.77752">
        <ele>1737.72</ele>
        <time>2020-02-07T13:17:23Z</time>
      </trkpt>
      <trkpt lat="46.24766" lon="6.77756">
        <ele>1737.24</ele>
        <time>2020-02-07T13:17:34Z</time>
      </trkpt>
      <trkpt lat="46.24768" lon="6.77757">
        <ele>1737.72</ele>
        <time>2020-02-07T13:18:01Z</time>
      </trkpt>
      <trkpt lat="46.24765" lon="6.77758">
        <ele>1737.72</ele>
        <time>2020-02-07T13:18:56Z</time>
      </trkpt>
      <trkpt lat="46.24763" lon="6.77758">
        <ele>1738.2</ele>
        <time>2020-02-07T13:19:17Z</time>
      </trkpt>
      <trkpt lat="46.24762" lon="6.77763">
        <ele>1737.72</ele>
        <time>2020-02-07T13:19:45Z</time>
      </trkpt>
      <trkpt lat="46.24767" lon="6.77763">
        <ele>1737.72</ele>
        <time>2020-02-07T13:20:08Z</time>
      </trkpt>
      <trkpt lat="46.24768" lon="6.7776">
        <ele>1738.68</ele>
        <time>2020-02-07T13:20:18Z</time>
      </trkpt>
      <trkpt lat="46.24769" lon="6.77755">
        <ele>1737.72</ele>
        <time>2020-02-07T13:20:28Z</time>
      </trkpt>
      <trkpt lat="46.24769" lon="6.77755">
        <ele>1738.2</ele>
        <time>2020-02-07T13:20:59Z</time>
      </trkpt>
      <trkpt lat="46.24768" lon="6.77756">
        <ele>1737.72</ele>
        <time>2020-02-07T13:21:13Z</time>
      </trkpt>
      <trkpt lat="46.24768" lon="6.77754">
        <ele>1737.72</ele>
        <time>2020-02-07T13:23:50Z</time>
      </trkpt>
      <trkpt lat="46.24769" lon="6.77757">
        <ele>1738.2</ele>
        <time>2020-02-07T13:24:58Z</time>
      </trkpt>
      <trkpt lat="46.24768" lon="6.77757">
        <ele>1738.2</ele>
        <time>2020-02-07T13:25:26Z</time>
      </trkpt>
      <trkpt lat="46.24769" lon="6.77757">
        <ele>1737.24</ele>
        <time>2020-02-07T13:26:52Z</time>
      </trkpt>
      <trkpt lat="46.24768" lon="6.77756">
        <ele>1737.72</ele>
        <time>2020-02-07T13:27:53Z</time>
      </trkpt>
      <trkpt lat="46.24767" lon="6.77758">
        <ele>1737.72</ele>
        <time>2020-02-07T13:28:21Z</time>
      </trkpt>
      <trkpt lat="46.24762" lon="6.77757">
        <ele>1737.72</ele>
        <time>2020-02-07T13:28:55Z</time>
      </trkpt>
      <trkpt lat="46.24754" lon="6.77749">
        <ele>1737.72</ele>
        <time>2020-02-07T13:29:09Z</time>
      </trkpt>
      <trkpt lat="46.24752" lon="6.77745">
        <ele>1738.2</ele>
        <time>2020-02-07T13:29:14Z</time>
      </trkpt>
      <trkpt lat="46.24746" lon="6.77735">
        <ele>1739.64</ele>
        <time>2020-02-07T13:29:27Z</time>
      </trkpt>
      <trkpt lat="46.24737" lon="6.77721">
        <ele>1740.12</ele>
        <time>2020-02-07T13:29:42Z</time>
      </trkpt>
      <trkpt lat="46.24735" lon="6.77715">
        <ele>1742.05</ele>
        <time>2020-02-07T13:29:48Z</time>
      </trkpt>
      <trkpt lat="46.24727" lon="6.77698">
        <ele>1741.57</ele>
        <time>2020-02-07T13:30:04Z</time>
      </trkpt>
      <trkpt lat="46.2472" lon="6.77685">
        <ele>1740.6</ele>
        <time>2020-02-07T13:30:17Z</time>
      </trkpt>
      <trkpt lat="46.24719" lon="6.77684">
        <ele>1741.08</ele>
        <time>2020-02-07T13:30:18Z</time>
      </trkpt>
      <trkpt lat="46.24708" lon="6.77667">
        <ele>1740.12</ele>
        <time>2020-02-07T13:30:33Z</time>
      </trkpt>
      <trkpt lat="46.24694" lon="6.77663">
        <ele>1740.6</ele>
        <time>2020-02-07T13:30:48Z</time>
      </trkpt>
      <trkpt lat="46.24681" lon="6.77662">
        <ele>1741.57</ele>
        <time>2020-02-07T13:31:03Z</time>
      </trkpt>
      <trkpt lat="46.24677" lon="6.77663">
        <ele>1742.05</ele>
        <time>2020-02-07T13:31:08Z</time>
      </trkpt>
      <trkpt lat="46.24668" lon="6.77667">
        <ele>1743.01</ele>
        <time>2020-02-07T13:31:19Z</time>
      </trkpt>
      <trkpt lat="46.24662" lon="6.77673">
        <ele>1743.49</ele>
        <time>2020-02-07T13:31:30Z</time>
      </trkpt>
      <trkpt lat="46.24658" lon="6.77679">
        <ele>1743.01</ele>
        <time>2020-02-07T13:31:37Z</time>
      </trkpt>
      <trkpt lat="46.24648" lon="6.77687">
        <ele>1742.05</ele>
        <time>2020-02-07T13:31:50Z</time>
      </trkpt>
      <trkpt lat="46.24635" lon="6.77693">
        <ele>1741.08</ele>
        <time>2020-02-07T13:32:05Z</time>
      </trkpt>
      <trkpt lat="46.24624" lon="6.77701">
        <ele>1741.08</ele>
        <time>2020-02-07T13:32:18Z</time>
      </trkpt>
      <trkpt lat="46.24611" lon="6.7771">
        <ele>1739.16</ele>
        <time>2020-02-07T13:32:32Z</time>
      </trkpt>
      <trkpt lat="46.246" lon="6.77718">
        <ele>1737.24</ele>
        <time>2020-02-07T13:32:46Z</time>
      </trkpt>
      <trkpt lat="46.24591" lon="6.77724">
        <ele>1736.28</ele>
        <time>2020-02-07T13:32:57Z</time>
      </trkpt>
      <trkpt lat="46.24588" lon="6.77726">
        <ele>1735.8</ele>
        <time>2020-02-07T13:33:00Z</time>
      </trkpt>
      <trkpt lat="46.24572" lon="6.77735">
        <ele>1733.39</ele>
        <time>2020-02-07T13:33:16Z</time>
      </trkpt>
      <trkpt lat="46.24559" lon="6.77741">
        <ele>1731.47</ele>
        <time>2020-02-07T13:33:30Z</time>
      </trkpt>
      <trkpt lat="46.24557" lon="6.77743">
        <ele>1730.99</ele>
        <time>2020-02-07T13:33:33Z</time>
      </trkpt>
      <trkpt lat="46.24552" lon="6.77746">
        <ele>1731.47</ele>
        <time>2020-02-07T13:33:39Z</time>
      </trkpt>
      <trkpt lat="46.2454" lon="6.77749">
        <ele>1731.47</ele>
        <time>2020-02-07T13:33:50Z</time>
      </trkpt>
      <trkpt lat="46.24532" lon="6.77752">
        <ele>1732.91</ele>
        <time>2020-02-07T13:34:03Z</time>
      </trkpt>
      <trkpt lat="46.24529" lon="6.77751">
        <ele>1732.91</ele>
        <time>2020-02-07T13:34:06Z</time>
      </trkpt>
      <trkpt lat="46.2452" lon="6.7775">
        <ele>1733.88</ele>
        <time>2020-02-07T13:34:17Z</time>
      </trkpt>
      <trkpt lat="46.24516" lon="6.7775">
        <ele>1734.84</ele>
        <time>2020-02-07T13:34:22Z</time>
      </trkpt>
      <trkpt lat="46.24508" lon="6.7775">
        <ele>1735.8</ele>
        <time>2020-02-07T13:34:36Z</time>
      </trkpt>
      <trkpt lat="46.24501" lon="6.77748">
        <ele>1736.76</ele>
        <time>2020-02-07T13:34:47Z</time>
      </trkpt>
      <trkpt lat="46.24495" lon="6.77743">
        <ele>1737.72</ele>
        <time>2020-02-07T13:34:59Z</time>
      </trkpt>
      <trkpt lat="46.24494" lon="6.77741">
        <ele>1738.2</ele>
        <time>2020-02-07T13:35:13Z</time>
      </trkpt>
      <trkpt lat="46.24495" lon="6.77741">
        <ele>1736.76</ele>
        <time>2020-02-07T13:35:43Z</time>
      </trkpt>
      <trkpt lat="46.24494" lon="6.77741">
        <ele>1738.68</ele>
        <time>2020-02-07T13:36:22Z</time>
      </trkpt>
      <trkpt lat="46.24494" lon="6.77741">
        <ele>1738.2</ele>
        <time>2020-02-07T13:36:50Z</time>
      </trkpt>
      <trkpt lat="46.24488" lon="6.77734">
        <ele>1738.68</ele>
        <time>2020-02-07T13:37:12Z</time>
      </trkpt>
      <trkpt lat="46.24483" lon="6.77722">
        <ele>1737.72</ele>
        <time>2020-02-07T13:37:23Z</time>
      </trkpt>
      <trkpt lat="46.24475" lon="6.77709">
        <ele>1736.28</ele>
        <time>2020-02-07T13:37:35Z</time>
      </trkpt>
      <trkpt lat="46.24463" lon="6.77699">
        <ele>1734.84</ele>
        <time>2020-02-07T13:37:49Z</time>
      </trkpt>
      <trkpt lat="46.24448" lon="6.77688">
        <ele>1734.36</ele>
        <time>2020-02-07T13:38:06Z</time>
      </trkpt>
      <trkpt lat="46.24437" lon="6.7768">
        <ele>1734.36</ele>
        <time>2020-02-07T13:38:18Z</time>
      </trkpt>
      <trkpt lat="46.24425" lon="6.77679">
        <ele>1733.39</ele>
        <time>2020-02-07T13:38:31Z</time>
      </trkpt>
      <trkpt lat="46.24423" lon="6.7768">
        <ele>1732.91</ele>
        <time>2020-02-07T13:38:33Z</time>
      </trkpt>
      <trkpt lat="46.24421" lon="6.77681">
        <ele>1732.91</ele>
        <time>2020-02-07T13:38:36Z</time>
      </trkpt>
      <trkpt lat="46.24408" lon="6.77687">
        <ele>1730.03</ele>
        <time>2020-02-07T13:38:53Z</time>
      </trkpt>
      <trkpt lat="46.24393" lon="6.77692">
        <ele>1727.15</ele>
        <time>2020-02-07T13:39:09Z</time>
      </trkpt>
      <trkpt lat="46.24381" lon="6.77691">
        <ele>1726.67</ele>
        <time>2020-02-07T13:39:22Z</time>
      </trkpt>
      <trkpt lat="46.24379" lon="6.77691">
        <ele>1726.18</ele>
        <time>2020-02-07T13:39:24Z</time>
      </trkpt>
      <trkpt lat="46.24376" lon="6.7769">
        <ele>1726.18</ele>
        <time>2020-02-07T13:39:27Z</time>
      </trkpt>
      <trkpt lat="46.24374" lon="6.77689">
        <ele>1726.67</ele>
        <time>2020-02-07T13:39:29Z</time>
      </trkpt>
      <trkpt lat="46.2437" lon="6.77688">
        <ele>1726.18</ele>
        <time>2020-02-07T13:39:33Z</time>
      </trkpt>
      <trkpt lat="46.24366" lon="6.77686">
        <ele>1726.18</ele>
        <time>2020-02-07T13:39:37Z</time>
      </trkpt>
      <trkpt lat="46.24364" lon="6.77686">
        <ele>1726.18</ele>
        <time>2020-02-07T13:39:39Z</time>
      </trkpt>
      <trkpt lat="46.24361" lon="6.77685">
        <ele>1726.18</ele>
        <time>2020-02-07T13:39:42Z</time>
      </trkpt>
      <trkpt lat="46.24351" lon="6.77683">
        <ele>1724.74</ele>
        <time>2020-02-07T13:39:54Z</time>
      </trkpt>
      <trkpt lat="46.24345" lon="6.77683">
        <ele>1724.74</ele>
        <time>2020-02-07T13:40:00Z</time>
      </trkpt>
      <trkpt lat="46.24342" lon="6.7768">
        <ele>1724.26</ele>
        <time>2020-02-07T13:40:03Z</time>
      </trkpt>
      <trkpt lat="46.24336" lon="6.7768">
        <ele>1723.78</ele>
        <time>2020-02-07T13:40:10Z</time>
      </trkpt>
      <trkpt lat="46.24322" lon="6.77676">
        <ele>1722.34</ele>
        <time>2020-02-07T13:40:24Z</time>
      </trkpt>
      <trkpt lat="46.24308" lon="6.77674">
        <ele>1719.46</ele>
        <time>2020-02-07T13:40:39Z</time>
      </trkpt>
      <trkpt lat="46.24308" lon="6.77675">
        <ele>1719.46</ele>
        <time>2020-02-07T13:40:40Z</time>
      </trkpt>
      <trkpt lat="46.24303" lon="6.77673">
        <ele>1718.49</ele>
        <time>2020-02-07T13:40:46Z</time>
      </trkpt>
      <trkpt lat="46.24301" lon="6.77672">
        <ele>1718.01</ele>
        <time>2020-02-07T13:40:49Z</time>
      </trkpt>
      <trkpt lat="46.24293" lon="6.77666">
        <ele>1715.61</ele>
        <time>2020-02-07T13:41:02Z</time>
      </trkpt>
      <trkpt lat="46.24285" lon="6.77661">
        <ele>1714.17</ele>
        <time>2020-02-07T13:41:12Z</time>
      </trkpt>
      <trkpt lat="46.24272" lon="6.77658">
        <ele>1712.25</ele>
        <time>2020-02-07T13:41:25Z</time>
      </trkpt>
      <trkpt lat="46.24261" lon="6.77651">
        <ele>1709.36</ele>
        <time>2020-02-07T13:41:38Z</time>
      </trkpt>
      <trkpt lat="46.24252" lon="6.77648">
        <ele>1708.88</ele>
        <time>2020-02-07T13:41:48Z</time>
      </trkpt>
      <trkpt lat="46.2425" lon="6.77648">
        <ele>1708.4</ele>
        <time>2020-02-07T13:41:51Z</time>
      </trkpt>
      <trkpt lat="46.24239" lon="6.7765">
        <ele>1707.44</ele>
        <time>2020-02-07T13:42:05Z</time>
      </trkpt>
      <trkpt lat="46.24233" lon="6.77652">
        <ele>1706</ele>
        <time>2020-02-07T13:42:12Z</time>
      </trkpt>
      <trkpt lat="46.24228" lon="6.77656">
        <ele>1703.59</ele>
        <time>2020-02-07T13:42:23Z</time>
      </trkpt>
      <trkpt lat="46.24219" lon="6.77658">
        <ele>1701.19</ele>
        <time>2020-02-07T13:42:35Z</time>
      </trkpt>
      <trkpt lat="46.24208" lon="6.77654">
        <ele>1699.27</ele>
        <time>2020-02-07T13:42:46Z</time>
      </trkpt>
      <trkpt lat="46.24194" lon="6.77648">
        <ele>1696.86</ele>
        <time>2020-02-07T13:43:00Z</time>
      </trkpt>
      <trkpt lat="46.24183" lon="6.7765">
        <ele>1694.94</ele>
        <time>2020-02-07T13:43:14Z</time>
      </trkpt>
      <trkpt lat="46.24173" lon="6.77652">
        <ele>1693.02</ele>
        <time>2020-02-07T13:43:25Z</time>
      </trkpt>
      <trkpt lat="46.24165" lon="6.77652">
        <ele>1689.65</ele>
        <time>2020-02-07T13:43:36Z</time>
      </trkpt>
      <trkpt lat="46.24161" lon="6.77651">
        <ele>1686.77</ele>
        <time>2020-02-07T13:43:50Z</time>
      </trkpt>
      <trkpt lat="46.2416" lon="6.77652">
        <ele>1685.81</ele>
        <time>2020-02-07T13:43:52Z</time>
      </trkpt>
      <trkpt lat="46.24154" lon="6.77656">
        <ele>1684.37</ele>
        <time>2020-02-07T13:43:59Z</time>
      </trkpt>
      <trkpt lat="46.24149" lon="6.77653">
        <ele>1683.41</ele>
        <time>2020-02-07T13:44:04Z</time>
      </trkpt>
      <trkpt lat="46.24136" lon="6.77649">
        <ele>1683.41</ele>
        <time>2020-02-07T13:44:16Z</time>
      </trkpt>
      <trkpt lat="46.24134" lon="6.77649">
        <ele>1683.89</ele>
        <time>2020-02-07T13:44:18Z</time>
      </trkpt>
      <trkpt lat="46.24127" lon="6.77648">
        <ele>1683.41</ele>
        <time>2020-02-07T13:44:24Z</time>
      </trkpt>
      <trkpt lat="46.24123" lon="6.77646">
        <ele>1684.37</ele>
        <time>2020-02-07T13:44:29Z</time>
      </trkpt>
      <trkpt lat="46.24111" lon="6.77638">
        <ele>1684.85</ele>
        <time>2020-02-07T13:44:41Z</time>
      </trkpt>
      <trkpt lat="46.24099" lon="6.77631">
        <ele>1684.37</ele>
        <time>2020-02-07T13:44:55Z</time>
      </trkpt>
      <trkpt lat="46.24089" lon="6.77623">
        <ele>1682.93</ele>
        <time>2020-02-07T13:45:07Z</time>
      </trkpt>
      <trkpt lat="46.24079" lon="6.77613">
        <ele>1680.04</ele>
        <time>2020-02-07T13:45:22Z</time>
      </trkpt>
      <trkpt lat="46.24076" lon="6.77611">
        <ele>1680.04</ele>
        <time>2020-02-07T13:45:26Z</time>
      </trkpt>
      <trkpt lat="46.24069" lon="6.77605">
        <ele>1679.08</ele>
        <time>2020-02-07T13:45:34Z</time>
      </trkpt>
      <trkpt lat="46.24055" lon="6.77598">
        <ele>1677.64</ele>
        <time>2020-02-07T13:45:50Z</time>
      </trkpt>
      <trkpt lat="46.24044" lon="6.77594">
        <ele>1675.23</ele>
        <time>2020-02-07T13:46:03Z</time>
      </trkpt>
      <trkpt lat="46.24035" lon="6.77592">
        <ele>1673.31</ele>
        <time>2020-02-07T13:46:15Z</time>
      </trkpt>
      <trkpt lat="46.24023" lon="6.77593">
        <ele>1671.87</ele>
        <time>2020-02-07T13:46:27Z</time>
      </trkpt>
      <trkpt lat="46.24013" lon="6.77591">
        <ele>1671.39</ele>
        <time>2020-02-07T13:46:37Z</time>
      </trkpt>
      <trkpt lat="46.24001" lon="6.77588">
        <ele>1670.43</ele>
        <time>2020-02-07T13:46:50Z</time>
      </trkpt>
      <trkpt lat="46.23989" lon="6.77592">
        <ele>1668.99</ele>
        <time>2020-02-07T13:47:04Z</time>
      </trkpt>
      <trkpt lat="46.23989" lon="6.77592">
        <ele>1669.47</ele>
        <time>2020-02-07T13:47:30Z</time>
      </trkpt>
      <trkpt lat="46.23989" lon="6.77592">
        <ele>1669.47</ele>
        <time>2020-02-07T13:48:48Z</time>
      </trkpt>
      <trkpt lat="46.2398" lon="6.77588">
        <ele>1668.99</ele>
        <time>2020-02-07T13:49:02Z</time>
      </trkpt>
      <trkpt lat="46.23978" lon="6.77586">
        <ele>1668.99</ele>
        <time>2020-02-07T13:49:05Z</time>
      </trkpt>
      <trkpt lat="46.23975" lon="6.77583">
        <ele>1669.47</ele>
        <time>2020-02-07T13:49:10Z</time>
      </trkpt>
      <trkpt lat="46.23963" lon="6.77579">
        <ele>1668.51</ele>
        <time>2020-02-07T13:49:24Z</time>
      </trkpt>
      <trkpt lat="46.23952" lon="6.77576">
        <ele>1667.06</ele>
        <time>2020-02-07T13:49:36Z</time>
      </trkpt>
      <trkpt lat="46.23938" lon="6.77572">
        <ele>1665.62</ele>
        <time>2020-02-07T13:49:49Z</time>
      </trkpt>
      <trkpt lat="46.23925" lon="6.77563">
        <ele>1664.66</ele>
        <time>2020-02-07T13:50:04Z</time>
      </trkpt>
      <trkpt lat="46.23918" lon="6.77558">
        <ele>1664.66</ele>
        <time>2020-02-07T13:50:11Z</time>
      </trkpt>
      <trkpt lat="46.23908" lon="6.77544">
        <ele>1662.74</ele>
        <time>2020-02-07T13:50:25Z</time>
      </trkpt>
      <trkpt lat="46.23904" lon="6.77537">
        <ele>1661.3</ele>
        <time>2020-02-07T13:50:39Z</time>
      </trkpt>
      <trkpt lat="46.23905" lon="6.77537">
        <ele>1661.3</ele>
        <time>2020-02-07T13:52:00Z</time>
      </trkpt>
      <trkpt lat="46.23904" lon="6.77537">
        <ele>1660.81</ele>
        <time>2020-02-07T13:53:14Z</time>
      </trkpt>
      <trkpt lat="46.23904" lon="6.77537">
        <ele>1661.3</ele>
        <time>2020-02-07T13:53:53Z</time>
      </trkpt>
      <trkpt lat="46.23904" lon="6.77536">
        <ele>1660.81</ele>
        <time>2020-02-07T13:55:25Z</time>
      </trkpt>
      <trkpt lat="46.239" lon="6.77528">
        <ele>1659.85</ele>
        <time>2020-02-07T13:56:18Z</time>
      </trkpt>
      <trkpt lat="46.23894" lon="6.77517">
        <ele>1657.93</ele>
        <time>2020-02-07T13:56:31Z</time>
      </trkpt>
      <trkpt lat="46.23888" lon="6.77506">
        <ele>1654.57</ele>
        <time>2020-02-07T13:56:43Z</time>
      </trkpt>
      <trkpt lat="46.23879" lon="6.77495">
        <ele>1651.68</ele>
        <time>2020-02-07T13:56:57Z</time>
      </trkpt>
      <trkpt lat="46.23874" lon="6.77491">
        <ele>1650.24</ele>
        <time>2020-02-07T13:57:05Z</time>
      </trkpt>
      <trkpt lat="46.23871" lon="6.77488">
        <ele>1649.76</ele>
        <time>2020-02-07T13:57:08Z</time>
      </trkpt>
      <trkpt lat="46.23869" lon="6.77484">
        <ele>1649.76</ele>
        <time>2020-02-07T13:57:12Z</time>
      </trkpt>
      <trkpt lat="46.23859" lon="6.77477">
        <ele>1647.36</ele>
        <time>2020-02-07T13:57:23Z</time>
      </trkpt>
      <trkpt lat="46.2385" lon="6.77471">
        <ele>1644.95</ele>
        <time>2020-02-07T13:57:34Z</time>
      </trkpt>
      <trkpt lat="46.23841" lon="6.77467">
        <ele>1642.07</ele>
        <time>2020-02-07T13:57:47Z</time>
      </trkpt>
      <trkpt lat="46.23838" lon="6.77465">
        <ele>1641.59</ele>
        <time>2020-02-07T13:57:51Z</time>
      </trkpt>
      <trkpt lat="46.23831" lon="6.77462">
        <ele>1639.67</ele>
        <time>2020-02-07T13:57:58Z</time>
      </trkpt>
      <trkpt lat="46.23823" lon="6.77463">
        <ele>1637.74</ele>
        <time>2020-02-07T13:58:07Z</time>
      </trkpt>
      <trkpt lat="46.23808" lon="6.77462">
        <ele>1635.82</ele>
        <time>2020-02-07T13:58:20Z</time>
      </trkpt>
      <trkpt lat="46.23802" lon="6.77459">
        <ele>1635.34</ele>
        <time>2020-02-07T13:58:26Z</time>
      </trkpt>
      <trkpt lat="46.23798" lon="6.77457">
        <ele>1634.38</ele>
        <time>2020-02-07T13:58:30Z</time>
      </trkpt>
      <trkpt lat="46.23792" lon="6.77455">
        <ele>1633.42</ele>
        <time>2020-02-07T13:58:35Z</time>
      </trkpt>
      <trkpt lat="46.23788" lon="6.77452">
        <ele>1632.94</ele>
        <time>2020-02-07T13:58:39Z</time>
      </trkpt>
      <trkpt lat="46.23777" lon="6.77442">
        <ele>1631.98</ele>
        <time>2020-02-07T13:58:50Z</time>
      </trkpt>
      <trkpt lat="46.23769" lon="6.77433">
        <ele>1631.49</ele>
        <time>2020-02-07T13:58:58Z</time>
      </trkpt>
      <trkpt lat="46.23765" lon="6.77423">
        <ele>1630.05</ele>
        <time>2020-02-07T13:59:05Z</time>
      </trkpt>
      <trkpt lat="46.23763" lon="6.77422">
        <ele>1629.57</ele>
        <time>2020-02-07T13:59:07Z</time>
      </trkpt>
      <trkpt lat="46.2376" lon="6.77419">
        <ele>1629.09</ele>
        <time>2020-02-07T13:59:10Z</time>
      </trkpt>
      <trkpt lat="46.23745" lon="6.77406">
        <ele>1627.65</ele>
        <time>2020-02-07T13:59:24Z</time>
      </trkpt>
      <trkpt lat="46.23735" lon="6.77394">
        <ele>1625.73</ele>
        <time>2020-02-07T13:59:36Z</time>
      </trkpt>
      <trkpt lat="46.2373" lon="6.77388">
        <ele>1625.25</ele>
        <time>2020-02-07T13:59:41Z</time>
      </trkpt>
      <trkpt lat="46.23723" lon="6.77375">
        <ele>1624.28</ele>
        <time>2020-02-07T13:59:51Z</time>
      </trkpt>
      <trkpt lat="46.23717" lon="6.77362">
        <ele>1622.36</ele>
        <time>2020-02-07T14:00:05Z</time>
      </trkpt>
      <trkpt lat="46.23716" lon="6.77361">
        <ele>1622.36</ele>
        <time>2020-02-07T14:00:27Z</time>
      </trkpt>
      <trkpt lat="46.23715" lon="6.77359">
        <ele>1621.4</ele>
        <time>2020-02-07T14:00:42Z</time>
      </trkpt>
      <trkpt lat="46.23709" lon="6.77346">
        <ele>1620.44</ele>
        <time>2020-02-07T14:01:00Z</time>
      </trkpt>
      <trkpt lat="46.23707" lon="6.77343">
        <ele>1619.96</ele>
        <time>2020-02-07T14:01:03Z</time>
      </trkpt>
      <trkpt lat="46.23701" lon="6.77326">
        <ele>1618.04</ele>
        <time>2020-02-07T14:01:17Z</time>
      </trkpt>
      <trkpt lat="46.23699" lon="6.77309">
        <ele>1618.04</ele>
        <time>2020-02-07T14:01:30Z</time>
      </trkpt>
      <trkpt lat="46.23699" lon="6.77305">
        <ele>1618.04</ele>
        <time>2020-02-07T14:01:34Z</time>
      </trkpt>
      <trkpt lat="46.23701" lon="6.77299">
        <ele>1618.04</ele>
        <time>2020-02-07T14:01:39Z</time>
      </trkpt>
      <trkpt lat="46.23707" lon="6.77285">
        <ele>1619</ele>
        <time>2020-02-07T14:01:52Z</time>
      </trkpt>
      <trkpt lat="46.23715" lon="6.77276">
        <ele>1618.52</ele>
        <time>2020-02-07T14:02:03Z</time>
      </trkpt>
      <trkpt lat="46.23718" lon="6.77269">
        <ele>1618.04</ele>
        <time>2020-02-07T14:02:10Z</time>
      </trkpt>
      <trkpt lat="46.23721" lon="6.77259">
        <ele>1617.56</ele>
        <time>2020-02-07T14:02:18Z</time>
      </trkpt>
      <trkpt lat="46.23723" lon="6.77237">
        <ele>1616.11</ele>
        <time>2020-02-07T14:02:32Z</time>
      </trkpt>
      <trkpt lat="46.23723" lon="6.77216">
        <ele>1615.15</ele>
        <time>2020-02-07T14:02:46Z</time>
      </trkpt>
      <trkpt lat="46.23723" lon="6.77213">
        <ele>1614.19</ele>
        <time>2020-02-07T14:03:03Z</time>
      </trkpt>
      <trkpt lat="46.23723" lon="6.77213">
        <ele>1613.23</ele>
        <time>2020-02-07T14:03:44Z</time>
      </trkpt>
      <trkpt lat="46.23723" lon="6.77213">
        <ele>1614.67</ele>
        <time>2020-02-07T14:04:16Z</time>
      </trkpt>
      <trkpt lat="46.23723" lon="6.77211">
        <ele>1612.27</ele>
        <time>2020-02-07T14:05:22Z</time>
      </trkpt>
      <trkpt lat="46.23723" lon="6.77209">
        <ele>1612.75</ele>
        <time>2020-02-07T14:05:36Z</time>
      </trkpt>
      <trkpt lat="46.23723" lon="6.77208">
        <ele>1613.23</ele>
        <time>2020-02-07T14:06:22Z</time>
      </trkpt>
      <trkpt lat="46.23722" lon="6.772">
        <ele>1611.79</ele>
        <time>2020-02-07T14:06:41Z</time>
      </trkpt>
      <trkpt lat="46.23716" lon="6.77188">
        <ele>1611.79</ele>
        <time>2020-02-07T14:06:53Z</time>
      </trkpt>
      <trkpt lat="46.23711" lon="6.77174">
        <ele>1609.38</ele>
        <time>2020-02-07T14:07:06Z</time>
      </trkpt>
      <trkpt lat="46.23708" lon="6.7717">
        <ele>1608.9</ele>
        <time>2020-02-07T14:07:11Z</time>
      </trkpt>
      <trkpt lat="46.23701" lon="6.77156">
        <ele>1606.02</ele>
        <time>2020-02-07T14:07:26Z</time>
      </trkpt>
      <trkpt lat="46.23696" lon="6.77151">
        <ele>1604.58</ele>
        <time>2020-02-07T14:07:32Z</time>
      </trkpt>
      <trkpt lat="46.23691" lon="6.77145">
        <ele>1603.62</ele>
        <time>2020-02-07T14:07:38Z</time>
      </trkpt>
      <trkpt lat="46.23687" lon="6.77141">
        <ele>1603.62</ele>
        <time>2020-02-07T14:07:43Z</time>
      </trkpt>
      <trkpt lat="46.23678" lon="6.77132">
        <ele>1600.25</ele>
        <time>2020-02-07T14:07:56Z</time>
      </trkpt>
      <trkpt lat="46.23666" lon="6.77121">
        <ele>1597.37</ele>
        <time>2020-02-07T14:08:11Z</time>
      </trkpt>
      <trkpt lat="46.23665" lon="6.7712">
        <ele>1597.37</ele>
        <time>2020-02-07T14:08:12Z</time>
      </trkpt>
      <trkpt lat="46.23657" lon="6.77112">
        <ele>1595.45</ele>
        <time>2020-02-07T14:08:23Z</time>
      </trkpt>
      <trkpt lat="46.23651" lon="6.77106">
        <ele>1594</ele>
        <time>2020-02-07T14:08:30Z</time>
      </trkpt>
      <trkpt lat="46.23638" lon="6.77097">
        <ele>1593.04</ele>
        <time>2020-02-07T14:08:43Z</time>
      </trkpt>
      <trkpt lat="46.23637" lon="6.77096">
        <ele>1592.08</ele>
        <time>2020-02-07T14:08:45Z</time>
      </trkpt>
      <trkpt lat="46.23625" lon="6.77088">
        <ele>1589.68</ele>
        <time>2020-02-07T14:08:58Z</time>
      </trkpt>
      <trkpt lat="46.23624" lon="6.77088">
        <ele>1590.16</ele>
        <time>2020-02-07T14:08:59Z</time>
      </trkpt>
      <trkpt lat="46.23621" lon="6.77085">
        <ele>1589.68</ele>
        <time>2020-02-07T14:09:03Z</time>
      </trkpt>
      <trkpt lat="46.23617" lon="6.77082">
        <ele>1588.24</ele>
        <time>2020-02-07T14:09:08Z</time>
      </trkpt>
      <trkpt lat="46.23612" lon="6.77078">
        <ele>1588.24</ele>
        <time>2020-02-07T14:09:12Z</time>
      </trkpt>
      <trkpt lat="46.23601" lon="6.77071">
        <ele>1586.79</ele>
        <time>2020-02-07T14:09:23Z</time>
      </trkpt>
      <trkpt lat="46.236" lon="6.77069">
        <ele>1586.79</ele>
        <time>2020-02-07T14:09:25Z</time>
      </trkpt>
      <trkpt lat="46.23597" lon="6.77067">
        <ele>1585.83</ele>
        <time>2020-02-07T14:09:28Z</time>
      </trkpt>
      <trkpt lat="46.23582" lon="6.77053">
        <ele>1585.35</ele>
        <time>2020-02-07T14:09:42Z</time>
      </trkpt>
      <trkpt lat="46.23579" lon="6.77051">
        <ele>1584.39</ele>
        <time>2020-02-07T14:09:45Z</time>
      </trkpt>
      <trkpt lat="46.23576" lon="6.77049">
        <ele>1584.39</ele>
        <time>2020-02-07T14:09:48Z</time>
      </trkpt>
      <trkpt lat="46.23573" lon="6.77048">
        <ele>1583.43</ele>
        <time>2020-02-07T14:09:52Z</time>
      </trkpt>
      <trkpt lat="46.23563" lon="6.77044">
        <ele>1581.99</ele>
        <time>2020-02-07T14:10:01Z</time>
      </trkpt>
      <trkpt lat="46.23562" lon="6.77043">
        <ele>1582.47</ele>
        <time>2020-02-07T14:10:02Z</time>
      </trkpt>
      <trkpt lat="46.23555" lon="6.77042">
        <ele>1581.99</ele>
        <time>2020-02-07T14:10:08Z</time>
      </trkpt>
      <trkpt lat="46.23551" lon="6.77043">
        <ele>1581.99</ele>
        <time>2020-02-07T14:10:11Z</time>
      </trkpt>
      <trkpt lat="46.23542" lon="6.77041">
        <ele>1581.51</ele>
        <time>2020-02-07T14:10:20Z</time>
      </trkpt>
      <trkpt lat="46.23528" lon="6.77044">
        <ele>1580.54</ele>
        <time>2020-02-07T14:10:31Z</time>
      </trkpt>
      <trkpt lat="46.23517" lon="6.77046">
        <ele>1578.62</ele>
        <time>2020-02-07T14:10:44Z</time>
      </trkpt>
      <trkpt lat="46.23516" lon="6.77046">
        <ele>1578.62</ele>
        <time>2020-02-07T14:10:45Z</time>
      </trkpt>
      <trkpt lat="46.23507" lon="6.77049">
        <ele>1578.14</ele>
        <time>2020-02-07T14:10:54Z</time>
      </trkpt>
      <trkpt lat="46.23499" lon="6.77055">
        <ele>1577.66</ele>
        <time>2020-02-07T14:11:04Z</time>
      </trkpt>
      <trkpt lat="46.23496" lon="6.77058">
        <ele>1577.18</ele>
        <time>2020-02-07T14:11:07Z</time>
      </trkpt>
      <trkpt lat="46.23493" lon="6.77058">
        <ele>1576.7</ele>
        <time>2020-02-07T14:11:10Z</time>
      </trkpt>
      <trkpt lat="46.23486" lon="6.77063">
        <ele>1577.18</ele>
        <time>2020-02-07T14:11:18Z</time>
      </trkpt>
      <trkpt lat="46.23476" lon="6.77068">
        <ele>1576.22</ele>
        <time>2020-02-07T14:11:31Z</time>
      </trkpt>
      <trkpt lat="46.23474" lon="6.7707">
        <ele>1575.74</ele>
        <time>2020-02-07T14:11:43Z</time>
      </trkpt>
      <trkpt lat="46.23471" lon="6.77071">
        <ele>1575.74</ele>
        <time>2020-02-07T14:11:48Z</time>
      </trkpt>
      <trkpt lat="46.23464" lon="6.7707">
        <ele>1576.22</ele>
        <time>2020-02-07T14:11:55Z</time>
      </trkpt>
      <trkpt lat="46.23451" lon="6.77072">
        <ele>1574.3</ele>
        <time>2020-02-07T14:12:08Z</time>
      </trkpt>
      <trkpt lat="46.23442" lon="6.77073">
        <ele>1571.89</ele>
        <time>2020-02-07T14:12:19Z</time>
      </trkpt>
      <trkpt lat="46.23432" lon="6.77081">
        <ele>1570.45</ele>
        <time>2020-02-07T14:12:31Z</time>
      </trkpt>
      <trkpt lat="46.23432" lon="6.77083">
        <ele>1570.45</ele>
        <time>2020-02-07T14:12:43Z</time>
      </trkpt>
      <trkpt lat="46.23432" lon="6.77083">
        <ele>1570.93</ele>
        <time>2020-02-07T14:13:05Z</time>
      </trkpt>
      <trkpt lat="46.23432" lon="6.77082">
        <ele>1569.97</ele>
        <time>2020-02-07T14:13:33Z</time>
      </trkpt>
      <trkpt lat="46.23432" lon="6.77082">
        <ele>1569.97</ele>
        <time>2020-02-07T14:13:56Z</time>
      </trkpt>
      <trkpt lat="46.23432" lon="6.77082">
        <ele>1569.49</ele>
        <time>2020-02-07T14:15:04Z</time>
      </trkpt>
      <trkpt lat="46.23431" lon="6.77075">
        <ele>1566.61</ele>
        <time>2020-02-07T14:15:13Z</time>
      </trkpt>
      <trkpt lat="46.23434" lon="6.77068">
        <ele>1563.72</ele>
        <time>2020-02-07T14:15:22Z</time>
      </trkpt>
      <trkpt lat="46.2343" lon="6.77058">
        <ele>1560.36</ele>
        <time>2020-02-07T14:15:34Z</time>
      </trkpt>
      <trkpt lat="46.23427" lon="6.77056">
        <ele>1558.43</ele>
        <time>2020-02-07T14:15:46Z</time>
      </trkpt>
      <trkpt lat="46.23423" lon="6.7705">
        <ele>1556.51</ele>
        <time>2020-02-07T14:16:00Z</time>
      </trkpt>
      <trkpt lat="46.2342" lon="6.77047">
        <ele>1554.11</ele>
        <time>2020-02-07T14:16:04Z</time>
      </trkpt>
      <trkpt lat="46.2342" lon="6.77046">
        <ele>1553.63</ele>
        <time>2020-02-07T14:16:06Z</time>
      </trkpt>
      <trkpt lat="46.23417" lon="6.77038">
        <ele>1551.22</ele>
        <time>2020-02-07T14:16:19Z</time>
      </trkpt>
      <trkpt lat="46.23416" lon="6.77034">
        <ele>1549.78</ele>
        <time>2020-02-07T14:16:31Z</time>
      </trkpt>
      <trkpt lat="46.23415" lon="6.77027">
        <ele>1548.82</ele>
        <time>2020-02-07T14:16:41Z</time>
      </trkpt>
      <trkpt lat="46.23413" lon="6.77013">
        <ele>1547.38</ele>
        <time>2020-02-07T14:16:51Z</time>
      </trkpt>
      <trkpt lat="46.23408" lon="6.77007">
        <ele>1546.42</ele>
        <time>2020-02-07T14:16:58Z</time>
      </trkpt>
      <trkpt lat="46.23407" lon="6.77006">
        <ele>1545.94</ele>
        <time>2020-02-07T14:17:00Z</time>
      </trkpt>
      <trkpt lat="46.23397" lon="6.76991">
        <ele>1544.01</ele>
        <time>2020-02-07T14:17:13Z</time>
      </trkpt>
      <trkpt lat="46.2339" lon="6.76972">
        <ele>1543.53</ele>
        <time>2020-02-07T14:17:24Z</time>
      </trkpt>
      <trkpt lat="46.2339" lon="6.7697">
        <ele>1544.01</ele>
        <time>2020-02-07T14:17:25Z</time>
      </trkpt>
      <trkpt lat="46.23388" lon="6.76957">
        <ele>1543.05</ele>
        <time>2020-02-07T14:17:32Z</time>
      </trkpt>
      <trkpt lat="46.23388" lon="6.76949">
        <ele>1542.09</ele>
        <time>2020-02-07T14:17:36Z</time>
      </trkpt>
      <trkpt lat="46.23386" lon="6.76933">
        <ele>1542.09</ele>
        <time>2020-02-07T14:17:46Z</time>
      </trkpt>
      <trkpt lat="46.23384" lon="6.76925">
        <ele>1541.13</ele>
        <time>2020-02-07T14:17:51Z</time>
      </trkpt>
      <trkpt lat="46.23383" lon="6.76915">
        <ele>1541.61</ele>
        <time>2020-02-07T14:17:56Z</time>
      </trkpt>
      <trkpt lat="46.23382" lon="6.76912">
        <ele>1540.65</ele>
        <time>2020-02-07T14:17:58Z</time>
      </trkpt>
      <trkpt lat="46.23382" lon="6.76907">
        <ele>1541.13</ele>
        <time>2020-02-07T14:18:01Z</time>
      </trkpt>
      <trkpt lat="46.2338" lon="6.76893">
        <ele>1539.21</ele>
        <time>2020-02-07T14:18:10Z</time>
      </trkpt>
      <trkpt lat="46.23377" lon="6.76885">
        <ele>1538.73</ele>
        <time>2020-02-07T14:18:17Z</time>
      </trkpt>
      <trkpt lat="46.23374" lon="6.7687">
        <ele>1538.25</ele>
        <time>2020-02-07T14:18:28Z</time>
      </trkpt>
      <trkpt lat="46.23373" lon="6.76864">
        <ele>1538.73</ele>
        <time>2020-02-07T14:18:32Z</time>
      </trkpt>
      <trkpt lat="46.23371" lon="6.76859">
        <ele>1538.25</ele>
        <time>2020-02-07T14:18:37Z</time>
      </trkpt>
      <trkpt lat="46.2337" lon="6.7685">
        <ele>1537.77</ele>
        <time>2020-02-07T14:18:44Z</time>
      </trkpt>
      <trkpt lat="46.23371" lon="6.76835">
        <ele>1536.8</ele>
        <time>2020-02-07T14:18:54Z</time>
      </trkpt>
      <trkpt lat="46.2337" lon="6.76832">
        <ele>1536.8</ele>
        <time>2020-02-07T14:19:18Z</time>
      </trkpt>
      <trkpt lat="46.2337" lon="6.76831">
        <ele>1536.8</ele>
        <time>2020-02-07T14:19:58Z</time>
      </trkpt>
      <trkpt lat="46.2337" lon="6.76829">
        <ele>1536.32</ele>
        <time>2020-02-07T14:20:48Z</time>
      </trkpt>
      <trkpt lat="46.23371" lon="6.76828">
        <ele>1534.88</ele>
        <time>2020-02-07T14:22:21Z</time>
      </trkpt>
      <trkpt lat="46.23371" lon="6.76828">
        <ele>1536.8</ele>
        <time>2020-02-07T14:23:11Z</time>
      </trkpt>
      <trkpt lat="46.2337" lon="6.76828">
        <ele>1535.36</ele>
        <time>2020-02-07T14:23:41Z</time>
      </trkpt>
      <trkpt lat="46.23371" lon="6.76829">
        <ele>1535.84</ele>
        <time>2020-02-07T14:24:19Z</time>
      </trkpt>
      <trkpt lat="46.2337" lon="6.76829">
        <ele>1535.84</ele>
        <time>2020-02-07T14:24:53Z</time>
      </trkpt>
      <trkpt lat="46.2337" lon="6.76829">
        <ele>1536.32</ele>
        <time>2020-02-07T14:25:27Z</time>
      </trkpt>
      <trkpt lat="46.23369" lon="6.76831">
        <ele>1535.84</ele>
        <time>2020-02-07T14:26:39Z</time>
      </trkpt>
      <trkpt lat="46.23368" lon="6.76834">
        <ele>1536.32</ele>
        <time>2020-02-07T14:26:50Z</time>
      </trkpt>
      <trkpt lat="46.2337" lon="6.7683">
        <ele>1535.84</ele>
        <time>2020-02-07T14:27:20Z</time>
      </trkpt>
      <trkpt lat="46.23371" lon="6.76829">
        <ele>1535.84</ele>
        <time>2020-02-07T14:27:37Z</time>
      </trkpt>
      <trkpt lat="46.23371" lon="6.76829">
        <ele>1535.36</ele>
        <time>2020-02-07T14:27:39Z</time>
      </trkpt>
      <trkpt lat="46.23371" lon="6.76822">
        <ele>1535.84</ele>
        <time>2020-02-07T14:28:33Z</time>
      </trkpt>
      <trkpt lat="46.2337" lon="6.7681">
        <ele>1534.88</ele>
        <time>2020-02-07T14:28:46Z</time>
      </trkpt>
      <trkpt lat="46.23367" lon="6.76806">
        <ele>1534.88</ele>
        <time>2020-02-07T14:29:01Z</time>
      </trkpt>
      <trkpt lat="46.23366" lon="6.76805">
        <ele>1535.36</ele>
        <time>2020-02-07T14:29:40Z</time>
      </trkpt>
      <trkpt lat="46.23357" lon="6.76797">
        <ele>1534.88</ele>
        <time>2020-02-07T14:29:58Z</time>
      </trkpt>
      <trkpt lat="46.23353" lon="6.76788">
        <ele>1533.92</ele>
        <time>2020-02-07T14:30:07Z</time>
      </trkpt>
      <trkpt lat="46.23347" lon="6.76784">
        <ele>1533.44</ele>
        <time>2020-02-07T14:30:12Z</time>
      </trkpt>
      <trkpt lat="46.23341" lon="6.76781">
        <ele>1533.44</ele>
        <time>2020-02-07T14:30:19Z</time>
      </trkpt>
      <trkpt lat="46.23334" lon="6.76775">
        <ele>1532.48</ele>
        <time>2020-02-07T14:30:27Z</time>
      </trkpt>
      <trkpt lat="46.23328" lon="6.76771">
        <ele>1532</ele>
        <time>2020-02-07T14:30:32Z</time>
      </trkpt>
      <trkpt lat="46.23322" lon="6.76759">
        <ele>1532</ele>
        <time>2020-02-07T14:30:41Z</time>
      </trkpt>
      <trkpt lat="46.23321" lon="6.76736">
        <ele>1532.48</ele>
        <time>2020-02-07T14:30:55Z</time>
      </trkpt>
      <trkpt lat="46.2332" lon="6.76735">
        <ele>1532.96</ele>
        <time>2020-02-07T14:30:56Z</time>
      </trkpt>
      <trkpt lat="46.23326" lon="6.76718">
        <ele>1532.48</ele>
        <time>2020-02-07T14:31:08Z</time>
      </trkpt>
      <trkpt lat="46.23341" lon="6.76701">
        <ele>1532.96</ele>
        <time>2020-02-07T14:31:24Z</time>
      </trkpt>
      <trkpt lat="46.23344" lon="6.76699">
        <ele>1533.92</ele>
        <time>2020-02-07T14:31:27Z</time>
      </trkpt>
      <trkpt lat="46.23354" lon="6.7669">
        <ele>1533.92</ele>
        <time>2020-02-07T14:31:40Z</time>
      </trkpt>
      <trkpt lat="46.23358" lon="6.76685">
        <ele>1534.4</ele>
        <time>2020-02-07T14:31:46Z</time>
      </trkpt>
      <trkpt lat="46.23359" lon="6.76683">
        <ele>1534.4</ele>
        <time>2020-02-07T14:31:48Z</time>
      </trkpt>
      <trkpt lat="46.23361" lon="6.76681">
        <ele>1534.4</ele>
        <time>2020-02-07T14:31:50Z</time>
      </trkpt>
      <trkpt lat="46.23369" lon="6.76669">
        <ele>1535.36</ele>
        <time>2020-02-07T14:32:04Z</time>
      </trkpt>
      <trkpt lat="46.2337" lon="6.76667">
        <ele>1535.84</ele>
        <time>2020-02-07T14:32:27Z</time>
      </trkpt>
      <trkpt lat="46.23375" lon="6.76656">
        <ele>1535.36</ele>
        <time>2020-02-07T14:32:52Z</time>
      </trkpt>
      <trkpt lat="46.23376" lon="6.7665">
        <ele>1535.84</ele>
        <time>2020-02-07T14:33:02Z</time>
      </trkpt>
      <trkpt lat="46.23381" lon="6.76647">
        <ele>1535.36</ele>
        <time>2020-02-07T14:33:12Z</time>
      </trkpt>
      <trkpt lat="46.23381" lon="6.76647">
        <ele>1534.4</ele>
        <time>2020-02-07T14:33:37Z</time>
      </trkpt>
      <trkpt lat="46.23382" lon="6.76645">
        <ele>1536.32</ele>
        <time>2020-02-07T14:34:41Z</time>
      </trkpt>
      <trkpt lat="46.23382" lon="6.76646">
        <ele>1535.36</ele>
        <time>2020-02-07T14:34:57Z</time>
      </trkpt>
      <trkpt lat="46.23384" lon="6.76647">
        <ele>1535.84</ele>
        <time>2020-02-07T14:35:58Z</time>
      </trkpt>
      <trkpt lat="46.23384" lon="6.76647">
        <ele>1535.84</ele>
        <time>2020-02-07T14:37:03Z</time>
      </trkpt>
      <trkpt lat="46.23383" lon="6.76643">
        <ele>1534.88</ele>
        <time>2020-02-07T14:37:44Z</time>
      </trkpt>
      <trkpt lat="46.23388" lon="6.76633">
        <ele>1534.88</ele>
        <time>2020-02-07T14:37:59Z</time>
      </trkpt>
      <trkpt lat="46.23391" lon="6.76626">
        <ele>1533.92</ele>
        <time>2020-02-07T14:38:05Z</time>
      </trkpt>
      <trkpt lat="46.23402" lon="6.76612">
        <ele>1532.48</ele>
        <time>2020-02-07T14:38:20Z</time>
      </trkpt>
      <trkpt lat="46.23406" lon="6.76608">
        <ele>1532</ele>
        <time>2020-02-07T14:38:25Z</time>
      </trkpt>
      <trkpt lat="46.23419" lon="6.76594">
        <ele>1530.08</ele>
        <time>2020-02-07T14:38:40Z</time>
      </trkpt>
      <trkpt lat="46.2343" lon="6.76584">
        <ele>1529.11</ele>
        <time>2020-02-07T14:38:53Z</time>
      </trkpt>
      <trkpt lat="46.23434" lon="6.76581">
        <ele>1528.63</ele>
        <time>2020-02-07T14:38:57Z</time>
      </trkpt>
      <trkpt lat="46.23438" lon="6.76576">
        <ele>1528.15</ele>
        <time>2020-02-07T14:39:03Z</time>
      </trkpt>
      <trkpt lat="46.2344" lon="6.76574">
        <ele>1528.15</ele>
        <time>2020-02-07T14:39:06Z</time>
      </trkpt>
      <trkpt lat="46.23445" lon="6.76569">
        <ele>1527.19</ele>
        <time>2020-02-07T14:39:12Z</time>
      </trkpt>
      <trkpt lat="46.23447" lon="6.76564">
        <ele>1527.19</ele>
        <time>2020-02-07T14:39:16Z</time>
      </trkpt>
      <trkpt lat="46.23458" lon="6.7655">
        <ele>1525.75</ele>
        <time>2020-02-07T14:39:29Z</time>
      </trkpt>
      <trkpt lat="46.23469" lon="6.76533">
        <ele>1523.35</ele>
        <time>2020-02-07T14:39:44Z</time>
      </trkpt>
      <trkpt lat="46.23473" lon="6.76525">
        <ele>1522.87</ele>
        <time>2020-02-07T14:39:50Z</time>
      </trkpt>
      <trkpt lat="46.23474" lon="6.7652">
        <ele>1522.39</ele>
        <time>2020-02-07T14:39:53Z</time>
      </trkpt>
      <trkpt lat="46.23476" lon="6.76518">
        <ele>1522.39</ele>
        <time>2020-02-07T14:39:55Z</time>
      </trkpt>
      <trkpt lat="46.23478" lon="6.7651">
        <ele>1521.42</ele>
        <time>2020-02-07T14:40:01Z</time>
      </trkpt>
      <trkpt lat="46.23479" lon="6.76507">
        <ele>1521.42</ele>
        <time>2020-02-07T14:40:04Z</time>
      </trkpt>
      <trkpt lat="46.23481" lon="6.76485">
        <ele>1519.98</ele>
        <time>2020-02-07T14:40:16Z</time>
      </trkpt>
      <trkpt lat="46.23482" lon="6.76476">
        <ele>1518.06</ele>
        <time>2020-02-07T14:40:22Z</time>
      </trkpt>
      <trkpt lat="46.2348" lon="6.76454">
        <ele>1517.1</ele>
        <time>2020-02-07T14:40:35Z</time>
      </trkpt>
      <trkpt lat="46.23481" lon="6.76449">
        <ele>1515.18</ele>
        <time>2020-02-07T14:40:38Z</time>
      </trkpt>
      <trkpt lat="46.23481" lon="6.76447">
        <ele>1515.66</ele>
        <time>2020-02-07T14:40:39Z</time>
      </trkpt>
      <trkpt lat="46.23487" lon="6.76439">
        <ele>1515.18</ele>
        <time>2020-02-07T14:40:47Z</time>
      </trkpt>
      <trkpt lat="46.23498" lon="6.76436">
        <ele>1513.73</ele>
        <time>2020-02-07T14:41:01Z</time>
      </trkpt>
      <trkpt lat="46.23508" lon="6.76436">
        <ele>1512.29</ele>
        <time>2020-02-07T14:41:11Z</time>
      </trkpt>
      <trkpt lat="46.23519" lon="6.76438">
        <ele>1510.37</ele>
        <time>2020-02-07T14:41:23Z</time>
      </trkpt>
      <trkpt lat="46.2352" lon="6.76439">
        <ele>1510.85</ele>
        <time>2020-02-07T14:41:24Z</time>
      </trkpt>
      <trkpt lat="46.23526" lon="6.76441">
        <ele>1509.89</ele>
        <time>2020-02-07T14:41:30Z</time>
      </trkpt>
      <trkpt lat="46.23539" lon="6.7644">
        <ele>1509.89</ele>
        <time>2020-02-07T14:41:38Z</time>
      </trkpt>
      <trkpt lat="46.23552" lon="6.76442">
        <ele>1509.41</ele>
        <time>2020-02-07T14:41:49Z</time>
      </trkpt>
      <trkpt lat="46.23562" lon="6.76441">
        <ele>1506.52</ele>
        <time>2020-02-07T14:41:59Z</time>
      </trkpt>
      <trkpt lat="46.23574" lon="6.76439">
        <ele>1505.56</ele>
        <time>2020-02-07T14:42:11Z</time>
      </trkpt>
      <trkpt lat="46.23576" lon="6.76438">
        <ele>1505.56</ele>
        <time>2020-02-07T14:42:13Z</time>
      </trkpt>
      <trkpt lat="46.23586" lon="6.76438">
        <ele>1504.6</ele>
        <time>2020-02-07T14:42:21Z</time>
      </trkpt>
      <trkpt lat="46.23585" lon="6.76453">
        <ele>1502.68</ele>
        <time>2020-02-07T14:42:33Z</time>
      </trkpt>
      <trkpt lat="46.23586" lon="6.76457">
        <ele>1501.24</ele>
        <time>2020-02-07T14:42:39Z</time>
      </trkpt>
      <trkpt lat="46.23594" lon="6.76462">
        <ele>1499.31</ele>
        <time>2020-02-07T14:42:48Z</time>
      </trkpt>
      <trkpt lat="46.23611" lon="6.76446">
        <ele>1497.39</ele>
        <time>2020-02-07T14:43:03Z</time>
      </trkpt>
      <trkpt lat="46.23615" lon="6.76439">
        <ele>1496.43</ele>
        <time>2020-02-07T14:43:09Z</time>
      </trkpt>
      <trkpt lat="46.2362" lon="6.76433">
        <ele>1495.47</ele>
        <time>2020-02-07T14:43:15Z</time>
      </trkpt>
      <trkpt lat="46.2362" lon="6.76428">
        <ele>1495.47</ele>
        <time>2020-02-07T14:43:18Z</time>
      </trkpt>
      <trkpt lat="46.23624" lon="6.76407">
        <ele>1493.06</ele>
        <time>2020-02-07T14:43:31Z</time>
      </trkpt>
      <trkpt lat="46.23632" lon="6.76392">
        <ele>1492.1</ele>
        <time>2020-02-07T14:43:43Z</time>
      </trkpt>
      <trkpt lat="46.2364" lon="6.76377">
        <ele>1492.1</ele>
        <time>2020-02-07T14:43:54Z</time>
      </trkpt>
      <trkpt lat="46.23641" lon="6.76376">
        <ele>1490.66</ele>
        <time>2020-02-07T14:43:55Z</time>
      </trkpt>
      <trkpt lat="46.2364" lon="6.76365">
        <ele>1490.18</ele>
        <time>2020-02-07T14:44:00Z</time>
      </trkpt>
      <trkpt lat="46.2364" lon="6.76355">
        <ele>1489.7</ele>
        <time>2020-02-07T14:44:14Z</time>
      </trkpt>
      <trkpt lat="46.23643" lon="6.76344">
        <ele>1488.74</ele>
        <time>2020-02-07T14:44:28Z</time>
      </trkpt>
      <trkpt lat="46.23649" lon="6.76331">
        <ele>1488.26</ele>
        <time>2020-02-07T14:44:41Z</time>
      </trkpt>
      <trkpt lat="46.23654" lon="6.76316">
        <ele>1486.82</ele>
        <time>2020-02-07T14:44:53Z</time>
      </trkpt>
      <trkpt lat="46.23659" lon="6.76302">
        <ele>1487.3</ele>
        <time>2020-02-07T14:45:05Z</time>
      </trkpt>
      <trkpt lat="46.2366" lon="6.76282">
        <ele>1485.37</ele>
        <time>2020-02-07T14:45:18Z</time>
      </trkpt>
      <trkpt lat="46.23661" lon="6.76278">
        <ele>1485.85</ele>
        <time>2020-02-07T14:45:21Z</time>
      </trkpt>
      <trkpt lat="46.23669" lon="6.76265">
        <ele>1483.93</ele>
        <time>2020-02-07T14:45:34Z</time>
      </trkpt>
      <trkpt lat="46.23673" lon="6.76255">
        <ele>1483.93</ele>
        <time>2020-02-07T14:45:43Z</time>
      </trkpt>
      <trkpt lat="46.23676" lon="6.76242">
        <ele>1482.49</ele>
        <time>2020-02-07T14:45:52Z</time>
      </trkpt>
      <trkpt lat="46.23677" lon="6.76241">
        <ele>1482.49</ele>
        <time>2020-02-07T14:46:06Z</time>
      </trkpt>
      <trkpt lat="46.23676" lon="6.76234">
        <ele>1483.45</ele>
        <time>2020-02-07T14:46:56Z</time>
      </trkpt>
      <trkpt lat="46.23679" lon="6.76233">
        <ele>1482.97</ele>
        <time>2020-02-07T14:47:00Z</time>
      </trkpt>
      <trkpt lat="46.23681" lon="6.76233">
        <ele>1482.97</ele>
        <time>2020-02-07T14:47:04Z</time>
      </trkpt>
      <trkpt lat="46.23682" lon="6.76231">
        <ele>1482.01</ele>
        <time>2020-02-07T14:47:06Z</time>
      </trkpt>
      <trkpt lat="46.23693" lon="6.76224">
        <ele>1480.57</ele>
        <time>2020-02-07T14:47:19Z</time>
      </trkpt>
      <trkpt lat="46.23699" lon="6.7622">
        <ele>1479.61</ele>
        <time>2020-02-07T14:47:29Z</time>
      </trkpt>
      <trkpt lat="46.23706" lon="6.76213">
        <ele>1478.16</ele>
        <time>2020-02-07T14:47:40Z</time>
      </trkpt>
      <trkpt lat="46.23717" lon="6.76203">
        <ele>1476.72</ele>
        <time>2020-02-07T14:47:51Z</time>
      </trkpt>
      <trkpt lat="46.23724" lon="6.76197">
        <ele>1474.8</ele>
        <time>2020-02-07T14:48:02Z</time>
      </trkpt>
      <trkpt lat="46.23728" lon="6.76194">
        <ele>1474.8</ele>
        <time>2020-02-07T14:48:08Z</time>
      </trkpt>
      <trkpt lat="46.23732" lon="6.76191">
        <ele>1473.36</ele>
        <time>2020-02-07T14:48:14Z</time>
      </trkpt>
      <trkpt lat="46.23738" lon="6.76184">
        <ele>1473.36</ele>
        <time>2020-02-07T14:48:23Z</time>
      </trkpt>
      <trkpt lat="46.2375" lon="6.76182">
        <ele>1472.4</ele>
        <time>2020-02-07T14:48:33Z</time>
      </trkpt>
      <trkpt lat="46.23758" lon="6.76181">
        <ele>1471.44</ele>
        <time>2020-02-07T14:48:39Z</time>
      </trkpt>
      <trkpt lat="46.23762" lon="6.76181">
        <ele>1470.95</ele>
        <time>2020-02-07T14:48:44Z</time>
      </trkpt>
      <trkpt lat="46.23766" lon="6.76182">
        <ele>1469.99</ele>
        <time>2020-02-07T14:48:48Z</time>
      </trkpt>
      <trkpt lat="46.23783" lon="6.76188">
        <ele>1469.03</ele>
        <time>2020-02-07T14:49:01Z</time>
      </trkpt>
      <trkpt lat="46.23796" lon="6.76197">
        <ele>1467.59</ele>
        <time>2020-02-07T14:49:13Z</time>
      </trkpt>
      <trkpt lat="46.238" lon="6.76202">
        <ele>1467.11</ele>
        <time>2020-02-07T14:49:20Z</time>
      </trkpt>
      <trkpt lat="46.23807" lon="6.76209">
        <ele>1466.15</ele>
        <time>2020-02-07T14:49:28Z</time>
      </trkpt>
      <trkpt lat="46.23817" lon="6.76216">
        <ele>1464.71</ele>
        <time>2020-02-07T14:49:39Z</time>
      </trkpt>
      <trkpt lat="46.23832" lon="6.76222">
        <ele>1463.26</ele>
        <time>2020-02-07T14:49:52Z</time>
      </trkpt>
      <trkpt lat="46.23832" lon="6.76222">
        <ele>1462.78</ele>
        <time>2020-02-07T14:49:53Z</time>
      </trkpt>
      <trkpt lat="46.23837" lon="6.76225">
        <ele>1462.78</ele>
        <time>2020-02-07T14:49:57Z</time>
      </trkpt>
      <trkpt lat="46.23851" lon="6.7623">
        <ele>1461.34</ele>
        <time>2020-02-07T14:50:09Z</time>
      </trkpt>
      <trkpt lat="46.23863" lon="6.76238">
        <ele>1460.38</ele>
        <time>2020-02-07T14:50:20Z</time>
      </trkpt>
      <trkpt lat="46.23866" lon="6.76243">
        <ele>1459.9</ele>
        <time>2020-02-07T14:50:26Z</time>
      </trkpt>
      <trkpt lat="46.2387" lon="6.76246">
        <ele>1459.9</ele>
        <time>2020-02-07T14:50:31Z</time>
      </trkpt>
      <trkpt lat="46.23878" lon="6.76248">
        <ele>1458.46</ele>
        <time>2020-02-07T14:50:39Z</time>
      </trkpt>
      <trkpt lat="46.23891" lon="6.76255">
        <ele>1457.5</ele>
        <time>2020-02-07T14:50:53Z</time>
      </trkpt>
      <trkpt lat="46.23901" lon="6.76256">
        <ele>1456.53</ele>
        <time>2020-02-07T14:51:03Z</time>
      </trkpt>
      <trkpt lat="46.23907" lon="6.76259">
        <ele>1455.57</ele>
        <time>2020-02-07T14:51:11Z</time>
      </trkpt>
      <trkpt lat="46.23918" lon="6.76265">
        <ele>1455.09</ele>
        <time>2020-02-07T14:51:21Z</time>
      </trkpt>
      <trkpt lat="46.23927" lon="6.76267">
        <ele>1454.13</ele>
        <time>2020-02-07T14:51:28Z</time>
      </trkpt>
      <trkpt lat="46.23931" lon="6.76273">
        <ele>1453.65</ele>
        <time>2020-02-07T14:51:33Z</time>
      </trkpt>
      <trkpt lat="46.23934" lon="6.76273">
        <ele>1453.17</ele>
        <time>2020-02-07T14:51:35Z</time>
      </trkpt>
      <trkpt lat="46.23943" lon="6.76278">
        <ele>1452.69</ele>
        <time>2020-02-07T14:51:42Z</time>
      </trkpt>
      <trkpt lat="46.23952" lon="6.76286">
        <ele>1451.25</ele>
        <time>2020-02-07T14:51:54Z</time>
      </trkpt>
      <trkpt lat="46.23961" lon="6.76292">
        <ele>1450.29</ele>
        <time>2020-02-07T14:52:05Z</time>
      </trkpt>
      <trkpt lat="46.23966" lon="6.76295">
        <ele>1449.81</ele>
        <time>2020-02-07T14:52:10Z</time>
      </trkpt>
      <trkpt lat="46.23974" lon="6.76301">
        <ele>1448.84</ele>
        <time>2020-02-07T14:52:18Z</time>
      </trkpt>
      <trkpt lat="46.23977" lon="6.76305">
        <ele>1448.36</ele>
        <time>2020-02-07T14:52:25Z</time>
      </trkpt>
      <trkpt lat="46.23993" lon="6.76302">
        <ele>1446.92</ele>
        <time>2020-02-07T14:52:39Z</time>
      </trkpt>
      <trkpt lat="46.24002" lon="6.76286">
        <ele>1445.48</ele>
        <time>2020-02-07T14:52:51Z</time>
      </trkpt>
      <trkpt lat="46.24014" lon="6.76276">
        <ele>1443.56</ele>
        <time>2020-02-07T14:53:02Z</time>
      </trkpt>
      <trkpt lat="46.24016" lon="6.76275">
        <ele>1443.08</ele>
        <time>2020-02-07T14:53:05Z</time>
      </trkpt>
      <trkpt lat="46.24026" lon="6.76267">
        <ele>1441.63</ele>
        <time>2020-02-07T14:53:17Z</time>
      </trkpt>
      <trkpt lat="46.24031" lon="6.76265">
        <ele>1441.63</ele>
        <time>2020-02-07T14:53:21Z</time>
      </trkpt>
      <trkpt lat="46.2404" lon="6.76263">
        <ele>1440.67</ele>
        <time>2020-02-07T14:53:34Z</time>
      </trkpt>
      <trkpt lat="46.24046" lon="6.76258">
        <ele>1440.67</ele>
        <time>2020-02-07T14:53:46Z</time>
      </trkpt>
      <trkpt lat="46.24054" lon="6.76258">
        <ele>1439.23</ele>
        <time>2020-02-07T14:53:59Z</time>
      </trkpt>
      <trkpt lat="46.24058" lon="6.76255">
        <ele>1437.31</ele>
        <time>2020-02-07T14:54:04Z</time>
      </trkpt>
      <trkpt lat="46.24064" lon="6.76253">
        <ele>1436.83</ele>
        <time>2020-02-07T14:54:11Z</time>
      </trkpt>
      <trkpt lat="46.24079" lon="6.7625">
        <ele>1435.39</ele>
        <time>2020-02-07T14:54:24Z</time>
      </trkpt>
      <trkpt lat="46.24085" lon="6.76254">
        <ele>1434.42</ele>
        <time>2020-02-07T14:54:29Z</time>
      </trkpt>
      <trkpt lat="46.2409" lon="6.76257">
        <ele>1433.94</ele>
        <time>2020-02-07T14:54:36Z</time>
      </trkpt>
      <trkpt lat="46.24095" lon="6.76257">
        <ele>1433.46</ele>
        <time>2020-02-07T14:54:41Z</time>
      </trkpt>
      <trkpt lat="46.24104" lon="6.76254">
        <ele>1432.5</ele>
        <time>2020-02-07T14:54:52Z</time>
      </trkpt>
      <trkpt lat="46.24112" lon="6.76243">
        <ele>1431.06</ele>
        <time>2020-02-07T14:55:05Z</time>
      </trkpt>
      <trkpt lat="46.24127" lon="6.76239">
        <ele>1430.1</ele>
        <time>2020-02-07T14:55:20Z</time>
      </trkpt>
      <trkpt lat="46.24136" lon="6.76237">
        <ele>1428.66</ele>
        <time>2020-02-07T14:55:31Z</time>
      </trkpt>
      <trkpt lat="46.2414" lon="6.76238">
        <ele>1428.66</ele>
        <time>2020-02-07T14:55:35Z</time>
      </trkpt>
      <trkpt lat="46.24148" lon="6.76236">
        <ele>1427.21</ele>
        <time>2020-02-07T14:55:48Z</time>
      </trkpt>
      <trkpt lat="46.24148" lon="6.76236">
        <ele>1427.21</ele>
        <time>2020-02-07T14:55:49Z</time>
      </trkpt>
      <trkpt lat="46.2416" lon="6.76232">
        <ele>1426.73</ele>
        <time>2020-02-07T14:56:01Z</time>
      </trkpt>
      <trkpt lat="46.24173" lon="6.76229">
        <ele>1424.33</ele>
        <time>2020-02-07T14:56:13Z</time>
      </trkpt>
      <trkpt lat="46.24185" lon="6.76231">
        <ele>1422.89</ele>
        <time>2020-02-07T14:56:24Z</time>
      </trkpt>
      <trkpt lat="46.24192" lon="6.76232">
        <ele>1421.93</ele>
        <time>2020-02-07T14:56:31Z</time>
      </trkpt>
      <trkpt lat="46.24195" lon="6.76237">
        <ele>1421.45</ele>
        <time>2020-02-07T14:56:35Z</time>
      </trkpt>
      <trkpt lat="46.242" lon="6.76242">
        <ele>1420.49</ele>
        <time>2020-02-07T14:56:39Z</time>
      </trkpt>
      <trkpt lat="46.24201" lon="6.76246">
        <ele>1420</ele>
        <time>2020-02-07T14:56:43Z</time>
      </trkpt>
      <trkpt lat="46.24202" lon="6.76253">
        <ele>1419.52</ele>
        <time>2020-02-07T14:56:47Z</time>
      </trkpt>
      <trkpt lat="46.24204" lon="6.76255">
        <ele>1419.52</ele>
        <time>2020-02-07T14:56:49Z</time>
      </trkpt>
      <trkpt lat="46.24202" lon="6.76264">
        <ele>1418.08</ele>
        <time>2020-02-07T14:56:55Z</time>
      </trkpt>
      <trkpt lat="46.242" lon="6.76272">
        <ele>1417.12</ele>
        <time>2020-02-07T14:57:03Z</time>
      </trkpt>
      <trkpt lat="46.24188" lon="6.76277">
        <ele>1415.2</ele>
        <time>2020-02-07T14:57:17Z</time>
      </trkpt>
      <trkpt lat="46.24175" lon="6.76283">
        <ele>1413.28</ele>
        <time>2020-02-07T14:57:30Z</time>
      </trkpt>
      <trkpt lat="46.24161" lon="6.76289">
        <ele>1411.35</ele>
        <time>2020-02-07T14:57:44Z</time>
      </trkpt>
      <trkpt lat="46.24148" lon="6.76295">
        <ele>1409.43</ele>
        <time>2020-02-07T14:57:58Z</time>
      </trkpt>
      <trkpt lat="46.24138" lon="6.76297">
        <ele>1408.47</ele>
        <time>2020-02-07T14:58:11Z</time>
      </trkpt>
      <trkpt lat="46.2412" lon="6.76297">
        <ele>1406.55</ele>
        <time>2020-02-07T14:58:24Z</time>
      </trkpt>
      <trkpt lat="46.24113" lon="6.76298">
        <ele>1405.58</ele>
        <time>2020-02-07T14:58:32Z</time>
      </trkpt>
      <trkpt lat="46.2411" lon="6.76305">
        <ele>1405.1</ele>
        <time>2020-02-07T14:58:36Z</time>
      </trkpt>
      <trkpt lat="46.24109" lon="6.76309">
        <ele>1405.1</ele>
        <time>2020-02-07T14:58:39Z</time>
      </trkpt>
      <trkpt lat="46.2412" lon="6.76318">
        <ele>1403.18</ele>
        <time>2020-02-07T14:58:52Z</time>
      </trkpt>
      <trkpt lat="46.24124" lon="6.76319">
        <ele>1402.22</ele>
        <time>2020-02-07T14:58:56Z</time>
      </trkpt>
      <trkpt lat="46.24137" lon="6.76323">
        <ele>1401.26</ele>
        <time>2020-02-07T14:59:10Z</time>
      </trkpt>
      <trkpt lat="46.24138" lon="6.76323">
        <ele>1401.74</ele>
        <time>2020-02-07T14:59:11Z</time>
      </trkpt>
      <trkpt lat="46.24149" lon="6.76323">
        <ele>1400.3</ele>
        <time>2020-02-07T14:59:24Z</time>
      </trkpt>
      <trkpt lat="46.24162" lon="6.76324">
        <ele>1398.86</ele>
        <time>2020-02-07T14:59:35Z</time>
      </trkpt>
      <trkpt lat="46.24162" lon="6.76324">
        <ele>1398.86</ele>
        <time>2020-02-07T14:59:36Z</time>
      </trkpt>
      <trkpt lat="46.24176" lon="6.7633">
        <ele>1397.41</ele>
        <time>2020-02-07T14:59:49Z</time>
      </trkpt>
      <trkpt lat="46.24182" lon="6.76336">
        <ele>1396.45</ele>
        <time>2020-02-07T14:59:55Z</time>
      </trkpt>
      <trkpt lat="46.24185" lon="6.76345">
        <ele>1394.05</ele>
        <time>2020-02-07T15:00:03Z</time>
      </trkpt>
      <trkpt lat="46.24182" lon="6.76352">
        <ele>1393.57</ele>
        <time>2020-02-07T15:00:11Z</time>
      </trkpt>
      <trkpt lat="46.24178" lon="6.76357">
        <ele>1392.61</ele>
        <time>2020-02-07T15:00:26Z</time>
      </trkpt>
      <trkpt lat="46.24168" lon="6.7636">
        <ele>1392.13</ele>
        <time>2020-02-07T15:00:36Z</time>
      </trkpt>
      <trkpt lat="46.24156" lon="6.76368">
        <ele>1388.76</ele>
        <time>2020-02-07T15:00:49Z</time>
      </trkpt>
      <trkpt lat="46.2414" lon="6.76374">
        <ele>1387.32</ele>
        <time>2020-02-07T15:01:03Z</time>
      </trkpt>
      <trkpt lat="46.24135" lon="6.76373">
        <ele>1387.32</ele>
        <time>2020-02-07T15:01:07Z</time>
      </trkpt>
      <trkpt lat="46.2413" lon="6.76374">
        <ele>1385.88</ele>
        <time>2020-02-07T15:01:11Z</time>
      </trkpt>
      <trkpt lat="46.24117" lon="6.76376">
        <ele>1384.92</ele>
        <time>2020-02-07T15:01:24Z</time>
      </trkpt>
      <trkpt lat="46.24103" lon="6.7638">
        <ele>1382.99</ele>
        <time>2020-02-07T15:01:36Z</time>
      </trkpt>
      <trkpt lat="46.24099" lon="6.76381">
        <ele>1382.51</ele>
        <time>2020-02-07T15:01:40Z</time>
      </trkpt>
      <trkpt lat="46.24097" lon="6.76383">
        <ele>1381.55</ele>
        <time>2020-02-07T15:01:42Z</time>
      </trkpt>
      <trkpt lat="46.24092" lon="6.7639">
        <ele>1381.07</ele>
        <time>2020-02-07T15:01:49Z</time>
      </trkpt>
      <trkpt lat="46.24096" lon="6.76402">
        <ele>1379.15</ele>
        <time>2020-02-07T15:01:59Z</time>
      </trkpt>
      <trkpt lat="46.24107" lon="6.76405">
        <ele>1377.71</ele>
        <time>2020-02-07T15:02:07Z</time>
      </trkpt>
      <trkpt lat="46.24121" lon="6.76412">
        <ele>1376.26</ele>
        <time>2020-02-07T15:02:19Z</time>
      </trkpt>
      <trkpt lat="46.24128" lon="6.76414">
        <ele>1374.82</ele>
        <time>2020-02-07T15:02:26Z</time>
      </trkpt>
      <trkpt lat="46.24141" lon="6.76421">
        <ele>1372.9</ele>
        <time>2020-02-07T15:02:39Z</time>
      </trkpt>
      <trkpt lat="46.24147" lon="6.76423">
        <ele>1373.38</ele>
        <time>2020-02-07T15:02:51Z</time>
      </trkpt>
      <trkpt lat="46.24153" lon="6.76428">
        <ele>1372.42</ele>
        <time>2020-02-07T15:03:05Z</time>
      </trkpt>
      <trkpt lat="46.24156" lon="6.76431">
        <ele>1372.42</ele>
        <time>2020-02-07T15:03:08Z</time>
      </trkpt>
      <trkpt lat="46.24159" lon="6.76432">
        <ele>1371.46</ele>
        <time>2020-02-07T15:03:10Z</time>
      </trkpt>
      <trkpt lat="46.24174" lon="6.76438">
        <ele>1370.02</ele>
        <time>2020-02-07T15:03:22Z</time>
      </trkpt>
      <trkpt lat="46.24184" lon="6.76445">
        <ele>1368.57</ele>
        <time>2020-02-07T15:03:32Z</time>
      </trkpt>
      <trkpt lat="46.24188" lon="6.76447">
        <ele>1368.09</ele>
        <time>2020-02-07T15:03:36Z</time>
      </trkpt>
      <trkpt lat="46.24201" lon="6.76456">
        <ele>1366.17</ele>
        <time>2020-02-07T15:03:49Z</time>
      </trkpt>
      <trkpt lat="46.24216" lon="6.76465">
        <ele>1364.73</ele>
        <time>2020-02-07T15:04:03Z</time>
      </trkpt>
      <trkpt lat="46.2423" lon="6.76473">
        <ele>1363.77</ele>
        <time>2020-02-07T15:04:16Z</time>
      </trkpt>
      <trkpt lat="46.24242" lon="6.76479">
        <ele>1361.84</ele>
        <time>2020-02-07T15:04:27Z</time>
      </trkpt>
      <trkpt lat="46.24252" lon="6.76482">
        <ele>1361.36</ele>
        <time>2020-02-07T15:04:35Z</time>
      </trkpt>
      <trkpt lat="46.24255" lon="6.76485">
        <ele>1360.4</ele>
        <time>2020-02-07T15:04:39Z</time>
      </trkpt>
      <trkpt lat="46.24272" lon="6.7649">
        <ele>1358.96</ele>
        <time>2020-02-07T15:04:54Z</time>
      </trkpt>
      <trkpt lat="46.24275" lon="6.76491">
        <ele>1358.48</ele>
        <time>2020-02-07T15:04:57Z</time>
      </trkpt>
      <trkpt lat="46.2428" lon="6.76493">
        <ele>1358</ele>
        <time>2020-02-07T15:05:01Z</time>
      </trkpt>
      <trkpt lat="46.24292" lon="6.76498">
        <ele>1357.04</ele>
        <time>2020-02-07T15:05:14Z</time>
      </trkpt>
      <trkpt lat="46.24301" lon="6.76502">
        <ele>1355.6</ele>
        <time>2020-02-07T15:05:27Z</time>
      </trkpt>
      <trkpt lat="46.24305" lon="6.76502">
        <ele>1355.12</ele>
        <time>2020-02-07T15:05:31Z</time>
      </trkpt>
      <trkpt lat="46.24318" lon="6.76503">
        <ele>1353.19</ele>
        <time>2020-02-07T15:05:45Z</time>
      </trkpt>
      <trkpt lat="46.24325" lon="6.76502">
        <ele>1353.19</ele>
        <time>2020-02-07T15:05:52Z</time>
      </trkpt>
      <trkpt lat="46.24336" lon="6.76498">
        <ele>1351.75</ele>
        <time>2020-02-07T15:06:04Z</time>
      </trkpt>
      <trkpt lat="46.24352" lon="6.76494">
        <ele>1350.31</ele>
        <time>2020-02-07T15:06:18Z</time>
      </trkpt>
      <trkpt lat="46.24362" lon="6.76493">
        <ele>1348.39</ele>
        <time>2020-02-07T15:06:31Z</time>
      </trkpt>
      <trkpt lat="46.24365" lon="6.76493">
        <ele>1347.91</ele>
        <time>2020-02-07T15:06:34Z</time>
      </trkpt>
      <trkpt lat="46.24384" lon="6.76493">
        <ele>1346.46</ele>
        <time>2020-02-07T15:06:48Z</time>
      </trkpt>
      <trkpt lat="46.24407" lon="6.7649">
        <ele>1345.02</ele>
        <time>2020-02-07T15:07:04Z</time>
      </trkpt>
      <trkpt lat="46.2442" lon="6.76487">
        <ele>1344.06</ele>
        <time>2020-02-07T15:07:13Z</time>
      </trkpt>
      <trkpt lat="46.24424" lon="6.76482">
        <ele>1343.1</ele>
        <time>2020-02-07T15:07:17Z</time>
      </trkpt>
      <trkpt lat="46.24429" lon="6.76479">
        <ele>1343.58</ele>
        <time>2020-02-07T15:07:22Z</time>
      </trkpt>
      <trkpt lat="46.24441" lon="6.76464">
        <ele>1342.62</ele>
        <time>2020-02-07T15:07:35Z</time>
      </trkpt>
      <trkpt lat="46.24447" lon="6.76451">
        <ele>1341.66</ele>
        <time>2020-02-07T15:07:46Z</time>
      </trkpt>
      <trkpt lat="46.24448" lon="6.76443">
        <ele>1341.66</ele>
        <time>2020-02-07T15:07:50Z</time>
      </trkpt>
      <trkpt lat="46.24449" lon="6.76438">
        <ele>1340.7</ele>
        <time>2020-02-07T15:07:54Z</time>
      </trkpt>
      <trkpt lat="46.24447" lon="6.76415">
        <ele>1339.73</ele>
        <time>2020-02-07T15:08:10Z</time>
      </trkpt>
      <trkpt lat="46.24443" lon="6.7641">
        <ele>1338.77</ele>
        <time>2020-02-07T15:08:17Z</time>
      </trkpt>
      <trkpt lat="46.2444" lon="6.76407">
        <ele>1339.25</ele>
        <time>2020-02-07T15:08:20Z</time>
      </trkpt>
      <trkpt lat="46.24434" lon="6.76399">
        <ele>1337.33</ele>
        <time>2020-02-07T15:08:28Z</time>
      </trkpt>
      <trkpt lat="46.24431" lon="6.76389">
        <ele>1336.85</ele>
        <time>2020-02-07T15:08:38Z</time>
      </trkpt>
      <trkpt lat="46.24423" lon="6.76381">
        <ele>1336.37</ele>
        <time>2020-02-07T15:08:48Z</time>
      </trkpt>
      <trkpt lat="46.24419" lon="6.76376">
        <ele>1335.41</ele>
        <time>2020-02-07T15:08:52Z</time>
      </trkpt>
      <trkpt lat="46.24415" lon="6.76368">
        <ele>1334.93</ele>
        <time>2020-02-07T15:08:56Z</time>
      </trkpt>
      <trkpt lat="46.24409" lon="6.76343">
        <ele>1333.01</ele>
        <time>2020-02-07T15:09:10Z</time>
      </trkpt>
      <trkpt lat="46.24409" lon="6.76334">
        <ele>1333.01</ele>
        <time>2020-02-07T15:09:17Z</time>
      </trkpt>
      <trkpt lat="46.24414" lon="6.76313">
        <ele>1332.04</ele>
        <time>2020-02-07T15:09:30Z</time>
      </trkpt>
      <trkpt lat="46.24421" lon="6.76298">
        <ele>1329.64</ele>
        <time>2020-02-07T15:09:40Z</time>
      </trkpt>
      <trkpt lat="46.24422" lon="6.76294">
        <ele>1330.12</ele>
        <time>2020-02-07T15:09:42Z</time>
      </trkpt>
      <trkpt lat="46.24427" lon="6.76274">
        <ele>1328.68</ele>
        <time>2020-02-07T15:09:55Z</time>
      </trkpt>
      <trkpt lat="46.24433" lon="6.76257">
        <ele>1325.8</ele>
        <time>2020-02-07T15:10:07Z</time>
      </trkpt>
      <trkpt lat="46.24433" lon="6.76255">
        <ele>1325.31</ele>
        <time>2020-02-07T15:10:08Z</time>
      </trkpt>
      <trkpt lat="46.24439" lon="6.76235">
        <ele>1323.39</ele>
        <time>2020-02-07T15:10:22Z</time>
      </trkpt>
      <trkpt lat="46.24444" lon="6.76227">
        <ele>1323.87</ele>
        <time>2020-02-07T15:10:28Z</time>
      </trkpt>
      <trkpt lat="46.24444" lon="6.76223">
        <ele>1322.91</ele>
        <time>2020-02-07T15:10:31Z</time>
      </trkpt>
      <trkpt lat="46.24454" lon="6.76198">
        <ele>1322.91</ele>
        <time>2020-02-07T15:10:48Z</time>
      </trkpt>
      <trkpt lat="46.24455" lon="6.76195">
        <ele>1322.43</ele>
        <time>2020-02-07T15:10:50Z</time>
      </trkpt>
      <trkpt lat="46.24461" lon="6.76182">
        <ele>1320.99</ele>
        <time>2020-02-07T15:10:59Z</time>
      </trkpt>
      <trkpt lat="46.24464" lon="6.76177">
        <ele>1320.99</ele>
        <time>2020-02-07T15:11:03Z</time>
      </trkpt>
      <trkpt lat="46.24466" lon="6.76175">
        <ele>1320.99</ele>
        <time>2020-02-07T15:11:05Z</time>
      </trkpt>
      <trkpt lat="46.24469" lon="6.76161">
        <ele>1320.03</ele>
        <time>2020-02-07T15:11:15Z</time>
      </trkpt>
      <trkpt lat="46.24471" lon="6.76154">
        <ele>1320.51</ele>
        <time>2020-02-07T15:11:21Z</time>
      </trkpt>
      <trkpt lat="46.24471" lon="6.76151">
        <ele>1319.55</ele>
        <time>2020-02-07T15:11:23Z</time>
      </trkpt>
      <trkpt lat="46.24472" lon="6.76137">
        <ele>1318.1</ele>
        <time>2020-02-07T15:11:33Z</time>
      </trkpt>
      <trkpt lat="46.2447" lon="6.76118">
        <ele>1316.66</ele>
        <time>2020-02-07T15:11:44Z</time>
      </trkpt>
      <trkpt lat="46.2447" lon="6.76114">
        <ele>1316.18</ele>
        <time>2020-02-07T15:11:46Z</time>
      </trkpt>
      <trkpt lat="46.2447" lon="6.76094">
        <ele>1315.22</ele>
        <time>2020-02-07T15:11:57Z</time>
      </trkpt>
      <trkpt lat="46.24469" lon="6.76083">
        <ele>1314.74</ele>
        <time>2020-02-07T15:12:03Z</time>
      </trkpt>
      <trkpt lat="46.24467" lon="6.76078">
        <ele>1314.74</ele>
        <time>2020-02-07T15:12:06Z</time>
      </trkpt>
      <trkpt lat="46.24464" lon="6.76058">
        <ele>1313.3</ele>
        <time>2020-02-07T15:12:18Z</time>
      </trkpt>
      <trkpt lat="46.24465" lon="6.76055">
        <ele>1311.86</ele>
        <time>2020-02-07T15:12:20Z</time>
      </trkpt>
      <trkpt lat="46.24464" lon="6.76041">
        <ele>1311.86</ele>
        <time>2020-02-07T15:12:29Z</time>
      </trkpt>
      <trkpt lat="46.24463" lon="6.76031">
        <ele>1310.9</ele>
        <time>2020-02-07T15:12:35Z</time>
      </trkpt>
      <trkpt lat="46.24463" lon="6.76028">
        <ele>1310.9</ele>
        <time>2020-02-07T15:12:37Z</time>
      </trkpt>
      <trkpt lat="46.24464" lon="6.76024">
        <ele>1310.41</ele>
        <time>2020-02-07T15:12:39Z</time>
      </trkpt>
      <trkpt lat="46.24464" lon="6.76019">
        <ele>1309.93</ele>
        <time>2020-02-07T15:12:42Z</time>
      </trkpt>
      <trkpt lat="46.24462" lon="6.7601">
        <ele>1308.97</ele>
        <time>2020-02-07T15:12:48Z</time>
      </trkpt>
      <trkpt lat="46.24461" lon="6.76005">
        <ele>1308.01</ele>
        <time>2020-02-07T15:12:51Z</time>
      </trkpt>
      <trkpt lat="46.24458" lon="6.75997">
        <ele>1307.05</ele>
        <time>2020-02-07T15:12:56Z</time>
      </trkpt>
      <trkpt lat="46.24458" lon="6.75991">
        <ele>1307.05</ele>
        <time>2020-02-07T15:13:00Z</time>
      </trkpt>
      <trkpt lat="46.24456" lon="6.75982">
        <ele>1306.57</ele>
        <time>2020-02-07T15:13:05Z</time>
      </trkpt>
      <trkpt lat="46.24456" lon="6.75965">
        <ele>1305.61</ele>
        <time>2020-02-07T15:13:16Z</time>
      </trkpt>
      <trkpt lat="46.24457" lon="6.75955">
        <ele>1304.65</ele>
        <time>2020-02-07T15:13:23Z</time>
      </trkpt>
      <trkpt lat="46.24458" lon="6.75951">
        <ele>1303.69</ele>
        <time>2020-02-07T15:13:26Z</time>
      </trkpt>
      <trkpt lat="46.24459" lon="6.75944">
        <ele>1303.69</ele>
        <time>2020-02-07T15:13:30Z</time>
      </trkpt>
      <trkpt lat="46.24458" lon="6.75925">
        <ele>1302.24</ele>
        <time>2020-02-07T15:13:42Z</time>
      </trkpt>
      <trkpt lat="46.24456" lon="6.75904">
        <ele>1300.32</ele>
        <time>2020-02-07T15:13:55Z</time>
      </trkpt>
      <trkpt lat="46.24456" lon="6.75903">
        <ele>1300.32</ele>
        <time>2020-02-07T15:13:56Z</time>
      </trkpt>
      <trkpt lat="46.24454" lon="6.75893">
        <ele>1299.36</ele>
        <time>2020-02-07T15:14:02Z</time>
      </trkpt>
      <trkpt lat="46.24453" lon="6.75887">
        <ele>1299.36</ele>
        <time>2020-02-07T15:14:06Z</time>
      </trkpt>
      <trkpt lat="46.24451" lon="6.75883">
        <ele>1297.92</ele>
        <time>2020-02-07T15:14:09Z</time>
      </trkpt>
      <trkpt lat="46.2445" lon="6.75869">
        <ele>1296.48</ele>
        <time>2020-02-07T15:14:18Z</time>
      </trkpt>
      <trkpt lat="46.2445" lon="6.75866">
        <ele>1296.48</ele>
        <time>2020-02-07T15:14:20Z</time>
      </trkpt>
      <trkpt lat="46.2445" lon="6.75862">
        <ele>1295.99</ele>
        <time>2020-02-07T15:14:22Z</time>
      </trkpt>
      <trkpt lat="46.24449" lon="6.75858">
        <ele>1296.48</ele>
        <time>2020-02-07T15:14:25Z</time>
      </trkpt>
      <trkpt lat="46.24449" lon="6.75852">
        <ele>1295.99</ele>
        <time>2020-02-07T15:14:28Z</time>
      </trkpt>
      <trkpt lat="46.24452" lon="6.75839">
        <ele>1294.55</ele>
        <time>2020-02-07T15:14:36Z</time>
      </trkpt>
      <trkpt lat="46.24463" lon="6.7583">
        <ele>1292.63</ele>
        <time>2020-02-07T15:14:52Z</time>
      </trkpt>
      <trkpt lat="46.24465" lon="6.75831">
        <ele>1292.15</ele>
        <time>2020-02-07T15:14:56Z</time>
      </trkpt>
      <trkpt lat="46.2447" lon="6.75839">
        <ele>1290.71</ele>
        <time>2020-02-07T15:15:08Z</time>
      </trkpt>
      <trkpt lat="46.24473" lon="6.75847">
        <ele>1289.27</ele>
        <time>2020-02-07T15:15:15Z</time>
      </trkpt>
      <trkpt lat="46.24476" lon="6.75855">
        <ele>1288.78</ele>
        <time>2020-02-07T15:15:21Z</time>
      </trkpt>
      <trkpt lat="46.2449" lon="6.75865">
        <ele>1286.38</ele>
        <time>2020-02-07T15:15:35Z</time>
      </trkpt>
      <trkpt lat="46.24492" lon="6.75865">
        <ele>1285.42</ele>
        <time>2020-02-07T15:15:38Z</time>
      </trkpt>
      <trkpt lat="46.245" lon="6.7586">
        <ele>1284.46</ele>
        <time>2020-02-07T15:15:45Z</time>
      </trkpt>
      <trkpt lat="46.24507" lon="6.75841">
        <ele>1283.02</ele>
        <time>2020-02-07T15:15:56Z</time>
      </trkpt>
      <trkpt lat="46.24509" lon="6.75833">
        <ele>1282.06</ele>
        <time>2020-02-07T15:16:01Z</time>
      </trkpt>
      <trkpt lat="46.24509" lon="6.75827">
        <ele>1282.06</ele>
        <time>2020-02-07T15:16:05Z</time>
      </trkpt>
      <trkpt lat="46.24509" lon="6.7582">
        <ele>1281.09</ele>
        <time>2020-02-07T15:16:18Z</time>
      </trkpt>
      <trkpt lat="46.24506" lon="6.75819">
        <ele>1281.09</ele>
        <time>2020-02-07T15:17:08Z</time>
      </trkpt>
      <trkpt lat="46.245" lon="6.758">
        <ele>1280.61</ele>
        <time>2020-02-07T15:17:21Z</time>
      </trkpt>
      <trkpt lat="46.24498" lon="6.75792">
        <ele>1279.65</ele>
        <time>2020-02-07T15:17:28Z</time>
      </trkpt>
      <trkpt lat="46.24493" lon="6.75777">
        <ele>1279.17</ele>
        <time>2020-02-07T15:17:39Z</time>
      </trkpt>
      <trkpt lat="46.24489" lon="6.75767">
        <ele>1278.21</ele>
        <time>2020-02-07T15:17:53Z</time>
      </trkpt>
      <trkpt lat="46.2449" lon="6.75767">
        <ele>1277.73</ele>
        <time>2020-02-07T15:18:23Z</time>
      </trkpt>
      <trkpt lat="46.24491" lon="6.75765">
        <ele>1277.73</ele>
        <time>2020-02-07T15:18:51Z</time>
      </trkpt>
      <trkpt lat="46.24492" lon="6.75763">
        <ele>1277.73</ele>
        <time>2020-02-07T15:19:05Z</time>
      </trkpt>
      <trkpt lat="46.24488" lon="6.75748">
        <ele>1276.77</ele>
        <time>2020-02-07T15:19:31Z</time>
      </trkpt>
      <trkpt lat="46.24487" lon="6.75747">
        <ele>1276.29</ele>
        <time>2020-02-07T15:19:32Z</time>
      </trkpt>
      <trkpt lat="46.24482" lon="6.75731">
        <ele>1275.81</ele>
        <time>2020-02-07T15:19:43Z</time>
      </trkpt>
      <trkpt lat="46.24471" lon="6.7572">
        <ele>1274.36</ele>
        <time>2020-02-07T15:19:57Z</time>
      </trkpt>
      <trkpt lat="46.24461" lon="6.75714">
        <ele>1273.4</ele>
        <time>2020-02-07T15:20:07Z</time>
      </trkpt>
      <trkpt lat="46.24449" lon="6.75701">
        <ele>1271.48</ele>
        <time>2020-02-07T15:20:21Z</time>
      </trkpt>
      <trkpt lat="46.2444" lon="6.75689">
        <ele>1271</ele>
        <time>2020-02-07T15:20:31Z</time>
      </trkpt>
      <trkpt lat="46.24435" lon="6.75676">
        <ele>1269.56</ele>
        <time>2020-02-07T15:20:40Z</time>
      </trkpt>
      <trkpt lat="46.24434" lon="6.7567">
        <ele>1268.6</ele>
        <time>2020-02-07T15:20:43Z</time>
      </trkpt>
      <trkpt lat="46.24437" lon="6.75654">
        <ele>1268.12</ele>
        <time>2020-02-07T15:20:52Z</time>
      </trkpt>
      <trkpt lat="46.24439" lon="6.75645">
        <ele>1267.64</ele>
        <time>2020-02-07T15:20:56Z</time>
      </trkpt>
      <trkpt lat="46.2444" lon="6.75642">
        <ele>1267.16</ele>
        <time>2020-02-07T15:20:58Z</time>
      </trkpt>
      <trkpt lat="46.24442" lon="6.75625">
        <ele>1267.16</ele>
        <time>2020-02-07T15:21:07Z</time>
      </trkpt>
      <trkpt lat="46.24441" lon="6.7562">
        <ele>1265.71</ele>
        <time>2020-02-07T15:21:10Z</time>
      </trkpt>
      <trkpt lat="46.24443" lon="6.75609">
        <ele>1265.71</ele>
        <time>2020-02-07T15:21:19Z</time>
      </trkpt>
      <trkpt lat="46.24444" lon="6.75608">
        <ele>1265.23</ele>
        <time>2020-02-07T15:21:21Z</time>
      </trkpt>
      <trkpt lat="46.24455" lon="6.75609">
        <ele>1261.87</ele>
        <time>2020-02-07T15:21:31Z</time>
      </trkpt>
      <trkpt lat="46.24462" lon="6.75612">
        <ele>1259.94</ele>
        <time>2020-02-07T15:21:38Z</time>
      </trkpt>
      <trkpt lat="46.24471" lon="6.75614">
        <ele>1257.06</ele>
        <time>2020-02-07T15:21:46Z</time>
      </trkpt>
      <trkpt lat="46.24483" lon="6.75617">
        <ele>1254.66</ele>
        <time>2020-02-07T15:21:57Z</time>
      </trkpt>
      <trkpt lat="46.24485" lon="6.75618">
        <ele>1254.66</ele>
        <time>2020-02-07T15:21:59Z</time>
      </trkpt>
      <trkpt lat="46.24499" lon="6.75624">
        <ele>1250.81</ele>
        <time>2020-02-07T15:22:12Z</time>
      </trkpt>
      <trkpt lat="46.24514" lon="6.75626">
        <ele>1247.93</ele>
        <time>2020-02-07T15:22:24Z</time>
      </trkpt>
      <trkpt lat="46.24528" lon="6.75629">
        <ele>1246.97</ele>
        <time>2020-02-07T15:22:36Z</time>
      </trkpt>
      <trkpt lat="46.24539" lon="6.75638">
        <ele>1244.08</ele>
        <time>2020-02-07T15:22:49Z</time>
      </trkpt>
      <trkpt lat="46.24542" lon="6.7564">
        <ele>1243.12</ele>
        <time>2020-02-07T15:23:03Z</time>
      </trkpt>
      <trkpt lat="46.24543" lon="6.7564">
        <ele>1243.12</ele>
        <time>2020-02-07T15:23:46Z</time>
      </trkpt>
      <trkpt lat="46.24543" lon="6.7564">
        <ele>1243.12</ele>
        <time>2020-02-07T15:24:41Z</time>
      </trkpt>
      <trkpt lat="46.24547" lon="6.7564">
        <ele>1242.64</ele>
        <time>2020-02-07T15:24:48Z</time>
      </trkpt>
      <trkpt lat="46.2456" lon="6.75639">
        <ele>1241.68</ele>
        <time>2020-02-07T15:24:59Z</time>
      </trkpt>
      <trkpt lat="46.24565" lon="6.75635">
        <ele>1241.68</ele>
        <time>2020-02-07T15:25:11Z</time>
      </trkpt>
      <trkpt lat="46.24574" lon="6.75628">
        <ele>1238.32</ele>
        <time>2020-02-07T15:25:23Z</time>
      </trkpt>
      <trkpt lat="46.24577" lon="6.75626">
        <ele>1237.83</ele>
        <time>2020-02-07T15:25:27Z</time>
      </trkpt>
      <trkpt lat="46.24588" lon="6.7562">
        <ele>1235.43</ele>
        <time>2020-02-07T15:25:41Z</time>
      </trkpt>
      <trkpt lat="46.24599" lon="6.75616">
        <ele>1233.99</ele>
        <time>2020-02-07T15:25:51Z</time>
      </trkpt>
      <trkpt lat="46.24608" lon="6.75614">
        <ele>1233.51</ele>
        <time>2020-02-07T15:26:01Z</time>
      </trkpt>
      <trkpt lat="46.24612" lon="6.75615">
        <ele>1232.55</ele>
        <time>2020-02-07T15:26:05Z</time>
      </trkpt>
      <trkpt lat="46.24626" lon="6.75611">
        <ele>1230.62</ele>
        <time>2020-02-07T15:26:20Z</time>
      </trkpt>
      <trkpt lat="46.24634" lon="6.75607">
        <ele>1228.7</ele>
        <time>2020-02-07T15:26:28Z</time>
      </trkpt>
      <trkpt lat="46.24645" lon="6.75596">
        <ele>1227.74</ele>
        <time>2020-02-07T15:26:41Z</time>
      </trkpt>
      <trkpt lat="46.24656" lon="6.75588">
        <ele>1226.78</ele>
        <time>2020-02-07T15:26:53Z</time>
      </trkpt>
      <trkpt lat="46.24665" lon="6.75585">
        <ele>1228.22</ele>
        <time>2020-02-07T15:27:03Z</time>
      </trkpt>
      <trkpt lat="46.24677" lon="6.75576">
        <ele>1226.78</ele>
        <time>2020-02-07T15:27:17Z</time>
      </trkpt>
      <trkpt lat="46.24682" lon="6.75572">
        <ele>1226.78</ele>
        <time>2020-02-07T15:27:23Z</time>
      </trkpt>
      <trkpt lat="46.24689" lon="6.75564">
        <ele>1225.34</ele>
        <time>2020-02-07T15:27:33Z</time>
      </trkpt>
      <trkpt lat="46.24698" lon="6.75559">
        <ele>1224.38</ele>
        <time>2020-02-07T15:27:42Z</time>
      </trkpt>
      <trkpt lat="46.24709" lon="6.75558">
        <ele>1221.97</ele>
        <time>2020-02-07T15:27:55Z</time>
      </trkpt>
      <trkpt lat="46.2472" lon="6.75555">
        <ele>1220.05</ele>
        <time>2020-02-07T15:28:07Z</time>
      </trkpt>
      <trkpt lat="46.24734" lon="6.75553">
        <ele>1219.09</ele>
        <time>2020-02-07T15:28:19Z</time>
      </trkpt>
      <trkpt lat="46.24744" lon="6.75551">
        <ele>1216.21</ele>
        <time>2020-02-07T15:28:29Z</time>
      </trkpt>
      <trkpt lat="46.24745" lon="6.75552">
        <ele>1215.72</ele>
        <time>2020-02-07T15:28:31Z</time>
      </trkpt>
      <trkpt lat="46.24748" lon="6.75552">
        <ele>1215.24</ele>
        <time>2020-02-07T15:28:35Z</time>
      </trkpt>
      <trkpt lat="46.24758" lon="6.75553">
        <ele>1212.84</ele>
        <time>2020-02-07T15:28:46Z</time>
      </trkpt>
      <trkpt lat="46.24768" lon="6.75561">
        <ele>1209.48</ele>
        <time>2020-02-07T15:29:00Z</time>
      </trkpt>
      <trkpt lat="46.24775" lon="6.75562">
        <ele>1207.55</ele>
        <time>2020-02-07T15:29:11Z</time>
      </trkpt>
      <trkpt lat="46.24777" lon="6.75564">
        <ele>1206.11</ele>
        <time>2020-02-07T15:29:14Z</time>
      </trkpt>
      <trkpt lat="46.24778" lon="6.75564">
        <ele>1206.11</ele>
        <time>2020-02-07T15:29:15Z</time>
      </trkpt>
      <trkpt lat="46.24788" lon="6.75551">
        <ele>1204.19</ele>
        <time>2020-02-07T15:29:29Z</time>
      </trkpt>
      <trkpt lat="46.24789" lon="6.75547">
        <ele>1204.19</ele>
        <time>2020-02-07T15:29:32Z</time>
      </trkpt>
      <trkpt lat="46.24796" lon="6.75538">
        <ele>1203.71</ele>
        <time>2020-02-07T15:29:40Z</time>
      </trkpt>
      <trkpt lat="46.24798" lon="6.75535">
        <ele>1202.75</ele>
        <time>2020-02-07T15:29:43Z</time>
      </trkpt>
      <trkpt lat="46.24808" lon="6.75527">
        <ele>1202.27</ele>
        <time>2020-02-07T15:29:56Z</time>
      </trkpt>
      <trkpt lat="46.24823" lon="6.75518">
        <ele>1200.34</ele>
        <time>2020-02-07T15:30:14Z</time>
      </trkpt>
      <trkpt lat="46.24824" lon="6.75514">
        <ele>1199.38</ele>
        <time>2020-02-07T15:30:18Z</time>
      </trkpt>
      <trkpt lat="46.24828" lon="6.75507">
        <ele>1197.94</ele>
        <time>2020-02-07T15:30:28Z</time>
      </trkpt>
      <trkpt lat="46.2483" lon="6.75502">
        <ele>1197.94</ele>
        <time>2020-02-07T15:30:41Z</time>
      </trkpt>
      <trkpt lat="46.2483" lon="6.75502">
        <ele>1196.98</ele>
        <time>2020-02-07T15:31:06Z</time>
      </trkpt>
    </trkseg>
  </trk>
</gpx>